Check out our new PWSWeather beta!
PWSweather.com
Personal Weather Stations
Station Observations
SSSVT
Soukromá Střední škola Výpočetní Techniky, Prague 9CZ 190 00

Soukromá Střední škola Výpočetní TechnikyPrague 9CZ 190 00

Lat: 50.11902, Lon: 14.491065

Elevation: 1007

Station Type: Davis Vantage Pro 2

https://www.sssvt.cz/informace/pocasi/

High Low Average
Temperature 87.0°F30.6°C 64.2°F17.9°C 72.7°F22.6°C
Dew Point 67.8°F19.9°C 59.2°F15.1°C 63.1°F17.3°C
Winds 12.1 mph 19.5 kmh Calm Calm 1.0 mph SW1.6 kmh SW
Wind Gusts 18.0 mph29.0 kmh -- 3.0 mph4.8 kmh
Humidity 95% 46% 74%
Pressure 29.97 in1014.9 mb 29.81 in1009.5 mb -
Precipitation 0.24 in6.1 mm - -
Hour Temp Dew Point Humidity Winds Wind Gusts Pressure Precip Precip Rate Daily Precip Total
12:00 AM 74.5°F23.6°C 61.1°F16.2°C 63% Calm Calm -- 29.87 in1011.5 mb 0.00 in0.0 mm 0.00 in0.0 mm 0.00 in0.0 mm
12:01 AM 74.5°F23.6°C 61.1°F16.2°C 63% Calm Calm -- 29.87 in1011.5 mb 0.00 in0.0 mm 0.00 in0.0 mm 0.00 in0.0 mm
12:02 AM 74.4°F23.6°C 61.0°F16.1°C 63% Calm Calm -- 29.87 in1011.5 mb 0.00 in0.0 mm 0.00 in0.0 mm 0.00 in0.0 mm
12:03 AM 74.4°F23.6°C 61.0°F16.1°C 63% Calm Calm -- 29.87 in1011.5 mb 0.00 in0.0 mm 0.00 in0.0 mm 0.00 in0.0 mm
12:04 AM 74.3°F23.5°C 60.9°F16.1°C 63% Calm Calm -- 29.87 in1011.5 mb 0.00 in0.0 mm 0.00 in0.0 mm 0.00 in0.0 mm
12:05 AM 74.3°F23.5°C 60.9°F16.1°C 63% Calm Calm -- 29.87 in1011.5 mb 0.00 in0.0 mm 0.00 in0.0 mm 0.00 in0.0 mm
12:06 AM 74.3°F23.5°C 61.3°F16.3°C 64% Calm Calm -- 29.87 in1011.5 mb 0.00 in0.0 mm 0.00 in0.0 mm 0.00 in0.0 mm
12:07 AM 74.2°F23.4°C 61.2°F16.2°C 64% Calm Calm -- 29.87 in1011.5 mb 0.00 in0.0 mm 0.00 in0.0 mm 0.00 in0.0 mm
12:08 AM 74.2°F23.4°C 61.2°F16.2°C 64% Calm Calm -- 29.87 in1011.5 mb 0.00 in0.0 mm 0.00 in0.0 mm 0.00 in0.0 mm
12:09 AM 74.1°F23.4°C 61.1°F16.2°C 64% Calm Calm -- 29.87 in1011.5 mb 0.00 in0.0 mm 0.00 in0.0 mm 0.00 in0.0 mm
12:10 AM 74.1°F23.4°C 61.1°F16.2°C 64% Calm Calm -- 29.87 in1011.5 mb 0.00 in0.0 mm 0.00 in0.0 mm 0.00 in0.0 mm
12:11 AM 74.0°F23.3°C 61.0°F16.1°C 64% Calm Calm -- 29.87 in1011.5 mb 0.00 in0.0 mm 0.00 in0.0 mm 0.00 in0.0 mm
12:12 AM 74.0°F23.3°C 61.0°F16.1°C 64% Calm Calm -- 29.87 in1011.5 mb 0.00 in0.0 mm 0.00 in0.0 mm 0.00 in0.0 mm
12:13 AM 74.0°F23.3°C 61.0°F16.1°C 64% Calm Calm -- 29.87 in1011.5 mb 0.00 in0.0 mm 0.00 in0.0 mm 0.00 in0.0 mm
12:14 AM 73.9°F23.3°C 60.9°F16.1°C 64% Calm Calm -- 29.87 in1011.5 mb 0.00 in0.0 mm 0.00 in0.0 mm 0.00 in0.0 mm
12:15 AM 73.9°F23.3°C 60.9°F16.1°C 64% Calm Calm -- 29.87 in1011.5 mb 0.00 in0.0 mm 0.00 in0.0 mm 0.00 in0.0 mm
12:16 AM 73.9°F23.3°C 60.9°F16.1°C 64% Calm Calm -- 29.87 in1011.5 mb 0.00 in0.0 mm 0.00 in0.0 mm 0.00 in0.0 mm
12:17 AM 73.8°F23.2°C 60.8°F16.0°C 64% Calm Calm -- 29.87 in1011.5 mb 0.00 in0.0 mm 0.00 in0.0 mm 0.00 in0.0 mm
12:18 AM 73.8°F23.2°C 61.3°F16.3°C 65% Calm Calm -- 29.87 in1011.5 mb 0.00 in0.0 mm 0.00 in0.0 mm 0.00 in0.0 mm
12:19 AM 73.7°F23.2°C 60.8°F16.0°C 64% Calm Calm -- 29.87 in1011.5 mb 0.00 in0.0 mm 0.00 in0.0 mm 0.00 in0.0 mm
12:20 AM 73.7°F23.2°C 60.8°F16.0°C 64% Calm Calm -- 29.87 in1011.5 mb 0.00 in0.0 mm 0.00 in0.0 mm 0.00 in0.0 mm
12:21 AM 73.7°F23.2°C 60.8°F16.0°C 64% Calm Calm -- 29.86 in1011.2 mb 0.00 in0.0 mm 0.00 in0.0 mm 0.00 in0.0 mm
12:22 AM 73.6°F23.1°C 60.7°F15.9°C 64% Calm Calm -- 29.87 in1011.5 mb 0.00 in0.0 mm 0.00 in0.0 mm 0.00 in0.0 mm
12:23 AM 73.6°F23.1°C 61.1°F16.2°C 65% Calm Calm -- 29.86 in1011.2 mb 0.00 in0.0 mm 0.00 in0.0 mm 0.00 in0.0 mm
12:24 AM 73.5°F23.1°C 61.0°F16.1°C 65% Calm Calm -- 29.86 in1011.2 mb 0.00 in0.0 mm 0.00 in0.0 mm 0.00 in0.0 mm
12:25 AM 73.5°F23.1°C 61.0°F16.1°C 65% Calm Calm -- 29.86 in1011.2 mb 0.00 in0.0 mm 0.00 in0.0 mm 0.00 in0.0 mm
12:26 AM 73.5°F23.1°C 61.0°F16.1°C 65% Calm Calm -- 29.86 in1011.2 mb 0.00 in0.0 mm 0.00 in0.0 mm 0.00 in0.0 mm
12:27 AM 73.5°F23.1°C 61.0°F16.1°C 65% Calm Calm -- 29.86 in1011.2 mb 0.00 in0.0 mm 0.00 in0.0 mm 0.00 in0.0 mm
12:28 AM 73.5°F23.1°C 61.0°F16.1°C 65% Calm Calm -- 29.86 in1011.2 mb 0.00 in0.0 mm 0.00 in0.0 mm 0.00 in0.0 mm
12:29 AM 73.4°F23.0°C 60.9°F16.1°C 65% Calm Calm -- 29.86 in1011.2 mb 0.00 in0.0 mm 0.00 in0.0 mm 0.00 in0.0 mm
12:30 AM 73.4°F23.0°C 60.9°F16.1°C 65% Calm Calm -- 29.86 in1011.2 mb 0.00 in0.0 mm 0.00 in0.0 mm 0.00 in0.0 mm
12:31 AM 73.4°F23.0°C 60.9°F16.1°C 65% Calm Calm -- 29.86 in1011.2 mb 0.00 in0.0 mm 0.00 in0.0 mm 0.00 in0.0 mm
12:32 AM 73.4°F23.0°C 60.9°F16.1°C 65% Calm Calm -- 29.86 in1011.2 mb 0.00 in0.0 mm 0.00 in0.0 mm 0.00 in0.0 mm
12:33 AM 73.4°F23.0°C 60.9°F16.1°C 65% Calm Calm -- 29.86 in1011.2 mb 0.00 in0.0 mm 0.00 in0.0 mm 0.00 in0.0 mm
12:34 AM 73.4°F23.0°C 60.9°F16.1°C 65% Calm Calm -- 29.86 in1011.2 mb 0.00 in0.0 mm 0.00 in0.0 mm 0.00 in0.0 mm
12:35 AM 73.4°F23.0°C 61.3°F16.3°C 66% Calm Calm -- 29.86 in1011.2 mb 0.00 in0.0 mm 0.00 in0.0 mm 0.00 in0.0 mm
12:36 AM 73.4°F23.0°C 61.3°F16.3°C 66% Calm Calm -- 29.86 in1011.2 mb 0.00 in0.0 mm 0.00 in0.0 mm 0.00 in0.0 mm
12:37 AM 73.4°F23.0°C 61.3°F16.3°C 66% Calm Calm -- 29.86 in1011.2 mb 0.00 in0.0 mm 0.00 in0.0 mm 0.00 in0.0 mm
12:38 AM 73.4°F23.0°C 61.3°F16.3°C 66% Calm Calm -- 29.86 in1011.2 mb 0.00 in0.0 mm 0.00 in0.0 mm 0.00 in0.0 mm
12:39 AM 73.3°F22.9°C 61.2°F16.2°C 66% Calm Calm -- 29.86 in1011.2 mb 0.00 in0.0 mm 0.00 in0.0 mm 0.00 in0.0 mm
12:40 AM 73.3°F22.9°C 61.2°F16.2°C 66% Calm Calm -- 29.86 in1011.2 mb 0.00 in0.0 mm 0.00 in0.0 mm 0.00 in0.0 mm
12:41 AM 73.3°F22.9°C 61.2°F16.2°C 66% Calm Calm -- 29.86 in1011.2 mb 0.00 in0.0 mm 0.00 in0.0 mm 0.00 in0.0 mm
12:42 AM 73.3°F22.9°C 61.2°F16.2°C 66% Calm Calm -- 29.86 in1011.2 mb 0.00 in0.0 mm 0.00 in0.0 mm 0.00 in0.0 mm
12:43 AM 73.3°F22.9°C 61.2°F16.2°C 66% Calm Calm -- 29.86 in1011.2 mb 0.00 in0.0 mm 0.00 in0.0 mm 0.00 in0.0 mm
12:44 AM 73.2°F22.9°C 61.1°F16.2°C 66% Calm Calm -- 29.86 in1011.2 mb 0.00 in0.0 mm 0.00 in0.0 mm 0.00 in0.0 mm
12:45 AM 73.2°F22.9°C 61.1°F16.2°C 66% Calm Calm -- 29.86 in1011.2 mb 0.00 in0.0 mm 0.00 in0.0 mm 0.00 in0.0 mm
12:46 AM 73.2°F22.9°C 61.1°F16.2°C 66% Calm Calm -- 29.86 in1011.2 mb 0.00 in0.0 mm 0.00 in0.0 mm 0.00 in0.0 mm
12:47 AM 73.2°F22.9°C 61.1°F16.2°C 66% Calm Calm -- 29.86 in1011.2 mb 0.00 in0.0 mm 0.00 in0.0 mm 0.00 in0.0 mm
12:48 AM 73.1°F22.8°C 61.1°F16.2°C 66% Calm Calm -- 29.86 in1011.2 mb 0.00 in0.0 mm 0.00 in0.0 mm 0.00 in0.0 mm
12:49 AM 73.1°F22.8°C 61.1°F16.2°C 66% Calm Calm -- 29.86 in1011.2 mb 0.00 in0.0 mm 0.00 in0.0 mm 0.00 in0.0 mm
12:50 AM 73.1°F22.8°C 61.1°F16.2°C 66% Calm Calm -- 29.86 in1011.2 mb 0.00 in0.0 mm 0.00 in0.0 mm 0.00 in0.0 mm
12:51 AM 73.1°F22.8°C 61.1°F16.2°C 66% Calm Calm -- 29.86 in1011.2 mb 0.00 in0.0 mm 0.00 in0.0 mm 0.00 in0.0 mm
12:52 AM 73.0°F22.8°C 61.0°F16.1°C 66% Calm Calm -- 29.86 in1011.2 mb 0.00 in0.0 mm 0.00 in0.0 mm 0.00 in0.0 mm
12:53 AM 73.0°F22.8°C 61.4°F16.3°C 67% Calm Calm -- 29.86 in1011.2 mb 0.00 in0.0 mm 0.00 in0.0 mm 0.00 in0.0 mm
12:54 AM 73.0°F22.8°C 61.4°F16.3°C 67% Calm Calm -- 29.86 in1011.2 mb 0.00 in0.0 mm 0.00 in0.0 mm 0.00 in0.0 mm
12:55 AM 73.0°F22.8°C 61.4°F16.3°C 67% Calm Calm -- 29.86 in1011.2 mb 0.00 in0.0 mm 0.00 in0.0 mm 0.00 in0.0 mm
12:56 AM 73.0°F22.8°C 61.4°F16.3°C 67% Calm Calm -- 29.86 in1011.2 mb 0.00 in0.0 mm 0.00 in0.0 mm 0.00 in0.0 mm
12:57 AM 73.0°F22.8°C 61.4°F16.3°C 67% Calm Calm -- 29.86 in1011.2 mb 0.00 in0.0 mm 0.00 in0.0 mm 0.00 in0.0 mm
12:58 AM 73.0°F22.8°C 61.4°F16.3°C 67% Calm Calm -- 29.86 in1011.2 mb 0.00 in0.0 mm 0.00 in0.0 mm 0.00 in0.0 mm
12:59 AM 73.0°F22.8°C 61.4°F16.3°C 67% Calm Calm -- 29.86 in1011.2 mb 0.00 in0.0 mm 0.00 in0.0 mm 0.00 in0.0 mm
01:00 AM 73.0°F22.8°C 61.4°F16.3°C 67% Calm Calm -- 29.86 in1011.2 mb 0.00 in0.0 mm 0.00 in0.0 mm 0.00 in0.0 mm
01:01 AM 73.0°F22.8°C 61.4°F16.3°C 67% Calm Calm -- 29.86 in1011.2 mb 0.00 in0.0 mm 0.00 in0.0 mm 0.00 in0.0 mm
01:02 AM 73.0°F22.8°C 61.4°F16.3°C 67% Calm Calm -- 29.86 in1011.2 mb 0.00 in0.0 mm 0.00 in0.0 mm 0.00 in0.0 mm
01:03 AM 73.0°F22.8°C 61.4°F16.3°C 67% Calm Calm -- 29.86 in1011.2 mb 0.00 in0.0 mm 0.00 in0.0 mm 0.00 in0.0 mm
01:04 AM 72.9°F22.7°C 61.3°F16.3°C 67% Calm Calm -- 29.86 in1011.2 mb 0.00 in0.0 mm 0.00 in0.0 mm 0.00 in0.0 mm
01:05 AM 72.9°F22.7°C 61.3°F16.3°C 67% Calm Calm -- 29.86 in1011.2 mb 0.00 in0.0 mm 0.00 in0.0 mm 0.00 in0.0 mm
01:06 AM 72.9°F22.7°C 61.3°F16.3°C 67% Calm Calm -- 29.86 in1011.2 mb 0.00 in0.0 mm 0.00 in0.0 mm 0.00 in0.0 mm
01:07 AM 72.9°F22.7°C 61.3°F16.3°C 67% Calm Calm -- 29.86 in1011.2 mb 0.00 in0.0 mm 0.00 in0.0 mm 0.00 in0.0 mm
01:08 AM 72.9°F22.7°C 61.3°F16.3°C 67% Calm Calm -- 29.86 in1011.2 mb 0.00 in0.0 mm 0.00 in0.0 mm 0.00 in0.0 mm
01:09 AM 72.8°F22.7°C 61.2°F16.2°C 67% Calm Calm -- 29.86 in1011.2 mb 0.00 in0.0 mm 0.00 in0.0 mm 0.00 in0.0 mm
01:10 AM 72.8°F22.7°C 61.2°F16.2°C 67% Calm Calm -- 29.86 in1011.2 mb 0.00 in0.0 mm 0.00 in0.0 mm 0.00 in0.0 mm
01:11 AM 72.8°F22.7°C 61.2°F16.2°C 67% Calm Calm -- 29.86 in1011.2 mb 0.00 in0.0 mm 0.00 in0.0 mm 0.00 in0.0 mm
01:12 AM 72.8°F22.7°C 61.2°F16.2°C 67% Calm Calm -- 29.86 in1011.2 mb 0.00 in0.0 mm 0.00 in0.0 mm 0.00 in0.0 mm
01:13 AM 72.8°F22.7°C 61.2°F16.2°C 67% Calm Calm -- 29.86 in1011.2 mb 0.00 in0.0 mm 0.00 in0.0 mm 0.00 in0.0 mm
01:14 AM 72.8°F22.7°C 61.2°F16.2°C 67% Calm Calm -- 29.86 in1011.2 mb 0.00 in0.0 mm 0.00 in0.0 mm 0.00 in0.0 mm
01:15 AM 72.7°F22.6°C 61.1°F16.2°C 67% Calm Calm -- 29.86 in1011.2 mb 0.00 in0.0 mm 0.00 in0.0 mm 0.00 in0.0 mm
01:16 AM 72.7°F22.6°C 61.1°F16.2°C 67% Calm Calm -- 29.86 in1011.2 mb 0.00 in0.0 mm 0.00 in0.0 mm 0.00 in0.0 mm
01:17 AM 72.7°F22.6°C 61.1°F16.2°C 67% Calm Calm -- 29.86 in1011.2 mb 0.00 in0.0 mm 0.00 in0.0 mm 0.00 in0.0 mm
01:18 AM 72.7°F22.6°C 61.1°F16.2°C 67% Calm Calm -- 29.86 in1011.2 mb 0.00 in0.0 mm 0.00 in0.0 mm 0.00 in0.0 mm
01:19 AM 72.7°F22.6°C 61.5°F16.4°C 68% Calm Calm -- 29.86 in1011.2 mb 0.00 in0.0 mm 0.00 in0.0 mm 0.00 in0.0 mm
01:20 AM 72.7°F22.6°C 61.5°F16.4°C 68% Calm Calm -- 29.86 in1011.2 mb 0.00 in0.0 mm 0.00 in0.0 mm 0.00 in0.0 mm
01:21 AM 72.7°F22.6°C 61.5°F16.4°C 68% Calm Calm -- 29.86 in1011.2 mb 0.00 in0.0 mm 0.00 in0.0 mm 0.00 in0.0 mm
01:22 AM 72.6°F22.6°C 61.4°F16.3°C 68% Calm Calm -- 29.86 in1011.2 mb 0.00 in0.0 mm 0.00 in0.0 mm 0.00 in0.0 mm
01:23 AM 72.6°F22.6°C 61.4°F16.3°C 68% Calm Calm -- 29.86 in1011.2 mb 0.00 in0.0 mm 0.00 in0.0 mm 0.00 in0.0 mm
01:24 AM 72.6°F22.6°C 61.4°F16.3°C 68% Calm Calm -- 29.86 in1011.2 mb 0.00 in0.0 mm 0.00 in0.0 mm 0.00 in0.0 mm
01:25 AM 72.6°F22.6°C 61.4°F16.3°C 68% Calm Calm -- 29.86 in1011.2 mb 0.00 in0.0 mm 0.00 in0.0 mm 0.00 in0.0 mm
01:26 AM 72.5°F22.5°C 61.3°F16.3°C 68% Calm Calm -- 29.86 in1011.2 mb 0.00 in0.0 mm 0.00 in0.0 mm 0.00 in0.0 mm
01:27 AM 72.5°F22.5°C 61.3°F16.3°C 68% Calm Calm -- 29.86 in1011.2 mb 0.00 in0.0 mm 0.00 in0.0 mm 0.00 in0.0 mm
01:28 AM 72.5°F22.5°C 61.3°F16.3°C 68% Calm Calm -- 29.86 in1011.2 mb 0.00 in0.0 mm 0.00 in0.0 mm 0.00 in0.0 mm
01:29 AM 72.5°F22.5°C 61.3°F16.3°C 68% Calm Calm -- 29.86 in1011.2 mb 0.00 in0.0 mm 0.00 in0.0 mm 0.00 in0.0 mm
01:30 AM 72.4°F22.4°C 61.2°F16.2°C 68% Calm Calm -- 29.86 in1011.2 mb 0.00 in0.0 mm 0.00 in0.0 mm 0.00 in0.0 mm
01:31 AM 72.4°F22.4°C 61.2°F16.2°C 68% Calm Calm -- 29.86 in1011.2 mb 0.00 in0.0 mm 0.00 in0.0 mm 0.00 in0.0 mm
01:32 AM 72.4°F22.4°C 61.2°F16.2°C 68% Calm Calm -- 29.86 in1011.2 mb 0.00 in0.0 mm 0.00 in0.0 mm 0.00 in0.0 mm
01:33 AM 72.4°F22.4°C 61.2°F16.2°C 68% Calm Calm -- 29.86 in1011.2 mb 0.00 in0.0 mm 0.00 in0.0 mm 0.00 in0.0 mm
01:34 AM 72.4°F22.4°C 61.6°F16.4°C 69% Calm Calm -- 29.86 in1011.2 mb 0.00 in0.0 mm 0.00 in0.0 mm 0.00 in0.0 mm
01:35 AM 72.4°F22.4°C 61.6°F16.4°C 69% Calm Calm -- 29.86 in1011.2 mb 0.00 in0.0 mm 0.00 in0.0 mm 0.00 in0.0 mm
01:36 AM 72.4°F22.4°C 61.6°F16.4°C 69% Calm Calm -- 29.86 in1011.2 mb 0.00 in0.0 mm 0.00 in0.0 mm 0.00 in0.0 mm
01:37 AM 72.3°F22.4°C 61.5°F16.4°C 69% Calm Calm -- 29.86 in1011.2 mb 0.00 in0.0 mm 0.00 in0.0 mm 0.00 in0.0 mm
01:38 AM 72.4°F22.4°C 61.6°F16.4°C 69% Calm Calm -- 29.86 in1011.2 mb 0.00 in0.0 mm 0.00 in0.0 mm 0.00 in0.0 mm
01:39 AM 72.4°F22.4°C 61.6°F16.4°C 69% Calm Calm -- 29.86 in1011.2 mb 0.00 in0.0 mm 0.00 in0.0 mm 0.00 in0.0 mm
01:40 AM 72.3°F22.4°C 61.5°F16.4°C 69% Calm Calm -- 29.86 in1011.2 mb 0.00 in0.0 mm 0.00 in0.0 mm 0.00 in0.0 mm
01:41 AM 72.3°F22.4°C 61.5°F16.4°C 69% Calm Calm -- 29.86 in1011.2 mb 0.00 in0.0 mm 0.00 in0.0 mm 0.00 in0.0 mm
01:42 AM 72.3°F22.4°C 61.5°F16.4°C 69% Calm Calm -- 29.86 in1011.2 mb 0.00 in0.0 mm 0.00 in0.0 mm 0.00 in0.0 mm
01:43 AM 72.4°F22.4°C 61.6°F16.4°C 69% Calm Calm -- 29.86 in1011.2 mb 0.00 in0.0 mm 0.00 in0.0 mm 0.00 in0.0 mm
01:44 AM 72.4°F22.4°C 61.6°F16.4°C 69% Calm Calm -- 29.86 in1011.2 mb 0.00 in0.0 mm 0.00 in0.0 mm 0.00 in0.0 mm
01:45 AM 72.4°F22.4°C 61.6°F16.4°C 69% Calm Calm -- 29.86 in1011.2 mb 0.00 in0.0 mm 0.00 in0.0 mm 0.00 in0.0 mm
01:46 AM 72.4°F22.4°C 61.6°F16.4°C 69% Calm Calm -- 29.86 in1011.2 mb 0.00 in0.0 mm 0.00 in0.0 mm 0.00 in0.0 mm
01:47 AM 72.4°F22.4°C 61.6°F16.4°C 69% Calm Calm -- 29.86 in1011.2 mb 0.00 in0.0 mm 0.00 in0.0 mm 0.00 in0.0 mm
01:48 AM 72.5°F22.5°C 61.7°F16.5°C 69% Calm Calm -- 29.86 in1011.2 mb 0.00 in0.0 mm 0.00 in0.0 mm 0.00 in0.0 mm
01:49 AM 72.5°F22.5°C 61.7°F16.5°C 69% Calm Calm -- 29.85 in1010.8 mb 0.00 in0.0 mm 0.00 in0.0 mm 0.00 in0.0 mm
01:50 AM 72.5°F22.5°C 61.7°F16.5°C 69% Calm Calm -- 29.85 in1010.8 mb 0.00 in0.0 mm 0.00 in0.0 mm 0.00 in0.0 mm
01:51 AM 72.5°F22.5°C 61.7°F16.5°C 69% Calm Calm -- 29.85 in1010.8 mb 0.00 in0.0 mm 0.00 in0.0 mm 0.00 in0.0 mm
01:52 AM 72.5°F22.5°C 61.7°F16.5°C 69% Calm Calm -- 29.85 in1010.8 mb 0.00 in0.0 mm 0.00 in0.0 mm 0.00 in0.0 mm
01:53 AM 72.5°F22.5°C 61.7°F16.5°C 69% Calm Calm -- 29.85 in1010.8 mb 0.00 in0.0 mm 0.00 in0.0 mm 0.00 in0.0 mm
01:54 AM 72.5°F22.5°C 61.7°F16.5°C 69% Calm Calm -- 29.85 in1010.8 mb 0.00 in0.0 mm 0.00 in0.0 mm 0.00 in0.0 mm
01:55 AM 72.5°F22.5°C 61.7°F16.5°C 69% Calm Calm -- 29.85 in1010.8 mb 0.00 in0.0 mm 0.00 in0.0 mm 0.00 in0.0 mm
01:56 AM 72.5°F22.5°C 61.7°F16.5°C 69% Calm Calm -- 29.85 in1010.8 mb 0.00 in0.0 mm 0.00 in0.0 mm 0.00 in0.0 mm
01:57 AM 72.5°F22.5°C 61.7°F16.5°C 69% Calm Calm -- 29.85 in1010.8 mb 0.00 in0.0 mm 0.00 in0.0 mm 0.00 in0.0 mm
01:58 AM 72.5°F22.5°C 61.7°F16.5°C 69% Calm Calm -- 29.85 in1010.8 mb 0.00 in0.0 mm 0.00 in0.0 mm 0.00 in0.0 mm
01:59 AM 72.5°F22.5°C 61.7°F16.5°C 69% Calm Calm -- 29.85 in1010.8 mb 0.00 in0.0 mm 0.00 in0.0 mm 0.00 in0.0 mm
02:00 AM 72.5°F22.5°C 61.7°F16.5°C 69% Calm Calm -- 29.86 in1011.2 mb 0.00 in0.0 mm 0.00 in0.0 mm 0.00 in0.0 mm
02:01 AM 72.4°F22.4°C 61.6°F16.4°C 69% Calm Calm -- 29.86 in1011.2 mb 0.00 in0.0 mm 0.00 in0.0 mm 0.00 in0.0 mm
02:02 AM 72.4°F22.4°C 61.6°F16.4°C 69% Calm Calm -- 29.86 in1011.2 mb 0.00 in0.0 mm 0.00 in0.0 mm 0.00 in0.0 mm
02:03 AM 72.4°F22.4°C 61.6°F16.4°C 69% Calm Calm -- 29.85 in1010.8 mb 0.00 in0.0 mm 0.00 in0.0 mm 0.00 in0.0 mm
02:04 AM 72.4°F22.4°C 61.6°F16.4°C 69% Calm Calm -- 29.85 in1010.8 mb 0.00 in0.0 mm 0.00 in0.0 mm 0.00 in0.0 mm
02:05 AM 72.4°F22.4°C 61.6°F16.4°C 69% Calm Calm -- 29.86 in1011.2 mb 0.00 in0.0 mm 0.00 in0.0 mm 0.00 in0.0 mm
02:06 AM 72.3°F22.4°C 61.5°F16.4°C 69% Calm Calm -- 29.86 in1011.2 mb 0.00 in0.0 mm 0.00 in0.0 mm 0.00 in0.0 mm
02:07 AM 72.3°F22.4°C 61.5°F16.4°C 69% Calm Calm -- 29.86 in1011.2 mb 0.00 in0.0 mm 0.00 in0.0 mm 0.00 in0.0 mm
02:08 AM 72.3°F22.4°C 61.5°F16.4°C 69% Calm Calm -- 29.85 in1010.8 mb 0.00 in0.0 mm 0.00 in0.0 mm 0.00 in0.0 mm
02:09 AM 72.3°F22.4°C 61.5°F16.4°C 69% Calm Calm -- 29.85 in1010.8 mb 0.00 in0.0 mm 0.00 in0.0 mm 0.00 in0.0 mm
02:10 AM 72.2°F22.3°C 61.5°F16.4°C 69% Calm Calm -- 29.85 in1010.8 mb 0.00 in0.0 mm 0.00 in0.0 mm 0.00 in0.0 mm
02:11 AM 72.2°F22.3°C 61.5°F16.4°C 69% Calm Calm -- 29.85 in1010.8 mb 0.00 in0.0 mm 0.00 in0.0 mm 0.00 in0.0 mm
02:12 AM 72.2°F22.3°C 61.5°F16.4°C 69% Calm Calm -- 29.85 in1010.8 mb 0.00 in0.0 mm 0.00 in0.0 mm 0.00 in0.0 mm
02:13 AM 72.2°F22.3°C 61.5°F16.4°C 69% 0.5 mph SE0.8 kmh SE 3.0 mph4.8 kmh 29.85 in1010.8 mb 0.00 in0.0 mm 0.00 in0.0 mm 0.00 in0.0 mm
02:14 AM 72.2°F22.3°C 61.5°F16.4°C 69% 1.0 mph SE1.6 kmh SE 3.0 mph4.8 kmh 29.85 in1010.8 mb 0.00 in0.0 mm 0.00 in0.0 mm 0.00 in0.0 mm
02:15 AM 72.2°F22.3°C 61.5°F16.4°C 69% 0.5 mph SE0.8 kmh SE 2.0 mph3.2 kmh 29.85 in1010.8 mb 0.00 in0.0 mm 0.00 in0.0 mm 0.00 in0.0 mm
02:16 AM 72.2°F22.3°C 61.5°F16.4°C 69% 0.3 mph SE0.5 kmh SE 2.0 mph3.2 kmh 29.85 in1010.8 mb 0.00 in0.0 mm 0.00 in0.0 mm 0.00 in0.0 mm
02:17 AM 72.2°F22.3°C 61.5°F16.4°C 69% 0.2 mph SE0.3 kmh SE 2.0 mph3.2 kmh 29.85 in1010.8 mb 0.00 in0.0 mm 0.00 in0.0 mm 0.00 in0.0 mm
02:18 AM 72.2°F22.3°C 61.5°F16.4°C 69% 0.2 mph SE0.3 kmh SE 1.0 mph1.6 kmh 29.85 in1010.8 mb 0.00 in0.0 mm 0.00 in0.0 mm 0.00 in0.0 mm
02:19 AM 72.2°F22.3°C 61.5°F16.4°C 69% 0.8 mph SE1.3 kmh SE 3.0 mph4.8 kmh 29.85 in1010.8 mb 0.00 in0.0 mm 0.00 in0.0 mm 0.00 in0.0 mm
02:20 AM 72.2°F22.3°C 61.5°F16.4°C 69% 1.6 mph SE2.6 kmh SE 3.0 mph4.8 kmh 29.85 in1010.8 mb 0.00 in0.0 mm 0.00 in0.0 mm 0.00 in0.0 mm
02:21 AM 72.3°F22.4°C 61.5°F16.4°C 69% 0.4 mph SE0.6 kmh SE 3.0 mph4.8 kmh 29.85 in1010.8 mb 0.00 in0.0 mm 0.00 in0.0 mm 0.00 in0.0 mm
02:22 AM 72.3°F22.4°C 61.5°F16.4°C 69% 0.2 mph SE0.3 kmh SE 2.0 mph3.2 kmh 29.85 in1010.8 mb 0.00 in0.0 mm 0.00 in0.0 mm 0.00 in0.0 mm
02:23 AM 72.3°F22.4°C 61.5°F16.4°C 69% Calm Calm 1.0 mph1.6 kmh 29.85 in1010.8 mb 0.00 in0.0 mm 0.00 in0.0 mm 0.00 in0.0 mm
02:24 AM 72.3°F22.4°C 61.5°F16.4°C 69% 0.3 mph SE0.5 kmh SE 1.0 mph1.6 kmh 29.85 in1010.8 mb 0.00 in0.0 mm 0.00 in0.0 mm 0.00 in0.0 mm
02:25 AM 72.3°F22.4°C 61.5°F16.4°C 69% 0.6 mph SE1.0 kmh SE 1.0 mph1.6 kmh 29.85 in1010.8 mb 0.00 in0.0 mm 0.00 in0.0 mm 0.00 in0.0 mm
02:26 AM 72.3°F22.4°C 61.5°F16.4°C 69% Calm Calm 1.0 mph1.6 kmh 29.85 in1010.8 mb 0.00 in0.0 mm 0.00 in0.0 mm 0.00 in0.0 mm
02:27 AM 72.3°F22.4°C 61.5°F16.4°C 69% Calm Calm -- 29.85 in1010.8 mb 0.00 in0.0 mm 0.00 in0.0 mm 0.00 in0.0 mm
02:28 AM 72.3°F22.4°C 61.5°F16.4°C 69% Calm Calm -- 29.85 in1010.8 mb 0.00 in0.0 mm 0.00 in0.0 mm 0.00 in0.0 mm
02:29 AM 72.3°F22.4°C 61.5°F16.4°C 69% Calm Calm -- 29.85 in1010.8 mb 0.00 in0.0 mm 0.00 in0.0 mm 0.00 in0.0 mm
02:30 AM 72.3°F22.4°C 61.5°F16.4°C 69% Calm Calm -- 29.85 in1010.8 mb 0.00 in0.0 mm 0.00 in0.0 mm 0.00 in0.0 mm
02:31 AM 72.2°F22.3°C 61.5°F16.4°C 69% Calm Calm -- 29.85 in1010.8 mb 0.00 in0.0 mm 0.00 in0.0 mm 0.00 in0.0 mm
02:32 AM 72.2°F22.3°C 61.5°F16.4°C 69% Calm Calm -- 29.85 in1010.8 mb 0.00 in0.0 mm 0.00 in0.0 mm 0.00 in0.0 mm
02:33 AM 72.2°F22.3°C 61.5°F16.4°C 69% Calm Calm -- 29.85 in1010.8 mb 0.00 in0.0 mm 0.00 in0.0 mm 0.00 in0.0 mm
02:34 AM 72.1°F22.3°C 61.4°F16.3°C 69% Calm Calm -- 29.85 in1010.8 mb 0.00 in0.0 mm 0.00 in0.0 mm 0.00 in0.0 mm
02:35 AM 72.1°F22.3°C 61.4°F16.3°C 69% Calm Calm -- 29.85 in1010.8 mb 0.00 in0.0 mm 0.00 in0.0 mm 0.00 in0.0 mm
02:36 AM 72.1°F22.3°C 61.4°F16.3°C 69% Calm Calm -- 29.84 in1010.5 mb 0.00 in0.0 mm 0.00 in0.0 mm 0.00 in0.0 mm
02:37 AM 72.1°F22.3°C 61.4°F16.3°C 69% Calm Calm -- 29.85 in1010.8 mb 0.00 in0.0 mm 0.00 in0.0 mm 0.00 in0.0 mm
02:38 AM 72.0°F22.2°C 61.3°F16.3°C 69% Calm Calm -- 29.85 in1010.8 mb 0.00 in0.0 mm 0.00 in0.0 mm 0.00 in0.0 mm
02:39 AM 72.0°F22.2°C 61.7°F16.5°C 70% Calm Calm -- 29.84 in1010.5 mb 0.00 in0.0 mm 0.00 in0.0 mm 0.00 in0.0 mm
02:40 AM 71.9°F22.2°C 61.6°F16.4°C 70% Calm Calm -- 29.84 in1010.5 mb 0.00 in0.0 mm 0.00 in0.0 mm 0.00 in0.0 mm
02:41 AM 71.9°F22.2°C 61.6°F16.4°C 70% Calm Calm -- 29.84 in1010.5 mb 0.00 in0.0 mm 0.00 in0.0 mm 0.00 in0.0 mm
02:42 AM 71.9°F22.2°C 61.6°F16.4°C 70% Calm Calm -- 29.84 in1010.5 mb 0.00 in0.0 mm 0.00 in0.0 mm 0.00 in0.0 mm
02:43 AM 71.8°F22.1°C 61.5°F16.4°C 70% Calm Calm -- 29.85 in1010.8 mb 0.00 in0.0 mm 0.00 in0.0 mm 0.00 in0.0 mm
02:44 AM 71.8°F22.1°C 61.5°F16.4°C 70% Calm Calm -- 29.84 in1010.5 mb 0.00 in0.0 mm 0.00 in0.0 mm 0.00 in0.0 mm
02:45 AM 71.8°F22.1°C 61.5°F16.4°C 70% Calm Calm -- 29.85 in1010.8 mb 0.00 in0.0 mm 0.00 in0.0 mm 0.00 in0.0 mm
02:46 AM 71.7°F22.1°C 61.4°F16.3°C 70% Calm Calm -- 29.85 in1010.8 mb 0.00 in0.0 mm 0.00 in0.0 mm 0.00 in0.0 mm
02:47 AM 71.7°F22.1°C 61.4°F16.3°C 70% Calm Calm -- 29.84 in1010.5 mb 0.00 in0.0 mm 0.00 in0.0 mm 0.00 in0.0 mm
02:48 AM 71.6°F22.0°C 61.3°F16.3°C 70% Calm Calm -- 29.85 in1010.8 mb 0.00 in0.0 mm 0.00 in0.0 mm 0.00 in0.0 mm
02:49 AM 71.6°F22.0°C 61.3°F16.3°C 70% Calm Calm -- 29.84 in1010.5 mb 0.00 in0.0 mm 0.00 in0.0 mm 0.00 in0.0 mm
02:50 AM 71.5°F21.9°C 61.2°F16.2°C 70% Calm Calm -- 29.85 in1010.8 mb 0.00 in0.0 mm 0.00 in0.0 mm 0.00 in0.0 mm
02:51 AM 71.5°F21.9°C 61.2°F16.2°C 70% Calm Calm -- 29.84 in1010.5 mb 0.00 in0.0 mm 0.00 in0.0 mm 0.00 in0.0 mm
02:52 AM 71.4°F21.9°C 61.5°F16.4°C 71% Calm Calm -- 29.85 in1010.8 mb 0.00 in0.0 mm 0.00 in0.0 mm 0.00 in0.0 mm
02:53 AM 71.4°F21.9°C 61.5°F16.4°C 71% 0.2 mph SE0.3 kmh SE 2.0 mph3.2 kmh 29.84 in1010.5 mb 0.00 in0.0 mm 0.00 in0.0 mm 0.00 in0.0 mm
02:54 AM 71.3°F21.8°C 61.4°F16.3°C 71% Calm Calm 2.0 mph3.2 kmh 29.84 in1010.5 mb 0.00 in0.0 mm 0.00 in0.0 mm 0.00 in0.0 mm
02:55 AM 71.3°F21.8°C 61.4°F16.3°C 71% Calm Calm -- 29.84 in1010.5 mb 0.00 in0.0 mm 0.00 in0.0 mm 0.00 in0.0 mm
02:56 AM 71.3°F21.8°C 61.4°F16.3°C 71% Calm Calm -- 29.85 in1010.8 mb 0.00 in0.0 mm 0.00 in0.0 mm 0.00 in0.0 mm
02:57 AM 71.3°F21.8°C 61.4°F16.3°C 71% Calm Calm -- 29.85 in1010.8 mb 0.00 in0.0 mm 0.00 in0.0 mm 0.00 in0.0 mm
02:58 AM 71.3°F21.8°C 61.4°F16.3°C 71% Calm Calm -- 29.85 in1010.8 mb 0.00 in0.0 mm 0.00 in0.0 mm 0.00 in0.0 mm
02:59 AM 71.3°F21.8°C 61.4°F16.3°C 71% Calm Calm -- 29.85 in1010.8 mb 0.00 in0.0 mm 0.00 in0.0 mm 0.00 in0.0 mm
03:00 AM 71.3°F21.8°C 61.4°F16.3°C 71% Calm Calm -- 29.85 in1010.8 mb 0.00 in0.0 mm 0.00 in0.0 mm 0.00 in0.0 mm
03:01 AM 71.2°F21.8°C 61.3°F16.3°C 71% Calm Calm -- 29.85 in1010.8 mb 0.00 in0.0 mm 0.00 in0.0 mm 0.00 in0.0 mm
03:02 AM 71.2°F21.8°C 61.3°F16.3°C 71% Calm Calm -- 29.85 in1010.8 mb 0.00 in0.0 mm 0.00 in0.0 mm 0.00 in0.0 mm
03:03 AM 71.1°F21.7°C 61.2°F16.2°C 71% Calm Calm -- 29.85 in1010.8 mb 0.00 in0.0 mm 0.00 in0.0 mm 0.00 in0.0 mm
03:04 AM 71.1°F21.7°C 61.2°F16.2°C 71% Calm Calm -- 29.85 in1010.8 mb 0.00 in0.0 mm 0.00 in0.0 mm 0.00 in0.0 mm
03:05 AM 71.1°F21.7°C 61.2°F16.2°C 71% Calm Calm -- 29.85 in1010.8 mb 0.00 in0.0 mm 0.00 in0.0 mm 0.00 in0.0 mm
03:06 AM 71.0°F21.7°C 61.1°F16.2°C 71% Calm Calm -- 29.85 in1010.8 mb 0.00 in0.0 mm 0.00 in0.0 mm 0.00 in0.0 mm
03:07 AM 71.0°F21.7°C 61.1°F16.2°C 71% Calm Calm -- 29.84 in1010.5 mb 0.00 in0.0 mm 0.00 in0.0 mm 0.00 in0.0 mm
03:08 AM 71.0°F21.7°C 61.1°F16.2°C 71% 0.1 mph SE0.2 kmh SE 1.0 mph1.6 kmh 29.85 in1010.8 mb 0.00 in0.0 mm 0.00 in0.0 mm 0.00 in0.0 mm
03:09 AM 71.0°F21.7°C 61.1°F16.2°C 71% 1.3 mph SE2.1 kmh SE 3.0 mph4.8 kmh 29.84 in1010.5 mb 0.00 in0.0 mm 0.00 in0.0 mm 0.00 in0.0 mm
03:10 AM 71.0°F21.7°C 61.5°F16.4°C 72% Calm Calm 3.0 mph4.8 kmh 29.85 in1010.8 mb 0.00 in0.0 mm 0.00 in0.0 mm 0.00 in0.0 mm
03:11 AM 71.0°F21.7°C 61.5°F16.4°C 72% 0.4 mph SE0.6 kmh SE 2.0 mph3.2 kmh 29.85 in1010.8 mb 0.00 in0.0 mm 0.00 in0.0 mm 0.00 in0.0 mm
03:12 AM 71.0°F21.7°C 61.5°F16.4°C 72% 0.4 mph SE0.6 kmh SE 2.0 mph3.2 kmh 29.84 in1010.5 mb 0.00 in0.0 mm 0.00 in0.0 mm 0.00 in0.0 mm
03:13 AM 71.0°F21.7°C 61.5°F16.4°C 72% 0.1 mph SE0.2 kmh SE 1.0 mph1.6 kmh 29.85 in1010.8 mb 0.00 in0.0 mm 0.00 in0.0 mm 0.00 in0.0 mm
03:14 AM 71.0°F21.7°C 61.5°F16.4°C 72% 1.1 mph SE1.8 kmh SE 4.0 mph6.4 kmh 29.85 in1010.8 mb 0.00 in0.0 mm 0.00 in0.0 mm 0.00 in0.0 mm
03:15 AM 71.0°F21.7°C 61.5°F16.4°C 72% 0.8 mph SE1.3 kmh SE 4.0 mph6.4 kmh 29.85 in1010.8 mb 0.00 in0.0 mm 0.00 in0.0 mm 0.00 in0.0 mm
03:16 AM 71.0°F21.7°C 61.5°F16.4°C 72% 1.1 mph SE1.8 kmh SE 3.0 mph4.8 kmh 29.84 in1010.5 mb 0.00 in0.0 mm 0.00 in0.0 mm 0.00 in0.0 mm
03:17 AM 71.0°F21.7°C 61.5°F16.4°C 72% 1.6 mph SE2.6 kmh SE 4.0 mph6.4 kmh 29.85 in1010.8 mb 0.00 in0.0 mm 0.00 in0.0 mm 0.00 in0.0 mm
03:18 AM 71.0°F21.7°C 61.5°F16.4°C 72% 1.2 mph SE1.9 kmh SE 4.0 mph6.4 kmh 29.85 in1010.8 mb 0.00 in0.0 mm 0.00 in0.0 mm 0.00 in0.0 mm
03:19 AM 71.1°F21.7°C 61.2°F16.2°C 71% 0.7 mph SE1.1 kmh SE 3.0 mph4.8 kmh 29.85 in1010.8 mb 0.00 in0.0 mm 0.00 in0.0 mm 0.00 in0.0 mm
03:20 AM 71.1°F21.7°C 61.2°F16.2°C 71% Calm Calm 2.0 mph3.2 kmh 29.85 in1010.8 mb 0.00 in0.0 mm 0.00 in0.0 mm 0.00 in0.0 mm
03:21 AM 71.1°F21.7°C 61.2°F16.2°C 71% Calm Calm -- 29.85 in1010.8 mb 0.00 in0.0 mm 0.00 in0.0 mm 0.00 in0.0 mm
03:22 AM 71.1°F21.7°C 61.2°F16.2°C 71% 1.7 mph SE2.7 kmh SE 5.0 mph8.0 kmh 29.84 in1010.5 mb 0.00 in0.0 mm 0.00 in0.0 mm 0.00 in0.0 mm
03:23 AM 71.1°F21.7°C 61.2°F16.2°C 71% 1.1 mph SE1.8 kmh SE 5.0 mph8.0 kmh 29.85 in1010.8 mb 0.00 in0.0 mm 0.00 in0.0 mm 0.00 in0.0 mm
03:24 AM 71.1°F21.7°C 61.2°F16.2°C 71% 1.6 mph SE2.6 kmh SE 3.0 mph4.8 kmh 29.85 in1010.8 mb 0.00 in0.0 mm 0.00 in0.0 mm 0.00 in0.0 mm
03:25 AM 71.1°F21.7°C 61.2°F16.2°C 71% 0.7 mph SE1.1 kmh SE 3.0 mph4.8 kmh 29.85 in1010.8 mb 0.00 in0.0 mm 0.00 in0.0 mm 0.00 in0.0 mm
03:26 AM 71.1°F21.7°C 61.2°F16.2°C 71% 0.6 mph SE1.0 kmh SE 2.0 mph3.2 kmh 29.84 in1010.5 mb 0.00 in0.0 mm 0.00 in0.0 mm 0.00 in0.0 mm
03:27 AM 71.1°F21.7°C 61.2°F16.2°C 71% 1.4 mph SE2.3 kmh SE 5.0 mph8.0 kmh 29.84 in1010.5 mb 0.00 in0.0 mm 0.00 in0.0 mm 0.00 in0.0 mm
03:28 AM 71.1°F21.7°C 61.2°F16.2°C 71% 1.6 mph SE2.6 kmh SE 5.0 mph8.0 kmh 29.84 in1010.5 mb 0.00 in0.0 mm 0.00 in0.0 mm 0.00 in0.0 mm
03:29 AM 71.1°F21.7°C 61.2°F16.2°C 71% 1.4 mph SE2.3 kmh SE 3.0 mph4.8 kmh 29.85 in1010.8 mb 0.00 in0.0 mm 0.00 in0.0 mm 0.00 in0.0 mm
03:30 AM 71.1°F21.7°C 61.2°F16.2°C 71% 1.5 mph SE2.4 kmh SE 3.0 mph4.8 kmh 29.85 in1010.8 mb 0.00 in0.0 mm 0.00 in0.0 mm 0.00 in0.0 mm
03:31 AM 71.1°F21.7°C 61.2°F16.2°C 71% 1.6 mph SE2.6 kmh SE 3.0 mph4.8 kmh 29.84 in1010.5 mb 0.00 in0.0 mm 0.00 in0.0 mm 0.00 in0.0 mm
03:32 AM 71.1°F21.7°C 61.2°F16.2°C 71% 2.6 mph SE4.2 kmh SE 4.0 mph6.4 kmh 29.84 in1010.5 mb 0.00 in0.0 mm 0.00 in0.0 mm 0.00 in0.0 mm
03:33 AM 71.1°F21.7°C 61.2°F16.2°C 71% 2.4 mph SE3.9 kmh SE 5.0 mph8.0 kmh 29.85 in1010.8 mb 0.00 in0.0 mm 0.00 in0.0 mm 0.00 in0.0 mm
03:34 AM 71.1°F21.7°C 61.2°F16.2°C 71% 1.6 mph SE2.6 kmh SE 5.0 mph8.0 kmh 29.85 in1010.8 mb 0.00 in0.0 mm 0.00 in0.0 mm 0.00 in0.0 mm
03:35 AM 71.0°F21.7°C 61.1°F16.2°C 71% 0.3 mph SE0.5 kmh SE 3.0 mph4.8 kmh 29.85 in1010.8 mb 0.00 in0.0 mm 0.00 in0.0 mm 0.00 in0.0 mm
03:36 AM 71.0°F21.7°C 61.1°F16.2°C 71% 2.8 mph SE4.5 kmh SE 5.0 mph8.0 kmh 29.84 in1010.5 mb 0.00 in0.0 mm 0.00 in0.0 mm 0.00 in0.0 mm
03:37 AM 71.0°F21.7°C 61.5°F16.4°C 72% 2.1 mph SE3.4 kmh SE 5.0 mph8.0 kmh 29.84 in1010.5 mb 0.00 in0.0 mm 0.00 in0.0 mm 0.00 in0.0 mm
03:38 AM 71.0°F21.7°C 61.5°F16.4°C 72% Calm Calm 3.0 mph4.8 kmh 29.85 in1010.8 mb 0.00 in0.0 mm 0.00 in0.0 mm 0.00 in0.0 mm
03:39 AM 71.0°F21.7°C 61.5°F16.4°C 72% Calm Calm -- 29.84 in1010.5 mb 0.00 in0.0 mm 0.00 in0.0 mm 0.00 in0.0 mm
03:40 AM 71.0°F21.7°C 61.5°F16.4°C 72% 1.4 mph SE2.3 kmh SE 4.0 mph6.4 kmh 29.84 in1010.5 mb 0.00 in0.0 mm 0.00 in0.0 mm 0.00 in0.0 mm
03:41 AM 71.0°F21.7°C 61.5°F16.4°C 72% 1.0 mph SE1.6 kmh SE 4.0 mph6.4 kmh 29.84 in1010.5 mb 0.00 in0.0 mm 0.00 in0.0 mm 0.00 in0.0 mm
03:42 AM 71.0°F21.7°C 61.5°F16.4°C 72% 1.9 mph SE3.1 kmh SE 5.0 mph8.0 kmh 29.84 in1010.5 mb 0.00 in0.0 mm 0.00 in0.0 mm 0.00 in0.0 mm
03:43 AM 71.0°F21.7°C 61.5°F16.4°C 72% 0.2 mph SE0.3 kmh SE 5.0 mph8.0 kmh 29.84 in1010.5 mb 0.00 in0.0 mm 0.00 in0.0 mm 0.00 in0.0 mm
03:44 AM 70.9°F21.6°C 61.4°F16.3°C 72% Calm Calm 2.0 mph3.2 kmh 29.84 in1010.5 mb 0.00 in0.0 mm 0.00 in0.0 mm 0.00 in0.0 mm
03:45 AM 70.9°F21.6°C 61.4°F16.3°C 72% 0.1 mph SE0.2 kmh SE 2.0 mph3.2 kmh 29.84 in1010.5 mb 0.00 in0.0 mm 0.00 in0.0 mm 0.00 in0.0 mm
03:46 AM 70.9°F21.6°C 61.4°F16.3°C 72% Calm Calm 2.0 mph3.2 kmh 29.84 in1010.5 mb 0.00 in0.0 mm 0.00 in0.0 mm 0.00 in0.0 mm
03:47 AM 70.8°F21.6°C 61.3°F16.3°C 72% Calm Calm -- 29.84 in1010.5 mb 0.00 in0.0 mm 0.00 in0.0 mm 0.00 in0.0 mm
03:48 AM 70.8°F21.6°C 61.3°F16.3°C 72% Calm Calm -- 29.84 in1010.5 mb 0.00 in0.0 mm 0.00 in0.0 mm 0.00 in0.0 mm
03:49 AM 70.8°F21.6°C 61.3°F16.3°C 72% 0.2 mph SE0.3 kmh SE 1.0 mph1.6 kmh 29.84 in1010.5 mb 0.00 in0.0 mm 0.00 in0.0 mm 0.00 in0.0 mm
03:50 AM 70.7°F21.5°C 61.2°F16.2°C 72% 1.3 mph SE2.1 kmh SE 3.0 mph4.8 kmh 29.84 in1010.5 mb 0.00 in0.0 mm 0.00 in0.0 mm 0.00 in0.0 mm
03:51 AM 70.7°F21.5°C 61.2°F16.2°C 72% 1.0 mph SE1.6 kmh SE 3.0 mph4.8 kmh 29.84 in1010.5 mb 0.00 in0.0 mm 0.00 in0.0 mm 0.00 in0.0 mm
03:52 AM 70.7°F21.5°C 61.2°F16.2°C 72% 1.3 mph SE2.1 kmh SE 3.0 mph4.8 kmh 29.84 in1010.5 mb 0.00 in0.0 mm 0.00 in0.0 mm 0.00 in0.0 mm
03:53 AM 70.6°F21.4°C 61.1°F16.2°C 72% 0.5 mph SE0.8 kmh SE 3.0 mph4.8 kmh 29.84 in1010.5 mb 0.00 in0.0 mm 0.00 in0.0 mm 0.00 in0.0 mm
03:54 AM 70.6°F21.4°C 61.1°F16.2°C 72% 0.8 mph SE1.3 kmh SE 3.0 mph4.8 kmh 29.84 in1010.5 mb 0.00 in0.0 mm 0.00 in0.0 mm 0.00 in0.0 mm
03:55 AM 70.6°F21.4°C 61.5°F16.4°C 73% 0.2 mph SE0.3 kmh SE 3.0 mph4.8 kmh 29.84 in1010.5 mb 0.00 in0.0 mm 0.00 in0.0 mm 0.00 in0.0 mm
03:56 AM 70.5°F21.4°C 61.4°F16.3°C 73% Calm Calm 1.0 mph1.6 kmh 29.84 in1010.5 mb 0.00 in0.0 mm 0.00 in0.0 mm 0.00 in0.0 mm
03:57 AM 70.5°F21.4°C 61.4°F16.3°C 73% Calm Calm -- 29.84 in1010.5 mb 0.00 in0.0 mm 0.00 in0.0 mm 0.00 in0.0 mm
03:58 AM 70.4°F21.3°C 61.3°F16.3°C 73% 0.4 mph SE0.6 kmh SE 2.0 mph3.2 kmh 29.84 in1010.5 mb 0.00 in0.0 mm 0.00 in0.0 mm 0.00 in0.0 mm
03:59 AM 70.4°F21.3°C 61.3°F16.3°C 73% 0.1 mph SE0.2 kmh SE 2.0 mph3.2 kmh 29.84 in1010.5 mb 0.00 in0.0 mm 0.00 in0.0 mm 0.00 in0.0 mm
04:00 AM 70.4°F21.3°C 61.3°F16.3°C 73% Calm Calm 1.0 mph1.6 kmh 29.84 in1010.5 mb 0.00 in0.0 mm 0.00 in0.0 mm 0.00 in0.0 mm
04:01 AM 70.3°F21.3°C 61.2°F16.2°C 73% Calm Calm -- 29.84 in1010.5 mb 0.00 in0.0 mm 0.00 in0.0 mm 0.00 in0.0 mm
04:02 AM 70.3°F21.3°C 61.2°F16.2°C 73% Calm Calm -- 29.84 in1010.5 mb 0.00 in0.0 mm 0.00 in0.0 mm 0.00 in0.0 mm
04:03 AM 70.3°F21.3°C 61.2°F16.2°C 73% 1.1 mph SE1.8 kmh SE 4.0 mph6.4 kmh 29.84 in1010.5 mb 0.00 in0.0 mm 0.00 in0.0 mm 0.00 in0.0 mm
04:04 AM 70.3°F21.3°C 61.2°F16.2°C 73% Calm Calm 4.0 mph6.4 kmh 29.84 in1010.5 mb 0.00 in0.0 mm 0.00 in0.0 mm 0.00 in0.0 mm
04:05 AM 70.2°F21.2°C 61.1°F16.2°C 73% Calm Calm -- 29.84 in1010.5 mb 0.00 in0.0 mm 0.00 in0.0 mm 0.00 in0.0 mm
04:06 AM 70.2°F21.2°C 61.1°F16.2°C 73% Calm Calm -- 29.84 in1010.5 mb 0.00 in0.0 mm 0.00 in0.0 mm 0.00 in0.0 mm
04:07 AM 70.2°F21.2°C 61.1°F16.2°C 73% 0.8 mph SE1.3 kmh SE 3.0 mph4.8 kmh 29.84 in1010.5 mb 0.00 in0.0 mm 0.00 in0.0 mm 0.00 in0.0 mm
04:08 AM 70.2°F21.2°C 61.1°F16.2°C 73% 0.1 mph SE0.2 kmh SE 3.0 mph4.8 kmh 29.84 in1010.5 mb 0.00 in0.0 mm 0.00 in0.0 mm 0.00 in0.0 mm
04:09 AM 70.2°F21.2°C 61.1°F16.2°C 73% 1.2 mph SE1.9 kmh SE 3.0 mph4.8 kmh 29.84 in1010.5 mb 0.00 in0.0 mm 0.00 in0.0 mm 0.00 in0.0 mm
04:10 AM 70.2°F21.2°C 61.1°F16.2°C 73% Calm Calm 3.0 mph4.8 kmh 29.84 in1010.5 mb 0.00 in0.0 mm 0.00 in0.0 mm 0.00 in0.0 mm
04:11 AM 70.2°F21.2°C 61.1°F16.2°C 73% 0.7 mph SE1.1 kmh SE 3.0 mph4.8 kmh 29.84 in1010.5 mb 0.00 in0.0 mm 0.00 in0.0 mm 0.00 in0.0 mm
04:12 AM 70.1°F21.2°C 61.0°F16.1°C 73% 1.4 mph SE2.3 kmh SE 4.0 mph6.4 kmh 29.84 in1010.5 mb 0.00 in0.0 mm 0.00 in0.0 mm 0.00 in0.0 mm
04:13 AM 70.1°F21.2°C 61.0°F16.1°C 73% 0.6 mph SE1.0 kmh SE 4.0 mph6.4 kmh 29.84 in1010.5 mb 0.00 in0.0 mm 0.00 in0.0 mm 0.00 in0.0 mm
04:14 AM 70.1°F21.2°C 61.0°F16.1°C 73% Calm Calm 2.0 mph3.2 kmh 29.84 in1010.5 mb 0.00 in0.0 mm 0.00 in0.0 mm 0.00 in0.0 mm
04:15 AM 70.1°F21.2°C 61.0°F16.1°C 73% Calm Calm -- 29.84 in1010.5 mb 0.00 in0.0 mm 0.00 in0.0 mm 0.00 in0.0 mm
04:16 AM 70.1°F21.2°C 61.0°F16.1°C 73% 0.1 mph SE0.2 kmh SE 1.0 mph1.6 kmh 29.84 in1010.5 mb 0.00 in0.0 mm 0.00 in0.0 mm 0.00 in0.0 mm
04:17 AM 70.1°F21.2°C 61.0°F16.1°C 73% Calm Calm 1.0 mph1.6 kmh 29.84 in1010.5 mb 0.00 in0.0 mm 0.00 in0.0 mm 0.00 in0.0 mm
04:18 AM 70.1°F21.2°C 61.0°F16.1°C 73% Calm Calm -- 29.84 in1010.5 mb 0.00 in0.0 mm 0.00 in0.0 mm 0.00 in0.0 mm
04:19 AM 70.0°F21.1°C 60.9°F16.1°C 73% 0.2 mph SE0.3 kmh SE 2.0 mph3.2 kmh 29.84 in1010.5 mb 0.00 in0.0 mm 0.00 in0.0 mm 0.00 in0.0 mm
04:20 AM 70.0°F21.1°C 61.3°F16.3°C 74% 0.9 mph SE1.4 kmh SE 3.0 mph4.8 kmh 29.84 in1010.5 mb 0.00 in0.0 mm 0.00 in0.0 mm 0.00 in0.0 mm
04:21 AM 70.0°F21.1°C 61.3°F16.3°C 74% 0.5 mph SE0.8 kmh SE 3.0 mph4.8 kmh 29.84 in1010.5 mb 0.00 in0.0 mm 0.00 in0.0 mm 0.00 in0.0 mm
04:22 AM 70.0°F21.1°C 61.3°F16.3°C 74% Calm Calm 2.0 mph3.2 kmh 29.84 in1010.5 mb 0.00 in0.0 mm 0.00 in0.0 mm 0.00 in0.0 mm
04:23 AM 69.9°F21.1°C 61.2°F16.2°C 74% Calm Calm -- 29.84 in1010.5 mb 0.00 in0.0 mm 0.00 in0.0 mm 0.00 in0.0 mm
04:24 AM 69.9°F21.1°C 61.2°F16.2°C 74% Calm Calm -- 29.84 in1010.5 mb 0.00 in0.0 mm 0.00 in0.0 mm 0.00 in0.0 mm
04:25 AM 69.9°F21.1°C 61.2°F16.2°C 74% Calm Calm -- 29.84 in1010.5 mb 0.00 in0.0 mm 0.00 in0.0 mm 0.00 in0.0 mm
04:26 AM 69.8°F21.0°C 61.1°F16.2°C 74% Calm Calm -- 29.84 in1010.5 mb 0.00 in0.0 mm 0.00 in0.0 mm 0.00 in0.0 mm
04:27 AM 69.8°F21.0°C 61.1°F16.2°C 74% Calm Calm -- 29.84 in1010.5 mb 0.00 in0.0 mm 0.00 in0.0 mm 0.00 in0.0 mm
04:28 AM 69.7°F20.9°C 61.0°F16.1°C 74% Calm Calm -- 29.84 in1010.5 mb 0.00 in0.0 mm 0.00 in0.0 mm 0.00 in0.0 mm
04:29 AM 69.7°F20.9°C 61.0°F16.1°C 74% Calm Calm -- 29.84 in1010.5 mb 0.00 in0.0 mm 0.00 in0.0 mm 0.00 in0.0 mm
04:30 AM 69.7°F20.9°C 61.0°F16.1°C 74% Calm Calm -- 29.84 in1010.5 mb 0.00 in0.0 mm 0.00 in0.0 mm 0.00 in0.0 mm
04:31 AM 69.7°F20.9°C 61.0°F16.1°C 74% Calm Calm -- 29.84 in1010.5 mb 0.00 in0.0 mm 0.00 in0.0 mm 0.00 in0.0 mm
04:32 AM 69.6°F20.9°C 60.9°F16.1°C 74% Calm Calm -- 29.84 in1010.5 mb 0.00 in0.0 mm 0.00 in0.0 mm 0.00 in0.0 mm
04:33 AM 69.6°F20.9°C 60.9°F16.1°C 74% Calm Calm -- 29.84 in1010.5 mb 0.00 in0.0 mm 0.00 in0.0 mm 0.00 in0.0 mm
04:34 AM 69.5°F20.8°C 60.8°F16.0°C 74% Calm Calm -- 29.84 in1010.5 mb 0.00 in0.0 mm 0.00 in0.0 mm 0.00 in0.0 mm
04:35 AM 69.5°F20.8°C 60.8°F16.0°C 74% Calm Calm -- 29.84 in1010.5 mb 0.00 in0.0 mm 0.00 in0.0 mm 0.00 in0.0 mm
04:36 AM 69.5°F20.8°C 60.8°F16.0°C 74% Calm Calm -- 29.84 in1010.5 mb 0.00 in0.0 mm 0.00 in0.0 mm 0.00 in0.0 mm
04:37 AM 69.5°F20.8°C 60.8°F16.0°C 74% Calm Calm -- 29.84 in1010.5 mb 0.00 in0.0 mm 0.00 in0.0 mm 0.00 in0.0 mm
04:38 AM 69.4°F20.8°C 60.7°F15.9°C 74% Calm Calm -- 29.84 in1010.5 mb 0.00 in0.0 mm 0.00 in0.0 mm 0.00 in0.0 mm
04:39 AM 69.4°F20.8°C 60.7°F15.9°C 74% Calm Calm -- 29.84 in1010.5 mb 0.00 in0.0 mm 0.00 in0.0 mm 0.00 in0.0 mm
04:40 AM 69.4°F20.8°C 61.1°F16.2°C 75% Calm Calm -- 29.84 in1010.5 mb 0.00 in0.0 mm 0.00 in0.0 mm 0.00 in0.0 mm
04:41 AM 69.4°F20.8°C 61.1°F16.2°C 75% Calm Calm -- 29.84 in1010.5 mb 0.00 in0.0 mm 0.00 in0.0 mm 0.00 in0.0 mm
04:42 AM 69.4°F20.8°C 61.1°F16.2°C 75% Calm Calm 1.0 mph1.6 kmh 29.84 in1010.5 mb 0.00 in0.0 mm 0.00 in0.0 mm 0.00 in0.0 mm
04:43 AM 69.4°F20.8°C 61.1°F16.2°C 75% Calm Calm 1.0 mph1.6 kmh 29.84 in1010.5 mb 0.00 in0.0 mm 0.00 in0.0 mm 0.00 in0.0 mm
04:44 AM 69.4°F20.8°C 61.1°F16.2°C 75% Calm Calm -- 29.84 in1010.5 mb 0.00 in0.0 mm 0.00 in0.0 mm 0.00 in0.0 mm
04:45 AM 69.4°F20.8°C 61.1°F16.2°C 75% Calm Calm -- 29.84 in1010.5 mb 0.00 in0.0 mm 0.00 in0.0 mm 0.00 in0.0 mm
04:46 AM 69.4°F20.8°C 61.1°F16.2°C 75% Calm Calm -- 29.84 in1010.5 mb 0.00 in0.0 mm 0.00 in0.0 mm 0.00 in0.0 mm
04:47 AM 69.4°F20.8°C 61.1°F16.2°C 75% 0.6 mph SE1.0 kmh SE 3.0 mph4.8 kmh 29.84 in1010.5 mb 0.00 in0.0 mm 0.00 in0.0 mm 0.00 in0.0 mm
04:48 AM 69.4°F20.8°C 61.1°F16.2°C 75% 1.4 mph SE2.3 kmh SE 3.0 mph4.8 kmh 29.84 in1010.5 mb 0.00 in0.0 mm 0.00 in0.0 mm 0.00 in0.0 mm
04:49 AM 69.4°F20.8°C 61.1°F16.2°C 75% 3.1 mph SE5.0 kmh SE 7.0 mph11.3 kmh 29.84 in1010.5 mb 0.00 in0.0 mm 0.00 in0.0 mm 0.00 in0.0 mm
04:50 AM 69.4°F20.8°C 61.1°F16.2°C 75% 0.8 mph SE1.3 kmh SE 7.0 mph11.3 kmh 29.84 in1010.5 mb 0.00 in0.0 mm 0.00 in0.0 mm 0.00 in0.0 mm
04:51 AM 69.4°F20.8°C 61.1°F16.2°C 75% Calm Calm 3.0 mph4.8 kmh 29.84 in1010.5 mb 0.00 in0.0 mm 0.00 in0.0 mm 0.00 in0.0 mm
04:52 AM 69.4°F20.8°C 61.1°F16.2°C 75% 0.1 mph SE0.2 kmh SE 1.0 mph1.6 kmh 29.84 in1010.5 mb 0.00 in0.0 mm 0.00 in0.0 mm 0.00 in0.0 mm
04:53 AM 69.4°F20.8°C 61.1°F16.2°C 75% Calm Calm 1.0 mph1.6 kmh 29.84 in1010.5 mb 0.00 in0.0 mm 0.00 in0.0 mm 0.00 in0.0 mm
04:54 AM 69.4°F20.8°C 61.1°F16.2°C 75% Calm Calm -- 29.84 in1010.5 mb 0.00 in0.0 mm 0.00 in0.0 mm 0.00 in0.0 mm
04:55 AM 69.4°F20.8°C 61.1°F16.2°C 75% Calm Calm -- 29.84 in1010.5 mb 0.00 in0.0 mm 0.00 in0.0 mm 0.00 in0.0 mm
04:56 AM 69.3°F20.7°C 61.0°F16.1°C 75% Calm Calm -- 29.84 in1010.5 mb 0.00 in0.0 mm 0.00 in0.0 mm 0.00 in0.0 mm
04:57 AM 69.3°F20.7°C 61.0°F16.1°C 75% Calm Calm -- 29.84 in1010.5 mb 0.00 in0.0 mm 0.00 in0.0 mm 0.00 in0.0 mm
04:58 AM 69.3°F20.7°C 61.0°F16.1°C 75% Calm Calm -- 29.84 in1010.5 mb 0.00 in0.0 mm 0.00 in0.0 mm 0.00 in0.0 mm
04:59 AM 69.3°F20.7°C 61.0°F16.1°C 75% Calm Calm -- 29.84 in1010.5 mb 0.00 in0.0 mm 0.00 in0.0 mm 0.00 in0.0 mm
05:00 AM 69.3°F20.7°C 61.0°F16.1°C 75% Calm Calm -- 29.84 in1010.5 mb 0.00 in0.0 mm 0.00 in0.0 mm 0.00 in0.0 mm
05:01 AM 69.2°F20.7°C 60.9°F16.1°C 75% Calm Calm -- 29.84 in1010.5 mb 0.00 in0.0 mm 0.00 in0.0 mm 0.00 in0.0 mm
05:02 AM 69.2°F20.7°C 60.9°F16.1°C 75% Calm Calm -- 29.84 in1010.5 mb 0.00 in0.0 mm 0.00 in0.0 mm 0.00 in0.0 mm
05:03 AM 69.2°F20.7°C 60.9°F16.1°C 75% Calm Calm -- 29.84 in1010.5 mb 0.00 in0.0 mm 0.00 in0.0 mm 0.00 in0.0 mm
05:04 AM 69.2°F20.7°C 60.9°F16.1°C 75% Calm Calm -- 29.84 in1010.5 mb 0.00 in0.0 mm 0.00 in0.0 mm 0.00 in0.0 mm
05:05 AM 69.2°F20.7°C 60.9°F16.1°C 75% Calm Calm -- 29.84 in1010.5 mb 0.00 in0.0 mm 0.00 in0.0 mm 0.00 in0.0 mm
05:06 AM 69.1°F20.6°C 60.8°F16.0°C 75% Calm Calm 1.0 mph1.6 kmh 29.84 in1010.5 mb 0.00 in0.0 mm 0.00 in0.0 mm 0.00 in0.0 mm
05:07 AM 69.1°F20.6°C 60.8°F16.0°C 75% Calm Calm 1.0 mph1.6 kmh 29.84 in1010.5 mb 0.00 in0.0 mm 0.00 in0.0 mm 0.00 in0.0 mm
05:08 AM 69.1°F20.6°C 60.8°F16.0°C 75% Calm Calm -- 29.84 in1010.5 mb 0.00 in0.0 mm 0.00 in0.0 mm 0.00 in0.0 mm
05:09 AM 69.0°F20.6°C 60.7°F15.9°C 75% Calm Calm -- 29.84 in1010.5 mb 0.00 in0.0 mm 0.00 in0.0 mm 0.00 in0.0 mm
05:10 AM 69.0°F20.6°C 60.7°F15.9°C 75% Calm Calm -- 29.84 in1010.5 mb 0.00 in0.0 mm 0.00 in0.0 mm 0.00 in0.0 mm
05:11 AM 69.0°F20.6°C 61.1°F16.2°C 76% Calm Calm -- 29.84 in1010.5 mb 0.00 in0.0 mm 0.00 in0.0 mm 0.00 in0.0 mm
05:12 AM 69.0°F20.6°C 61.1°F16.2°C 76% Calm Calm -- 29.84 in1010.5 mb 0.00 in0.0 mm 0.00 in0.0 mm 0.00 in0.0 mm
05:13 AM 69.0°F20.6°C 61.1°F16.2°C 76% Calm Calm -- 29.84 in1010.5 mb 0.00 in0.0 mm 0.00 in0.0 mm 0.00 in0.0 mm
05:14 AM 68.9°F20.5°C 61.0°F16.1°C 76% Calm Calm -- 29.84 in1010.5 mb 0.00 in0.0 mm 0.00 in0.0 mm 0.00 in0.0 mm
05:15 AM 68.9°F20.5°C 61.0°F16.1°C 76% Calm Calm -- 29.84 in1010.5 mb 0.00 in0.0 mm 0.00 in0.0 mm 0.00 in0.0 mm
05:16 AM 68.9°F20.5°C 61.0°F16.1°C 76% Calm Calm -- 29.84 in1010.5 mb 0.00 in0.0 mm 0.00 in0.0 mm 0.00 in0.0 mm
05:17 AM 68.9°F20.5°C 61.0°F16.1°C 76% Calm Calm -- 29.84 in1010.5 mb 0.00 in0.0 mm 0.00 in0.0 mm 0.00 in0.0 mm
05:18 AM 68.9°F20.5°C 61.0°F16.1°C 76% Calm Calm -- 29.84 in1010.5 mb 0.00 in0.0 mm 0.00 in0.0 mm 0.00 in0.0 mm
05:19 AM 68.9°F20.5°C 61.0°F16.1°C 76% Calm Calm -- 29.84 in1010.5 mb 0.00 in0.0 mm 0.00 in0.0 mm 0.00 in0.0 mm
05:20 AM 68.9°F20.5°C 61.0°F16.1°C 76% Calm Calm -- 29.84 in1010.5 mb 0.00 in0.0 mm 0.00 in0.0 mm 0.00 in0.0 mm
05:21 AM 68.9°F20.5°C 61.0°F16.1°C 76% Calm Calm -- 29.84 in1010.5 mb 0.00 in0.0 mm 0.00 in0.0 mm 0.00 in0.0 mm
05:22 AM 68.8°F20.4°C 60.9°F16.1°C 76% Calm Calm -- 29.84 in1010.5 mb 0.00 in0.0 mm 0.00 in0.0 mm 0.00 in0.0 mm
05:23 AM 68.8°F20.4°C 60.9°F16.1°C 76% Calm Calm -- 29.84 in1010.5 mb 0.00 in0.0 mm 0.00 in0.0 mm 0.00 in0.0 mm
05:24 AM 68.8°F20.4°C 60.9°F16.1°C 76% Calm Calm -- 29.84 in1010.5 mb 0.00 in0.0 mm 0.00 in0.0 mm 0.00 in0.0 mm
05:25 AM 68.8°F20.4°C 60.9°F16.1°C 76% Calm Calm -- 29.84 in1010.5 mb 0.00 in0.0 mm 0.00 in0.0 mm 0.00 in0.0 mm
05:26 AM 68.8°F20.4°C 60.9°F16.1°C 76% Calm Calm -- 29.84 in1010.5 mb 0.00 in0.0 mm 0.00 in0.0 mm 0.00 in0.0 mm
05:27 AM 68.8°F20.4°C 60.9°F16.1°C 76% Calm Calm -- 29.84 in1010.5 mb 0.00 in0.0 mm 0.00 in0.0 mm 0.00 in0.0 mm
05:28 AM 68.8°F20.4°C 60.9°F16.1°C 76% Calm Calm -- 29.84 in1010.5 mb 0.00 in0.0 mm 0.00 in0.0 mm 0.00 in0.0 mm
05:29 AM 68.8°F20.4°C 60.9°F16.1°C 76% Calm Calm -- 29.84 in1010.5 mb 0.00 in0.0 mm 0.00 in0.0 mm 0.00 in0.0 mm
05:30 AM 68.8°F20.4°C 60.9°F16.1°C 76% Calm Calm -- 29.84 in1010.5 mb 0.00 in0.0 mm 0.00 in0.0 mm 0.00 in0.0 mm
05:31 AM 68.8°F20.4°C 60.9°F16.1°C 76% Calm Calm -- 29.84 in1010.5 mb 0.00 in0.0 mm 0.00 in0.0 mm 0.00 in0.0 mm
05:32 AM 68.8°F20.4°C 60.9°F16.1°C 76% Calm Calm -- 29.84 in1010.5 mb 0.00 in0.0 mm 0.00 in0.0 mm 0.00 in0.0 mm
05:33 AM 68.8°F20.4°C 60.9°F16.1°C 76% Calm Calm -- 29.84 in1010.5 mb 0.00 in0.0 mm 0.00 in0.0 mm 0.00 in0.0 mm
05:34 AM 68.7°F20.4°C 60.8°F16.0°C 76% Calm Calm -- 29.84 in1010.5 mb 0.00 in0.0 mm 0.00 in0.0 mm 0.00 in0.0 mm
05:35 AM 68.7°F20.4°C 60.8°F16.0°C 76% Calm Calm -- 29.84 in1010.5 mb 0.00 in0.0 mm 0.00 in0.0 mm 0.00 in0.0 mm
05:36 AM 68.7°F20.4°C 60.8°F16.0°C 76% Calm Calm -- 29.84 in1010.5 mb 0.00 in0.0 mm 0.00 in0.0 mm 0.00 in0.0 mm
05:37 AM 68.7°F20.4°C 60.8°F16.0°C 76% Calm Calm -- 29.84 in1010.5 mb 0.00 in0.0 mm 0.00 in0.0 mm 0.00 in0.0 mm
05:38 AM 68.6°F20.3°C 60.7°F15.9°C 76% Calm Calm -- 29.84 in1010.5 mb 0.00 in0.0 mm 0.00 in0.0 mm 0.00 in0.0 mm
05:39 AM 68.6°F20.3°C 60.7°F15.9°C 76% Calm Calm -- 29.84 in1010.5 mb 0.00 in0.0 mm 0.00 in0.0 mm 0.00 in0.0 mm
05:40 AM 68.6°F20.3°C 61.1°F16.2°C 77% Calm Calm -- 29.84 in1010.5 mb 0.00 in0.0 mm 0.00 in0.0 mm 0.00 in0.0 mm
05:41 AM 68.6°F20.3°C 61.1°F16.2°C 77% Calm Calm -- 29.84 in1010.5 mb 0.00 in0.0 mm 0.00 in0.0 mm 0.00 in0.0 mm
05:42 AM 68.5°F20.3°C 61.0°F16.1°C 77% Calm Calm -- 29.84 in1010.5 mb 0.00 in0.0 mm 0.00 in0.0 mm 0.00 in0.0 mm
05:43 AM 68.5°F20.3°C 61.0°F16.1°C 77% Calm Calm -- 29.84 in1010.5 mb 0.00 in0.0 mm 0.00 in0.0 mm 0.00 in0.0 mm
05:44 AM 68.5°F20.3°C 61.0°F16.1°C 77% Calm Calm -- 29.84 in1010.5 mb 0.00 in0.0 mm 0.00 in0.0 mm 0.00 in0.0 mm
05:45 AM 68.5°F20.3°C 61.0°F16.1°C 77% Calm Calm -- 29.84 in1010.5 mb 0.00 in0.0 mm 0.00 in0.0 mm 0.00 in0.0 mm
05:46 AM 68.5°F20.3°C 61.0°F16.1°C 77% Calm Calm -- 29.84 in1010.5 mb 0.00 in0.0 mm 0.00 in0.0 mm 0.00 in0.0 mm
05:47 AM 68.5°F20.3°C 61.0°F16.1°C 77% Calm Calm -- 29.84 in1010.5 mb 0.00 in0.0 mm 0.00 in0.0 mm 0.00 in0.0 mm
05:48 AM 68.5°F20.3°C 61.0°F16.1°C 77% Calm Calm -- 29.84 in1010.5 mb 0.00 in0.0 mm 0.00 in0.0 mm 0.00 in0.0 mm
05:49 AM 68.5°F20.3°C 61.0°F16.1°C 77% Calm Calm -- 29.84 in1010.5 mb 0.00 in0.0 mm 0.00 in0.0 mm 0.00 in0.0 mm
05:50 AM 68.5°F20.3°C 61.0°F16.1°C 77% Calm Calm -- 29.84 in1010.5 mb 0.00 in0.0 mm 0.00 in0.0 mm 0.00 in0.0 mm
05:51 AM 68.5°F20.3°C 61.0°F16.1°C 77% Calm Calm -- 29.84 in1010.5 mb 0.00 in0.0 mm 0.00 in0.0 mm 0.00 in0.0 mm
05:52 AM 68.5°F20.3°C 61.0°F16.1°C 77% 0.6 mph SE1.0 kmh SE 3.0 mph4.8 kmh 29.84 in1010.5 mb 0.00 in0.0 mm 0.00 in0.0 mm 0.00 in0.0 mm
05:53 AM 68.6°F20.3°C 61.1°F16.2°C 77% 1.6 mph SE2.6 kmh SE 3.0 mph4.8 kmh 29.84 in1010.5 mb 0.00 in0.0 mm 0.00 in0.0 mm 0.00 in0.0 mm
05:54 AM 68.5°F20.3°C 61.0°F16.1°C 77% Calm Calm 3.0 mph4.8 kmh 29.84 in1010.5 mb 0.00 in0.0 mm 0.00 in0.0 mm 0.00 in0.0 mm
05:55 AM 68.6°F20.3°C 61.1°F16.2°C 77% Calm Calm -- 29.84 in1010.5 mb 0.00 in0.0 mm 0.00 in0.0 mm 0.00 in0.0 mm
05:56 AM 68.6°F20.3°C 61.1°F16.2°C 77% Calm Calm -- 29.84 in1010.5 mb 0.00 in0.0 mm 0.00 in0.0 mm 0.00 in0.0 mm
05:57 AM 68.6°F20.3°C 61.1°F16.2°C 77% Calm Calm -- 29.84 in1010.5 mb 0.00 in0.0 mm 0.00 in0.0 mm 0.00 in0.0 mm
05:58 AM 68.6°F20.3°C 61.1°F16.2°C 77% Calm Calm -- 29.84 in1010.5 mb 0.00 in0.0 mm 0.00 in0.0 mm 0.00 in0.0 mm
05:59 AM 68.6°F20.3°C 61.1°F16.2°C 77% Calm Calm -- 29.84 in1010.5 mb 0.00 in0.0 mm 0.00 in0.0 mm 0.00 in0.0 mm
06:00 AM 68.6°F20.3°C 61.1°F16.2°C 77% Calm Calm -- 29.84 in1010.5 mb 0.00 in0.0 mm 0.00 in0.0 mm 0.00 in0.0 mm
06:01 AM 68.6°F20.3°C 61.1°F16.2°C 77% Calm Calm -- 29.84 in1010.5 mb 0.00 in0.0 mm 0.00 in0.0 mm 0.00 in0.0 mm
06:02 AM 68.6°F20.3°C 61.1°F16.2°C 77% Calm Calm -- 29.84 in1010.5 mb 0.00 in0.0 mm 0.00 in0.0 mm 0.00 in0.0 mm
06:03 AM 68.7°F20.4°C 61.2°F16.2°C 77% Calm Calm -- 29.84 in1010.5 mb 0.00 in0.0 mm 0.00 in0.0 mm 0.00 in0.0 mm
06:04 AM 68.7°F20.4°C 61.2°F16.2°C 77% Calm Calm -- 29.84 in1010.5 mb 0.00 in0.0 mm 0.00 in0.0 mm 0.00 in0.0 mm
06:05 AM 68.7°F20.4°C 61.2°F16.2°C 77% Calm Calm -- 29.84 in1010.5 mb 0.00 in0.0 mm 0.00 in0.0 mm 0.00 in0.0 mm
06:06 AM 68.8°F20.4°C 61.3°F16.3°C 77% Calm Calm -- 29.84 in1010.5 mb 0.00 in0.0 mm 0.00 in0.0 mm 0.00 in0.0 mm
06:07 AM 68.8°F20.4°C 61.3°F16.3°C 77% Calm Calm -- 29.84 in1010.5 mb 0.00 in0.0 mm 0.00 in0.0 mm 0.00 in0.0 mm
06:08 AM 68.8°F20.4°C 61.3°F16.3°C 77% 0.3 mph SE0.5 kmh SE 2.0 mph3.2 kmh 29.84 in1010.5 mb 0.00 in0.0 mm 0.00 in0.0 mm 0.00 in0.0 mm
06:09 AM 68.8°F20.4°C 61.3°F16.3°C 77% Calm Calm 2.0 mph3.2 kmh 29.84 in1010.5 mb 0.00 in0.0 mm 0.00 in0.0 mm 0.00 in0.0 mm
06:10 AM 68.8°F20.4°C 61.3°F16.3°C 77% Calm Calm -- 29.84 in1010.5 mb 0.00 in0.0 mm 0.00 in0.0 mm 0.00 in0.0 mm
06:11 AM 68.8°F20.4°C 61.3°F16.3°C 77% Calm Calm -- 29.84 in1010.5 mb 0.00 in0.0 mm 0.00 in0.0 mm 0.00 in0.0 mm
06:12 AM 68.8°F20.4°C 61.3°F16.3°C 77% Calm Calm -- 29.84 in1010.5 mb 0.00 in0.0 mm 0.00 in0.0 mm 0.00 in0.0 mm
06:13 AM 68.8°F20.4°C 61.3°F16.3°C 77% Calm Calm -- 29.84 in1010.5 mb 0.00 in0.0 mm 0.00 in0.0 mm 0.00 in0.0 mm
06:14 AM 68.9°F20.5°C 61.4°F16.3°C 77% Calm Calm -- 29.84 in1010.5 mb 0.00 in0.0 mm 0.00 in0.0 mm 0.00 in0.0 mm
06:15 AM 68.9°F20.5°C 61.4°F16.3°C 77% Calm Calm -- 29.84 in1010.5 mb 0.00 in0.0 mm 0.00 in0.0 mm 0.00 in0.0 mm
06:16 AM 68.9°F20.5°C 61.4°F16.3°C 77% Calm Calm -- 29.84 in1010.5 mb 0.00 in0.0 mm 0.00 in0.0 mm 0.00 in0.0 mm
06:17 AM 68.9°F20.5°C 61.4°F16.3°C 77% Calm Calm -- 29.84 in1010.5 mb 0.00 in0.0 mm 0.00 in0.0 mm 0.00 in0.0 mm
06:18 AM 68.9°F20.5°C 61.4°F16.3°C 77% Calm Calm -- 29.84 in1010.5 mb 0.00 in0.0 mm 0.00 in0.0 mm 0.00 in0.0 mm
06:19 AM 68.9°F20.5°C 61.4°F16.3°C 77% Calm Calm -- 29.84 in1010.5 mb 0.00 in0.0 mm 0.00 in0.0 mm 0.00 in0.0 mm
06:20 AM 68.9°F20.5°C 61.4°F16.3°C 77% Calm Calm -- 29.84 in1010.5 mb 0.00 in0.0 mm 0.00 in0.0 mm 0.00 in0.0 mm
06:21 AM 68.9°F20.5°C 61.4°F16.3°C 77% 0.7 mph SE1.1 kmh SE 3.0 mph4.8 kmh 29.84 in1010.5 mb 0.00 in0.0 mm 0.00 in0.0 mm 0.00 in0.0 mm
06:22 AM 68.9°F20.5°C 61.4°F16.3°C 77% 0.9 mph SE1.4 kmh SE 3.0 mph4.8 kmh 29.84 in1010.5 mb 0.00 in0.0 mm 0.00 in0.0 mm 0.00 in0.0 mm
06:23 AM 68.9°F20.5°C 61.4°F16.3°C 77% Calm Calm 3.0 mph4.8 kmh 29.84 in1010.5 mb 0.00 in0.0 mm 0.00 in0.0 mm 0.00 in0.0 mm
06:24 AM 69.0°F20.6°C 61.5°F16.4°C 77% Calm Calm -- 29.84 in1010.5 mb 0.00 in0.0 mm 0.00 in0.0 mm 0.00 in0.0 mm
06:25 AM 69.0°F20.6°C 61.5°F16.4°C 77% Calm Calm -- 29.84 in1010.5 mb 0.00 in0.0 mm 0.00 in0.0 mm 0.00 in0.0 mm
06:26 AM 69.0°F20.6°C 61.5°F16.4°C 77% Calm Calm -- 29.84 in1010.5 mb 0.00 in0.0 mm 0.00 in0.0 mm 0.00 in0.0 mm
06:27 AM 69.0°F20.6°C 61.5°F16.4°C 77% Calm Calm -- 29.84 in1010.5 mb 0.00 in0.0 mm 0.00 in0.0 mm 0.00 in0.0 mm
06:28 AM 69.1°F20.6°C 61.6°F16.4°C 77% Calm Calm -- 29.84 in1010.5 mb 0.00 in0.0 mm 0.00 in0.0 mm 0.00 in0.0 mm
06:29 AM 69.1°F20.6°C 61.6°F16.4°C 77% Calm Calm -- 29.84 in1010.5 mb 0.00 in0.0 mm 0.00 in0.0 mm 0.00 in0.0 mm
06:30 AM 69.1°F20.6°C 61.6°F16.4°C 77% Calm Calm -- 29.84 in1010.5 mb 0.00 in0.0 mm 0.00 in0.0 mm 0.00 in0.0 mm
06:31 AM 69.2°F20.7°C 61.7°F16.5°C 77% Calm Calm -- 29.84 in1010.5 mb 0.00 in0.0 mm 0.00 in0.0 mm 0.00 in0.0 mm
06:32 AM 69.2°F20.7°C 61.7°F16.5°C 77% Calm Calm -- 29.84 in1010.5 mb 0.00 in0.0 mm 0.00 in0.0 mm 0.00 in0.0 mm
06:33 AM 69.3°F20.7°C 61.8°F16.6°C 77% Calm Calm -- 29.84 in1010.5 mb 0.00 in0.0 mm 0.00 in0.0 mm 0.00 in0.0 mm
06:34 AM 69.3°F20.7°C 61.8°F16.6°C 77% Calm Calm -- 29.84 in1010.5 mb 0.00 in0.0 mm 0.00 in0.0 mm 0.00 in0.0 mm
06:35 AM 69.4°F20.8°C 61.9°F16.6°C 77% Calm Calm -- 29.84 in1010.5 mb 0.00 in0.0 mm 0.00 in0.0 mm 0.00 in0.0 mm
06:36 AM 69.4°F20.8°C 61.9°F16.6°C 77% 1.3 mph SE2.1 kmh SE 4.0 mph6.4 kmh 29.84 in1010.5 mb 0.00 in0.0 mm 0.00 in0.0 mm 0.00 in0.0 mm
06:37 AM 69.4°F20.8°C 61.9°F16.6°C 77% 1.3 mph SE2.1 kmh SE 4.0 mph6.4 kmh 29.84 in1010.5 mb 0.00 in0.0 mm 0.00 in0.0 mm 0.00 in0.0 mm
06:38 AM 69.5°F20.8°C 61.6°F16.4°C 76% Calm Calm 3.0 mph4.8 kmh 29.84 in1010.5 mb 0.00 in0.0 mm 0.00 in0.0 mm 0.00 in0.0 mm
06:39 AM 69.5°F20.8°C 61.6°F16.4°C 76% Calm Calm -- 29.84 in1010.5 mb 0.00 in0.0 mm 0.00 in0.0 mm 0.00 in0.0 mm
06:40 AM 69.6°F20.9°C 61.7°F16.5°C 76% Calm Calm -- 29.84 in1010.5 mb 0.00 in0.0 mm 0.00 in0.0 mm 0.00 in0.0 mm
06:41 AM 69.7°F20.9°C 61.8°F16.6°C 76% 1.5 mph SE2.4 kmh SE 3.0 mph4.8 kmh 29.84 in1010.5 mb 0.00 in0.0 mm 0.00 in0.0 mm 0.00 in0.0 mm
06:42 AM 69.7°F20.9°C 61.8°F16.6°C 76% Calm Calm 3.0 mph4.8 kmh 29.84 in1010.5 mb 0.00 in0.0 mm 0.00 in0.0 mm 0.00 in0.0 mm
06:43 AM 69.8°F21.0°C 61.9°F16.6°C 76% Calm Calm -- 29.84 in1010.5 mb 0.00 in0.0 mm 0.00 in0.0 mm 0.00 in0.0 mm
06:44 AM 69.8°F21.0°C 61.9°F16.6°C 76% Calm Calm -- 29.84 in1010.5 mb 0.00 in0.0 mm 0.00 in0.0 mm 0.00 in0.0 mm
06:45 AM 69.9°F21.1°C 62.0°F16.7°C 76% Calm Calm -- 29.84 in1010.5 mb 0.00 in0.0 mm 0.00 in0.0 mm 0.00 in0.0 mm
06:46 AM 70.0°F21.1°C 62.1°F16.7°C 76% Calm Calm -- 29.84 in1010.5 mb 0.00 in0.0 mm 0.00 in0.0 mm 0.00 in0.0 mm
06:47 AM 70.0°F21.1°C 62.1°F16.7°C 76% Calm Calm -- 29.84 in1010.5 mb 0.00 in0.0 mm 0.00 in0.0 mm 0.00 in0.0 mm
06:48 AM 70.1°F21.2°C 62.2°F16.8°C 76% 0.6 mph SE1.0 kmh SE 3.0 mph4.8 kmh 29.84 in1010.5 mb 0.00 in0.0 mm 0.00 in0.0 mm 0.00 in0.0 mm
06:49 AM 70.1°F21.2°C 62.2°F16.8°C 76% Calm Calm 3.0 mph4.8 kmh 29.84 in1010.5 mb 0.00 in0.0 mm 0.00 in0.0 mm 0.00 in0.0 mm
06:50 AM 70.2°F21.2°C 62.3°F16.8°C 76% 0.4 mph SE0.6 kmh SE 2.0 mph3.2 kmh 29.84 in1010.5 mb 0.00 in0.0 mm 0.00 in0.0 mm 0.00 in0.0 mm
06:51 AM 70.2°F21.2°C 62.3°F16.8°C 76% 0.9 mph SE1.4 kmh SE 3.0 mph4.8 kmh 29.84 in1010.5 mb 0.00 in0.0 mm 0.00 in0.0 mm 0.00 in0.0 mm
06:52 AM 70.2°F21.2°C 62.3°F16.8°C 76% 0.8 mph SE1.3 kmh SE 3.0 mph4.8 kmh 29.84 in1010.5 mb 0.00 in0.0 mm 0.00 in0.0 mm 0.00 in0.0 mm
06:53 AM 70.2°F21.2°C 62.3°F16.8°C 76% 0.6 mph SE1.0 kmh SE 3.0 mph4.8 kmh 29.84 in1010.5 mb 0.00 in0.0 mm 0.00 in0.0 mm 0.00 in0.0 mm
06:54 AM 70.3°F21.3°C 62.4°F16.9°C 76% Calm Calm 2.0 mph3.2 kmh 29.84 in1010.5 mb 0.00 in0.0 mm 0.00 in0.0 mm 0.00 in0.0 mm
06:55 AM 70.3°F21.3°C 62.4°F16.9°C 76% Calm Calm -- 29.84 in1010.5 mb 0.00 in0.0 mm 0.00 in0.0 mm 0.00 in0.0 mm
06:56 AM 70.4°F21.3°C 62.1°F16.7°C 75% Calm Calm -- 29.84 in1010.5 mb 0.00 in0.0 mm 0.00 in0.0 mm 0.00 in0.0 mm
06:57 AM 70.5°F21.4°C 62.2°F16.8°C 75% Calm Calm -- 29.84 in1010.5 mb 0.00 in0.0 mm 0.00 in0.0 mm 0.00 in0.0 mm
06:58 AM 70.5°F21.4°C 62.2°F16.8°C 75% Calm Calm -- 29.84 in1010.5 mb 0.00 in0.0 mm 0.00 in0.0 mm 0.00 in0.0 mm
06:59 AM 70.6°F21.4°C 62.3°F16.8°C 75% Calm Calm -- 29.84 in1010.5 mb 0.00 in0.0 mm 0.00 in0.0 mm 0.00 in0.0 mm
07:00 AM 70.6°F21.4°C 62.3°F16.8°C 75% Calm Calm -- 29.84 in1010.5 mb 0.00 in0.0 mm 0.00 in0.0 mm 0.00 in0.0 mm
07:01 AM 70.7°F21.5°C 62.4°F16.9°C 75% Calm Calm -- 29.84 in1010.5 mb 0.00 in0.0 mm 0.00 in0.0 mm 0.00 in0.0 mm
07:02 AM 70.7°F21.5°C 62.4°F16.9°C 75% Calm Calm -- 29.84 in1010.5 mb 0.00 in0.0 mm 0.00 in0.0 mm 0.00 in0.0 mm
07:03 AM 70.7°F21.5°C 62.4°F16.9°C 75% 0.2 mph SE0.3 kmh SE 2.0 mph3.2 kmh 29.84 in1010.5 mb 0.00 in0.0 mm 0.00 in0.0 mm 0.00 in0.0 mm
07:04 AM 70.8°F21.6°C 62.5°F16.9°C 75% Calm Calm 2.0 mph3.2 kmh 29.84 in1010.5 mb 0.00 in0.0 mm 0.00 in0.0 mm 0.00 in0.0 mm
07:05 AM 70.8°F21.6°C 62.5°F16.9°C 75% Calm Calm -- 29.84 in1010.5 mb 0.00 in0.0 mm 0.00 in0.0 mm 0.00 in0.0 mm
07:06 AM 70.9°F21.6°C 62.6°F17.0°C 75% Calm Calm -- 29.84 in1010.5 mb 0.00 in0.0 mm 0.00 in0.0 mm 0.00 in0.0 mm
07:07 AM 71.0°F21.7°C 62.7°F17.1°C 75% Calm Calm -- 29.84 in1010.5 mb 0.00 in0.0 mm 0.00 in0.0 mm 0.00 in0.0 mm
07:08 AM 71.1°F21.7°C 62.8°F17.1°C 75% Calm Calm -- 29.84 in1010.5 mb 0.00 in0.0 mm 0.00 in0.0 mm 0.00 in0.0 mm
07:09 AM 71.2°F21.8°C 62.9°F17.2°C 75% Calm Calm -- 29.84 in1010.5 mb 0.00 in0.0 mm 0.00 in0.0 mm 0.00 in0.0 mm
07:10 AM 71.3°F21.8°C 63.0°F17.2°C 75% Calm Calm -- 29.84 in1010.5 mb 0.00 in0.0 mm 0.00 in0.0 mm 0.00 in0.0 mm
07:11 AM 71.3°F21.8°C 62.6°F17.0°C 74% Calm Calm -- 29.84 in1010.5 mb 0.00 in0.0 mm 0.00 in0.0 mm 0.00 in0.0 mm
07:12 AM 71.4°F21.9°C 62.7°F17.1°C 74% Calm Calm -- 29.84 in1010.5 mb 0.00 in0.0 mm 0.00 in0.0 mm 0.00 in0.0 mm
07:13 AM 71.6°F22.0°C 62.9°F17.2°C 74% Calm Calm -- 29.84 in1010.5 mb 0.00 in0.0 mm 0.00 in0.0 mm 0.00 in0.0 mm
07:14 AM 71.7°F22.1°C 63.0°F17.2°C 74% 0.1 mph SE0.2 kmh SE 1.0 mph1.6 kmh 29.84 in1010.5 mb 0.00 in0.0 mm 0.00 in0.0 mm 0.00 in0.0 mm
07:15 AM 71.8°F22.1°C 62.7°F17.1°C 73% 1.1 mph SE1.8 kmh SE 4.0 mph6.4 kmh 29.84 in1010.5 mb 0.00 in0.0 mm 0.00 in0.0 mm 0.00 in0.0 mm
07:16 AM 71.8°F22.1°C 62.7°F17.1°C 73% 1.5 mph SE2.4 kmh SE 4.0 mph6.4 kmh 29.84 in1010.5 mb 0.00 in0.0 mm 0.00 in0.0 mm 0.00 in0.0 mm
07:17 AM 71.9°F22.2°C 62.8°F17.1°C 73% 0.9 mph S1.4 kmh S 4.0 mph6.4 kmh 29.84 in1010.5 mb 0.00 in0.0 mm 0.00 in0.0 mm 0.00 in0.0 mm
07:18 AM 72.0°F22.2°C 62.9°F17.2°C 73% 0.5 mph S0.8 kmh S 3.0 mph4.8 kmh 29.84 in1010.5 mb 0.00 in0.0 mm 0.00 in0.0 mm 0.00 in0.0 mm
07:19 AM 72.0°F22.2°C 62.9°F17.2°C 73% 1.0 mph S1.6 kmh S 3.0 mph4.8 kmh 29.84 in1010.5 mb 0.00 in0.0 mm 0.00 in0.0 mm 0.00 in0.0 mm
07:20 AM 72.1°F22.3°C 63.0°F17.2°C 73% 0.8 mph S1.3 kmh S 3.0 mph4.8 kmh 29.84 in1010.5 mb 0.00 in0.0 mm 0.00 in0.0 mm 0.00 in0.0 mm
07:21 AM 72.2°F22.3°C 63.1°F17.3°C 73% 1.6 mph S2.6 kmh S 3.0 mph4.8 kmh 29.84 in1010.5 mb 0.00 in0.0 mm 0.00 in0.0 mm 0.00 in0.0 mm
07:22 AM 72.2°F22.3°C 62.7°F17.1°C 72% 0.3 mph S0.5 kmh S 3.0 mph4.8 kmh 29.84 in1010.5 mb 0.00 in0.0 mm 0.00 in0.0 mm 0.00 in0.0 mm
07:23 AM 72.2°F22.3°C 62.7°F17.1°C 72% 1.9 mph S3.1 kmh S 3.0 mph4.8 kmh 29.84 in1010.5 mb 0.00 in0.0 mm 0.00 in0.0 mm 0.00 in0.0 mm
07:24 AM 72.2°F22.3°C 62.7°F17.1°C 72% 2.2 mph S3.5 kmh S 4.0 mph6.4 kmh 29.84 in1010.5 mb 0.00 in0.0 mm 0.00 in0.0 mm 0.00 in0.0 mm
07:25 AM 72.2°F22.3°C 62.7°F17.1°C 72% 1.4 mph S2.3 kmh S 4.0 mph6.4 kmh 29.84 in1010.5 mb 0.00 in0.0 mm 0.00 in0.0 mm 0.00 in0.0 mm
07:26 AM 72.2°F22.3°C 62.7°F17.1°C 72% 1.1 mph S1.8 kmh S 3.0 mph4.8 kmh 29.84 in1010.5 mb 0.00 in0.0 mm 0.00 in0.0 mm 0.00 in0.0 mm
07:27 AM 72.2°F22.3°C 63.1°F17.3°C 73% 1.3 mph S2.1 kmh S 3.0 mph4.8 kmh 29.85 in1010.8 mb 0.00 in0.0 mm 0.00 in0.0 mm 0.00 in0.0 mm
07:28 AM 72.2°F22.3°C 63.1°F17.3°C 73% 0.9 mph S1.4 kmh S 3.0 mph4.8 kmh 29.84 in1010.5 mb 0.00 in0.0 mm 0.00 in0.0 mm 0.00 in0.0 mm
07:29 AM 72.3°F22.4°C 63.1°F17.3°C 73% Calm Calm 2.0 mph3.2 kmh 29.85 in1010.8 mb 0.00 in0.0 mm 0.00 in0.0 mm 0.00 in0.0 mm
07:30 AM 72.3°F22.4°C 63.1°F17.3°C 73% Calm Calm -- 29.85 in1010.8 mb 0.00 in0.0 mm 0.00 in0.0 mm 0.00 in0.0 mm
07:31 AM 72.4°F22.4°C 63.2°F17.3°C 73% Calm Calm -- 29.84 in1010.5 mb 0.00 in0.0 mm 0.00 in0.0 mm 0.00 in0.0 mm
07:32 AM 72.4°F22.4°C 63.2°F17.3°C 73% Calm Calm -- 29.85 in1010.8 mb 0.00 in0.0 mm 0.00 in0.0 mm 0.00 in0.0 mm
07:33 AM 72.4°F22.4°C 62.9°F17.2°C 72% 0.8 mph S1.3 kmh S 3.0 mph4.8 kmh 29.85 in1010.8 mb 0.00 in0.0 mm 0.00 in0.0 mm 0.00 in0.0 mm
07:34 AM 72.4°F22.4°C 62.9°F17.2°C 72% 2.3 mph S3.7 kmh S 3.0 mph4.8 kmh 29.85 in1010.8 mb 0.00 in0.0 mm 0.00 in0.0 mm 0.00 in0.0 mm
07:35 AM 72.4°F22.4°C 63.2°F17.3°C 73% 0.2 mph S0.3 kmh S 3.0 mph4.8 kmh 29.85 in1010.8 mb 0.00 in0.0 mm 0.00 in0.0 mm 0.00 in0.0 mm
07:36 AM 72.4°F22.4°C 62.9°F17.2°C 72% 1.2 mph S1.9 kmh S 2.0 mph3.2 kmh 29.85 in1010.8 mb 0.00 in0.0 mm 0.00 in0.0 mm 0.00 in0.0 mm
07:37 AM 72.4°F22.4°C 62.9°F17.2°C 72% 1.5 mph S2.4 kmh S 3.0 mph4.8 kmh 29.85 in1010.8 mb 0.00 in0.0 mm 0.00 in0.0 mm 0.00 in0.0 mm
07:38 AM 72.4°F22.4°C 63.2°F17.3°C 73% 1.7 mph S2.7 kmh S 3.0 mph4.8 kmh 29.84 in1010.5 mb 0.00 in0.0 mm 0.00 in0.0 mm 0.00 in0.0 mm
07:39 AM 72.4°F22.4°C 63.2°F17.3°C 73% 1.2 mph S1.9 kmh S 4.0 mph6.4 kmh 29.84 in1010.5 mb 0.00 in0.0 mm 0.00 in0.0 mm 0.00 in0.0 mm
07:40 AM 72.4°F22.4°C 62.9°F17.2°C 72% 2.0 mph S3.2 kmh S 4.0 mph6.4 kmh 29.85 in1010.8 mb 0.00 in0.0 mm 0.00 in0.0 mm 0.00 in0.0 mm
07:41 AM 72.4°F22.4°C 62.9°F17.2°C 72% 1.3 mph S2.1 kmh S 3.0 mph4.8 kmh 29.85 in1010.8 mb 0.00 in0.0 mm 0.00 in0.0 mm 0.00 in0.0 mm
07:42 AM 72.4°F22.4°C 62.9°F17.2°C 72% 2.4 mph S3.9 kmh S 4.0 mph6.4 kmh 29.85 in1010.8 mb 0.00 in0.0 mm 0.00 in0.0 mm 0.00 in0.0 mm
07:43 AM 72.4°F22.4°C 62.9°F17.2°C 72% 0.5 mph S0.8 kmh S 4.0 mph6.4 kmh 29.85 in1010.8 mb 0.00 in0.0 mm 0.00 in0.0 mm 0.00 in0.0 mm
07:44 AM 72.4°F22.4°C 62.9°F17.2°C 72% 1.8 mph S2.9 kmh S 4.0 mph6.4 kmh 29.84 in1010.5 mb 0.00 in0.0 mm 0.00 in0.0 mm 0.00 in0.0 mm
07:45 AM 72.4°F22.4°C 62.9°F17.2°C 72% 1.7 mph S2.7 kmh S 5.0 mph8.0 kmh 29.85 in1010.8 mb 0.00 in0.0 mm 0.00 in0.0 mm 0.00 in0.0 mm
07:46 AM 72.5°F22.5°C 62.9°F17.2°C 72% 1.6 mph S2.6 kmh S 5.0 mph8.0 kmh 29.85 in1010.8 mb 0.00 in0.0 mm 0.00 in0.0 mm 0.00 in0.0 mm
07:47 AM 72.5°F22.5°C 62.9°F17.2°C 72% 0.4 mph S0.6 kmh S 3.0 mph4.8 kmh 29.85 in1010.8 mb 0.00 in0.0 mm 0.00 in0.0 mm 0.00 in0.0 mm
07:48 AM 72.6°F22.6°C 63.0°F17.2°C 72% 1.8 mph S2.9 kmh S 4.0 mph6.4 kmh 29.85 in1010.8 mb 0.00 in0.0 mm 0.00 in0.0 mm 0.00 in0.0 mm
07:49 AM 72.6°F22.6°C 63.0°F17.2°C 72% 0.5 mph S0.8 kmh S 4.0 mph6.4 kmh 29.85 in1010.8 mb 0.00 in0.0 mm 0.00 in0.0 mm 0.00 in0.0 mm
07:50 AM 72.7°F22.6°C 63.1°F17.3°C 72% 1.4 mph S2.3 kmh S 2.0 mph3.2 kmh 29.85 in1010.8 mb 0.00 in0.0 mm 0.00 in0.0 mm 0.00 in0.0 mm
07:51 AM 72.7°F22.6°C 63.1°F17.3°C 72% 1.3 mph S2.1 kmh S 4.0 mph6.4 kmh 29.84 in1010.5 mb 0.00 in0.0 mm 0.00 in0.0 mm 0.00 in0.0 mm
07:52 AM 72.8°F22.7°C 63.2°F17.3°C 72% 1.9 mph S3.1 kmh S 4.0 mph6.4 kmh 29.85 in1010.8 mb 0.00 in0.0 mm 0.00 in0.0 mm 0.00 in0.0 mm
07:53 AM 72.8°F22.7°C 63.2°F17.3°C 72% Calm Calm 4.0 mph6.4 kmh 29.85 in1010.8 mb 0.00 in0.0 mm 0.00 in0.0 mm 0.00 in0.0 mm
07:54 AM 72.8°F22.7°C 63.2°F17.3°C 72% Calm Calm -- 29.85 in1010.8 mb 0.00 in0.0 mm 0.00 in0.0 mm 0.00 in0.0 mm
07:55 AM 72.9°F22.7°C 63.3°F17.4°C 72% Calm Calm 1.0 mph1.6 kmh 29.85 in1010.8 mb 0.00 in0.0 mm 0.00 in0.0 mm 0.00 in0.0 mm
07:56 AM 73.0°F22.8°C 63.4°F17.4°C 72% 0.9 mph S1.4 kmh S 3.0 mph4.8 kmh 29.85 in1010.8 mb 0.00 in0.0 mm 0.00 in0.0 mm 0.00 in0.0 mm
07:57 AM 73.1°F22.8°C 63.5°F17.5°C 72% Calm Calm 3.0 mph4.8 kmh 29.85 in1010.8 mb 0.00 in0.0 mm 0.00 in0.0 mm 0.00 in0.0 mm
07:58 AM 73.2°F22.9°C 63.6°F17.6°C 72% Calm Calm -- 29.85 in1010.8 mb 0.00 in0.0 mm 0.00 in0.0 mm 0.00 in0.0 mm
07:59 AM 73.3°F22.9°C 63.7°F17.6°C 72% 1.3 mph S2.1 kmh S 3.0 mph4.8 kmh 29.85 in1010.8 mb 0.00 in0.0 mm 0.00 in0.0 mm 0.00 in0.0 mm
08:00 AM 73.3°F22.9°C 63.3°F17.4°C 71% 0.6 mph S1.0 kmh S 3.0 mph4.8 kmh 29.85 in1010.8 mb 0.00 in0.0 mm 0.00 in0.0 mm 0.00 in0.0 mm
08:01 AM 73.3°F22.9°C 63.3°F17.4°C 71% 1.0 mph S1.6 kmh S 3.0 mph4.8 kmh 29.85 in1010.8 mb 0.00 in0.0 mm 0.00 in0.0 mm 0.00 in0.0 mm
08:02 AM 73.3°F22.9°C 63.3°F17.4°C 71% 1.0 mph S1.6 kmh S 3.0 mph4.8 kmh 29.85 in1010.8 mb 0.00 in0.0 mm 0.00 in0.0 mm 0.00 in0.0 mm
08:03 AM 73.3°F22.9°C 63.3°F17.4°C 71% Calm Calm 3.0 mph4.8 kmh 29.85 in1010.8 mb 0.00 in0.0 mm 0.00 in0.0 mm 0.00 in0.0 mm
08:04 AM 73.3°F22.9°C 63.3°F17.4°C 71% 0.5 mph S0.8 kmh S 3.0 mph4.8 kmh 29.85 in1010.8 mb 0.00 in0.0 mm 0.00 in0.0 mm 0.00 in0.0 mm
08:05 AM 73.3°F22.9°C 63.3°F17.4°C 71% 0.3 mph S0.5 kmh S 3.0 mph4.8 kmh 29.85 in1010.8 mb 0.00 in0.0 mm 0.00 in0.0 mm 0.00 in0.0 mm
08:06 AM 73.3°F22.9°C 63.3°F17.4°C 71% 1.9 mph S3.1 kmh S 4.0 mph6.4 kmh 29.85 in1010.8 mb 0.00 in0.0 mm 0.00 in0.0 mm 0.00 in0.0 mm
08:07 AM 73.3°F22.9°C 63.3°F17.4°C 71% 0.8 mph S1.3 kmh S 4.0 mph6.4 kmh 29.85 in1010.8 mb 0.00 in0.0 mm 0.00 in0.0 mm 0.00 in0.0 mm
08:08 AM 73.4°F23.0°C 63.4°F17.4°C 71% Calm Calm 3.0 mph4.8 kmh 29.85 in1010.8 mb 0.00 in0.0 mm 0.00 in0.0 mm 0.00 in0.0 mm
08:09 AM 73.4°F23.0°C 63.4°F17.4°C 71% Calm Calm 1.0 mph1.6 kmh 29.85 in1010.8 mb 0.00 in0.0 mm 0.00 in0.0 mm 0.00 in0.0 mm
08:10 AM 73.4°F23.0°C 63.4°F17.4°C 71% 0.4 mph S0.6 kmh S 2.0 mph3.2 kmh 29.85 in1010.8 mb 0.00 in0.0 mm 0.00 in0.0 mm 0.00 in0.0 mm
08:11 AM 73.5°F23.1°C 63.5°F17.5°C 71% 0.1 mph S0.2 kmh S 2.0 mph3.2 kmh 29.85 in1010.8 mb 0.00 in0.0 mm 0.00 in0.0 mm 0.00 in0.0 mm
08:12 AM 73.6°F23.1°C 63.6°F17.6°C 71% Calm Calm 1.0 mph1.6 kmh 29.85 in1010.8 mb 0.00 in0.0 mm 0.00 in0.0 mm 0.00 in0.0 mm
08:13 AM 73.6°F23.1°C 63.6°F17.6°C 71% 0.1 mph S0.2 kmh S 1.0 mph1.6 kmh 29.85 in1010.8 mb 0.00 in0.0 mm 0.00 in0.0 mm 0.00 in0.0 mm
08:14 AM 73.7°F23.2°C 63.7°F17.6°C 71% 1.0 mph S1.6 kmh S 3.0 mph4.8 kmh 29.85 in1010.8 mb 0.00 in0.0 mm 0.00 in0.0 mm 0.00 in0.0 mm
08:15 AM 73.9°F23.3°C 63.9°F17.7°C 71% 0.5 mph S0.8 kmh S 3.0 mph4.8 kmh 29.85 in1010.8 mb 0.00 in0.0 mm 0.00 in0.0 mm 0.00 in0.0 mm
08:16 AM 74.0°F23.3°C 63.6°F17.6°C 70% 0.7 mph S1.1 kmh S 2.0 mph3.2 kmh 29.85 in1010.8 mb 0.00 in0.0 mm 0.00 in0.0 mm 0.00 in0.0 mm
08:17 AM 74.1°F23.4°C 63.7°F17.6°C 70% 0.6 mph S1.0 kmh S 3.0 mph4.8 kmh 29.85 in1010.8 mb 0.00 in0.0 mm 0.00 in0.0 mm 0.00 in0.0 mm
08:18 AM 74.2°F23.4°C 63.8°F17.7°C 70% Calm Calm 3.0 mph4.8 kmh 29.85 in1010.8 mb 0.00 in0.0 mm 0.00 in0.0 mm 0.00 in0.0 mm
08:19 AM 74.4°F23.6°C 64.0°F17.8°C 70% 0.8 mph S1.3 kmh S 3.0 mph4.8 kmh 29.85 in1010.8 mb 0.00 in0.0 mm 0.00 in0.0 mm 0.00 in0.0 mm
08:20 AM 74.5°F23.6°C 64.1°F17.8°C 70% 0.1 mph S0.2 kmh S 3.0 mph4.8 kmh 29.85 in1010.8 mb 0.00 in0.0 mm 0.00 in0.0 mm 0.00 in0.0 mm
08:21 AM 74.6°F23.7°C 63.7°F17.6°C 69% 1.6 mph S2.6 kmh S 3.0 mph4.8 kmh 29.85 in1010.8 mb 0.00 in0.0 mm 0.00 in0.0 mm 0.00 in0.0 mm
08:22 AM 74.6°F23.7°C 63.7°F17.6°C 69% 1.3 mph S2.1 kmh S 3.0 mph4.8 kmh 29.85 in1010.8 mb 0.00 in0.0 mm 0.00 in0.0 mm 0.00 in0.0 mm
08:23 AM 74.6°F23.7°C 63.7°F17.6°C 69% 1.1 mph S1.8 kmh S 3.0 mph4.8 kmh 29.85 in1010.8 mb 0.00 in0.0 mm 0.00 in0.0 mm 0.00 in0.0 mm
08:24 AM 74.6°F23.7°C 63.7°F17.6°C 69% 0.1 mph S0.2 kmh S 3.0 mph4.8 kmh 29.85 in1010.8 mb 0.00 in0.0 mm 0.00 in0.0 mm 0.00 in0.0 mm
08:25 AM 74.7°F23.7°C 63.8°F17.7°C 69% Calm Calm 1.0 mph1.6 kmh 29.85 in1010.8 mb 0.00 in0.0 mm 0.00 in0.0 mm 0.00 in0.0 mm
08:26 AM 74.7°F23.7°C 63.8°F17.7°C 69% Calm Calm -- 29.85 in1010.8 mb 0.00 in0.0 mm 0.00 in0.0 mm 0.00 in0.0 mm
08:27 AM 74.8°F23.8°C 63.9°F17.7°C 69% Calm Calm -- 29.85 in1010.8 mb 0.00 in0.0 mm 0.00 in0.0 mm 0.00 in0.0 mm
08:28 AM 75.0°F23.9°C 64.1°F17.8°C 69% 0.3 mph S0.5 kmh S 2.0 mph3.2 kmh 29.85 in1010.8 mb 0.00 in0.0 mm 0.00 in0.0 mm 0.00 in0.0 mm
08:29 AM 75.1°F23.9°C 64.2°F17.9°C 69% Calm Calm 2.0 mph3.2 kmh 29.85 in1010.8 mb 0.00 in0.0 mm 0.00 in0.0 mm 0.00 in0.0 mm
08:30 AM 75.2°F24.0°C 63.9°F17.7°C 68% 0.5 mph S0.8 kmh S 1.0 mph1.6 kmh 29.85 in1010.8 mb 0.00 in0.0 mm 0.00 in0.0 mm 0.00 in0.0 mm
08:31 AM 75.3°F24.1°C 64.0°F17.8°C 68% Calm Calm 1.0 mph1.6 kmh 29.85 in1010.8 mb 0.00 in0.0 mm 0.00 in0.0 mm 0.00 in0.0 mm
08:32 AM 75.4°F24.1°C 64.1°F17.8°C 68% Calm Calm 1.0 mph1.6 kmh 29.85 in1010.8 mb 0.00 in0.0 mm 0.00 in0.0 mm 0.00 in0.0 mm
08:33 AM 75.5°F24.2°C 64.2°F17.9°C 68% Calm Calm 1.0 mph1.6 kmh 29.85 in1010.8 mb 0.00 in0.0 mm 0.00 in0.0 mm 0.00 in0.0 mm
08:34 AM 75.6°F24.2°C 64.3°F17.9°C 68% 0.2 mph S0.3 kmh S 2.0 mph3.2 kmh 29.85 in1010.8 mb 0.00 in0.0 mm 0.00 in0.0 mm 0.00 in0.0 mm
08:35 AM 75.7°F24.3°C 64.4°F18.0°C 68% Calm Calm 2.0 mph3.2 kmh 29.85 in1010.8 mb 0.00 in0.0 mm 0.00 in0.0 mm 0.00 in0.0 mm
08:36 AM 75.7°F24.3°C 63.9°F17.7°C 67% Calm Calm -- 29.85 in1010.8 mb 0.00 in0.0 mm 0.00 in0.0 mm 0.00 in0.0 mm
08:37 AM 75.8°F24.3°C 64.0°F17.8°C 67% 0.1 mph S0.2 kmh S 1.0 mph1.6 kmh 29.85 in1010.8 mb 0.00 in0.0 mm 0.00 in0.0 mm 0.00 in0.0 mm
08:38 AM 75.9°F24.4°C 64.1°F17.8°C 67% Calm Calm 1.0 mph1.6 kmh 29.85 in1010.8 mb 0.00 in0.0 mm 0.00 in0.0 mm 0.00 in0.0 mm
08:39 AM 76.1°F24.5°C 64.3°F17.9°C 67% 0.2 mph S0.3 kmh S 2.0 mph3.2 kmh 29.85 in1010.8 mb 0.00 in0.0 mm 0.00 in0.0 mm 0.00 in0.0 mm
08:40 AM 76.2°F24.6°C 64.4°F18.0°C 67% 0.9 mph S1.4 kmh S 3.0 mph4.8 kmh 29.85 in1010.8 mb 0.00 in0.0 mm 0.00 in0.0 mm 0.00 in0.0 mm
08:41 AM 76.4°F24.7°C 64.6°F18.1°C 67% 0.5 mph S0.8 kmh S 3.0 mph4.8 kmh 29.85 in1010.8 mb 0.00 in0.0 mm 0.00 in0.0 mm 0.00 in0.0 mm
08:42 AM 76.6°F24.8°C 64.8°F18.2°C 67% Calm Calm 2.0 mph3.2 kmh 29.85 in1010.8 mb 0.00 in0.0 mm 0.00 in0.0 mm 0.00 in0.0 mm
08:43 AM 76.7°F24.8°C 64.5°F18.1°C 66% 0.3 mph S0.5 kmh S 2.0 mph3.2 kmh 29.85 in1010.8 mb 0.00 in0.0 mm 0.00 in0.0 mm 0.00 in0.0 mm
08:44 AM 76.9°F24.9°C 64.7°F18.2°C 66% 2.1 mph S3.4 kmh S 5.0 mph8.0 kmh 29.85 in1010.8 mb 0.00 in0.0 mm 0.00 in0.0 mm 0.00 in0.0 mm
08:45 AM 76.9°F24.9°C 64.7°F18.2°C 66% 2.3 mph S3.7 kmh S 5.0 mph8.0 kmh 29.85 in1010.8 mb 0.00 in0.0 mm 0.00 in0.0 mm 0.00 in0.0 mm
08:46 AM 77.0°F25.0°C 64.8°F18.2°C 66% 1.3 mph S2.1 kmh S 5.0 mph8.0 kmh 29.85 in1010.8 mb 0.00 in0.0 mm 0.00 in0.0 mm 0.00 in0.0 mm
08:47 AM 77.1°F25.1°C 64.4°F18.0°C 65% 1.8 mph S2.9 kmh S 4.0 mph6.4 kmh 29.85 in1010.8 mb 0.00 in0.0 mm 0.00 in0.0 mm 0.00 in0.0 mm
08:48 AM 77.1°F25.1°C 64.4°F18.0°C 65% 1.3 mph S2.1 kmh S 4.0 mph6.4 kmh 29.85 in1010.8 mb 0.00 in0.0 mm 0.00 in0.0 mm 0.00 in0.0 mm
08:49 AM 77.1°F25.1°C 64.4°F18.0°C 65% 0.8 mph S1.3 kmh S 3.0 mph4.8 kmh 29.85 in1010.8 mb 0.00 in0.0 mm 0.00 in0.0 mm 0.00 in0.0 mm
08:50 AM 77.2°F25.1°C 64.5°F18.1°C 65% 1.4 mph S2.3 kmh S 3.0 mph4.8 kmh 29.85 in1010.8 mb 0.00 in0.0 mm 0.00 in0.0 mm 0.00 in0.0 mm
08:51 AM 77.2°F25.1°C 64.5°F18.1°C 65% 3.4 mph S5.5 kmh S 5.0 mph8.0 kmh 29.85 in1010.8 mb 0.00 in0.0 mm 0.00 in0.0 mm 0.00 in0.0 mm
08:52 AM 77.2°F25.1°C 64.5°F18.1°C 65% 1.3 mph S2.1 kmh S 5.0 mph8.0 kmh 29.85 in1010.8 mb 0.00 in0.0 mm 0.00 in0.0 mm 0.00 in0.0 mm
08:53 AM 77.2°F25.1°C 64.5°F18.1°C 65% 0.5 mph S0.8 kmh S 3.0 mph4.8 kmh 29.85 in1010.8 mb 0.00 in0.0 mm 0.00 in0.0 mm 0.00 in0.0 mm
08:54 AM 77.1°F25.1°C 64.4°F18.0°C 65% 0.9 mph S1.4 kmh S 2.0 mph3.2 kmh 29.86 in1011.2 mb 0.00 in0.0 mm 0.00 in0.0 mm 0.00 in0.0 mm
08:55 AM 77.2°F25.1°C 64.5°F18.1°C 65% 0.5 mph S0.8 kmh S 3.0 mph4.8 kmh 29.85 in1010.8 mb 0.00 in0.0 mm 0.00 in0.0 mm 0.00 in0.0 mm
08:56 AM 77.2°F25.1°C 64.5°F18.1°C 65% Calm Calm 3.0 mph4.8 kmh 29.85 in1010.8 mb 0.00 in0.0 mm 0.00 in0.0 mm 0.00 in0.0 mm
08:57 AM 77.3°F25.2°C 64.6°F18.1°C 65% 0.7 mph S1.1 kmh S 3.0 mph4.8 kmh 29.85 in1010.8 mb 0.00 in0.0 mm 0.00 in0.0 mm 0.00 in0.0 mm
08:58 AM 77.3°F25.2°C 64.6°F18.1°C 65% 1.0 mph S1.6 kmh S 3.0 mph4.8 kmh 29.85 in1010.8 mb 0.00 in0.0 mm 0.00 in0.0 mm 0.00 in0.0 mm
08:59 AM 77.4°F25.2°C 64.7°F18.2°C 65% Calm Calm 2.0 mph3.2 kmh 29.85 in1010.8 mb 0.00 in0.0 mm 0.00 in0.0 mm 0.00 in0.0 mm
09:00 AM 77.5°F25.3°C 64.8°F18.2°C 65% Calm Calm -- 29.85 in1010.8 mb 0.00 in0.0 mm 0.00 in0.0 mm 0.00 in0.0 mm
09:01 AM 77.6°F25.3°C 64.9°F18.3°C 65% Calm Calm -- 29.85 in1010.8 mb 0.00 in0.0 mm 0.00 in0.0 mm 0.00 in0.0 mm
09:02 AM 77.8°F25.4°C 65.1°F18.4°C 65% 0.2 mph S0.3 kmh S 1.0 mph1.6 kmh 29.85 in1010.8 mb 0.00 in0.0 mm 0.00 in0.0 mm 0.00 in0.0 mm
09:03 AM 78.0°F25.6°C 65.3°F18.5°C 65% 0.1 mph S0.2 kmh S 1.0 mph1.6 kmh 29.85 in1010.8 mb 0.00 in0.0 mm 0.00 in0.0 mm 0.00 in0.0 mm
09:04 AM 78.1°F25.6°C 64.9°F18.3°C 64% 0.2 mph S0.3 kmh S 1.0 mph1.6 kmh 29.85 in1010.8 mb 0.00 in0.0 mm 0.00 in0.0 mm 0.00 in0.0 mm
09:05 AM 78.3°F25.7°C 65.1°F18.4°C 64% 0.6 mph S1.0 kmh S 2.0 mph3.2 kmh 29.85 in1010.8 mb 0.00 in0.0 mm 0.00 in0.0 mm 0.00 in0.0 mm
09:06 AM 78.4°F25.8°C 65.2°F18.4°C 64% 0.9 mph S1.4 kmh S 3.0 mph4.8 kmh 29.85 in1010.8 mb 0.00 in0.0 mm 0.00 in0.0 mm 0.00 in0.0 mm
09:07 AM 78.4°F25.8°C 65.2°F18.4°C 64% 0.2 mph S0.3 kmh S 3.0 mph4.8 kmh 29.85 in1010.8 mb 0.00 in0.0 mm 0.00 in0.0 mm 0.00 in0.0 mm
09:08 AM 78.4°F25.8°C 65.2°F18.4°C 64% 1.3 mph S2.1 kmh S 3.0 mph4.8 kmh 29.85 in1010.8 mb 0.00 in0.0 mm 0.00 in0.0 mm 0.00 in0.0 mm
09:09 AM 78.4°F25.8°C 64.7°F18.2°C 63% 1.5 mph S2.4 kmh S 3.0 mph4.8 kmh 29.85 in1010.8 mb 0.00 in0.0 mm 0.00 in0.0 mm 0.00 in0.0 mm
09:10 AM 78.4°F25.8°C 64.7°F18.2°C 63% Calm Calm 3.0 mph4.8 kmh 29.85 in1010.8 mb 0.00 in0.0 mm 0.00 in0.0 mm 0.00 in0.0 mm
09:11 AM 78.4°F25.8°C 64.7°F18.2°C 63% 1.5 mph S2.4 kmh S 3.0 mph4.8 kmh 29.85 in1010.8 mb 0.00 in0.0 mm 0.00 in0.0 mm 0.00 in0.0 mm
09:12 AM 78.3°F25.7°C 64.6°F18.1°C 63% 2.6 mph S4.2 kmh S 5.0 mph8.0 kmh 29.85 in1010.8 mb 0.00 in0.0 mm 0.00 in0.0 mm 0.00 in0.0 mm
09:13 AM 78.2°F25.7°C 65.0°F18.3°C 64% 0.7 mph S1.1 kmh S 5.0 mph8.0 kmh 29.85 in1010.8 mb 0.00 in0.0 mm 0.00 in0.0 mm 0.00 in0.0 mm
09:14 AM 78.1°F25.6°C 64.9°F18.3°C 64% 4.2 mph S6.8 kmh S 6.0 mph9.7 kmh 29.85 in1010.8 mb 0.00 in0.0 mm 0.00 in0.0 mm 0.00 in0.0 mm
09:15 AM 78.0°F25.6°C 64.8°F18.2°C 64% 1.3 mph S2.1 kmh S 6.0 mph9.7 kmh 29.85 in1010.8 mb 0.00 in0.0 mm 0.00 in0.0 mm 0.00 in0.0 mm
09:16 AM 77.9°F25.5°C 64.7°F18.2°C 64% 2.6 mph S4.2 kmh S 4.0 mph6.4 kmh 29.85 in1010.8 mb 0.00 in0.0 mm 0.00 in0.0 mm 0.00 in0.0 mm
09:17 AM 77.8°F25.4°C 64.6°F18.1°C 64% 1.4 mph S2.3 kmh S 4.0 mph6.4 kmh 29.85 in1010.8 mb 0.00 in0.0 mm 0.00 in0.0 mm 0.00 in0.0 mm
09:18 AM 77.8°F25.4°C 64.6°F18.1°C 64% 1.0 mph S1.6 kmh S 3.0 mph4.8 kmh 29.85 in1010.8 mb 0.00 in0.0 mm 0.00 in0.0 mm 0.00 in0.0 mm
09:19 AM 77.7°F25.4°C 64.5°F18.1°C 64% 2.3 mph S3.7 kmh S 5.0 mph8.0 kmh 29.85 in1010.8 mb 0.00 in0.0 mm 0.00 in0.0 mm 0.00 in0.0 mm
09:20 AM 77.6°F25.3°C 64.9°F18.3°C 65% 1.5 mph S2.4 kmh S 5.0 mph8.0 kmh 29.85 in1010.8 mb 0.00 in0.0 mm 0.00 in0.0 mm 0.00 in0.0 mm
09:21 AM 77.6°F25.3°C 64.9°F18.3°C 65% 1.2 mph S1.9 kmh S 3.0 mph4.8 kmh 29.85 in1010.8 mb 0.00 in0.0 mm 0.00 in0.0 mm 0.00 in0.0 mm
09:22 AM 77.7°F25.4°C 65.0°F18.3°C 65% 0.3 mph S0.5 kmh S 3.0 mph4.8 kmh 29.85 in1010.8 mb 0.00 in0.0 mm 0.00 in0.0 mm 0.00 in0.0 mm
09:23 AM 77.9°F25.5°C 65.2°F18.4°C 65% 0.4 mph S0.6 kmh S 2.0 mph3.2 kmh 29.85 in1010.8 mb 0.00 in0.0 mm 0.00 in0.0 mm 0.00 in0.0 mm
09:24 AM 78.1°F25.6°C 65.4°F18.6°C 65% 0.6 mph S1.0 kmh S 2.0 mph3.2 kmh 29.85 in1010.8 mb 0.00 in0.0 mm 0.00 in0.0 mm 0.00 in0.0 mm
09:25 AM 78.3°F25.7°C 65.1°F18.4°C 64% 0.6 mph S1.0 kmh S 2.0 mph3.2 kmh 29.85 in1010.8 mb 0.00 in0.0 mm 0.00 in0.0 mm 0.00 in0.0 mm
09:26 AM 78.5°F25.8°C 65.3°F18.5°C 64% 2.2 mph S3.5 kmh S 4.0 mph6.4 kmh 29.85 in1010.8 mb 0.00 in0.0 mm 0.00 in0.0 mm 0.00 in0.0 mm
09:27 AM 78.7°F25.9°C 65.5°F18.6°C 64% 0.9 mph S1.4 kmh S 4.0 mph6.4 kmh 29.85 in1010.8 mb 0.00 in0.0 mm 0.00 in0.0 mm 0.00 in0.0 mm
09:28 AM 78.7°F25.9°C 65.5°F18.6°C 64% 0.1 mph S0.2 kmh S 2.0 mph3.2 kmh 29.85 in1010.8 mb 0.00 in0.0 mm 0.00 in0.0 mm 0.00 in0.0 mm
09:29 AM 78.7°F25.9°C 65.5°F18.6°C 64% 0.8 mph S1.3 kmh S 2.0 mph3.2 kmh 29.85 in1010.8 mb 0.00 in0.0 mm 0.00 in0.0 mm 0.00 in0.0 mm
09:30 AM 78.7°F25.9°C 65.5°F18.6°C 64% 0.6 mph S1.0 kmh S 2.0 mph3.2 kmh 29.85 in1010.8 mb 0.00 in0.0 mm 0.00 in0.0 mm 0.00 in0.0 mm
09:31 AM 78.8°F26.0°C 65.6°F18.7°C 64% 0.9 mph S1.4 kmh S 3.0 mph4.8 kmh 29.85 in1010.8 mb 0.00 in0.0 mm 0.00 in0.0 mm 0.00 in0.0 mm
09:32 AM 79.0°F26.1°C 65.3°F18.5°C 63% 0.5 mph S0.8 kmh S 3.0 mph4.8 kmh 29.85 in1010.8 mb 0.00 in0.0 mm 0.00 in0.0 mm 0.00 in0.0 mm
09:33 AM 79.1°F26.2°C 65.4°F18.6°C 63% Calm Calm 2.0 mph3.2 kmh 29.85 in1010.8 mb 0.00 in0.0 mm 0.00 in0.0 mm 0.00 in0.0 mm
09:34 AM 79.1°F26.2°C 65.4°F18.6°C 63% 2.3 mph S3.7 kmh S 4.0 mph6.4 kmh 29.85 in1010.8 mb 0.00 in0.0 mm 0.00 in0.0 mm 0.00 in0.0 mm
09:35 AM 79.1°F26.2°C 65.4°F18.6°C 63% 0.8 mph S1.3 kmh S 4.0 mph6.4 kmh 29.85 in1010.8 mb 0.00 in0.0 mm 0.00 in0.0 mm 0.00 in0.0 mm
09:36 AM 79.1°F26.2°C 65.4°F18.6°C 63% Calm Calm 2.0 mph3.2 kmh 29.85 in1010.8 mb 0.00 in0.0 mm 0.00 in0.0 mm 0.00 in0.0 mm
09:37 AM 79.1°F26.2°C 65.4°F18.6°C 63% Calm Calm 1.0 mph1.6 kmh 29.85 in1010.8 mb 0.00 in0.0 mm 0.00 in0.0 mm 0.00 in0.0 mm
09:38 AM 79.1°F26.2°C 65.4°F18.6°C 63% 2.3 mph S3.7 kmh S 5.0 mph8.0 kmh 29.85 in1010.8 mb 0.00 in0.0 mm 0.00 in0.0 mm 0.00 in0.0 mm
09:39 AM 79.1°F26.2°C 65.4°F18.6°C 63% 0.1 mph S0.2 kmh S 5.0 mph8.0 kmh 29.85 in1010.8 mb 0.00 in0.0 mm 0.00 in0.0 mm 0.00 in0.0 mm
09:40 AM 79.2°F26.2°C 65.5°F18.6°C 63% 0.6 mph S1.0 kmh S 3.0 mph4.8 kmh 29.85 in1010.8 mb 0.00 in0.0 mm 0.00 in0.0 mm 0.00 in0.0 mm
09:41 AM 79.2°F26.2°C 65.5°F18.6°C 63% 0.4 mph S0.6 kmh S 3.0 mph4.8 kmh 29.85 in1010.8 mb 0.00 in0.0 mm 0.00 in0.0 mm 0.00 in0.0 mm
09:42 AM 79.2°F26.2°C 65.5°F18.6°C 63% 1.9 mph S3.1 kmh S 4.0 mph6.4 kmh 29.85 in1010.8 mb 0.00 in0.0 mm 0.00 in0.0 mm 0.00 in0.0 mm
09:43 AM 79.2°F26.2°C 65.5°F18.6°C 63% 1.9 mph S3.1 kmh S 4.0 mph6.4 kmh 29.85 in1010.8 mb 0.00 in0.0 mm 0.00 in0.0 mm 0.00 in0.0 mm
09:44 AM 79.2°F26.2°C 65.5°F18.6°C 63% 0.3 mph S0.5 kmh S 4.0 mph6.4 kmh 29.85 in1010.8 mb 0.00 in0.0 mm 0.00 in0.0 mm 0.00 in0.0 mm
09:45 AM 79.3°F26.3°C 65.6°F18.7°C 63% 0.3 mph S0.5 kmh S 2.0 mph3.2 kmh 29.85 in1010.8 mb 0.00 in0.0 mm 0.00 in0.0 mm 0.00 in0.0 mm
09:46 AM 79.3°F26.3°C 65.6°F18.7°C 63% Calm Calm 2.0 mph3.2 kmh 29.85 in1010.8 mb 0.00 in0.0 mm 0.00 in0.0 mm 0.00 in0.0 mm
09:47 AM 79.4°F26.3°C 65.7°F18.7°C 63% Calm Calm -- 29.85 in1010.8 mb 0.00 in0.0 mm 0.00 in0.0 mm 0.00 in0.0 mm
09:48 AM 79.4°F26.3°C 65.7°F18.7°C 63% Calm Calm -- 29.85 in1010.8 mb 0.00 in0.0 mm 0.00 in0.0 mm 0.00 in0.0 mm
09:49 AM 79.5°F26.4°C 65.8°F18.8°C 63% Calm Calm -- 29.85 in1010.8 mb 0.00 in0.0 mm 0.00 in0.0 mm 0.00 in0.0 mm
09:50 AM 79.6°F26.4°C 65.9°F18.8°C 63% 1.7 mph S2.7 kmh S 3.0 mph4.8 kmh 29.85 in1010.8 mb 0.00 in0.0 mm 0.00 in0.0 mm 0.00 in0.0 mm
09:51 AM 79.7°F26.5°C 66.0°F18.9°C 63% 1.3 mph S2.1 kmh S 4.0 mph6.4 kmh 29.85 in1010.8 mb 0.00 in0.0 mm 0.00 in0.0 mm 0.00 in0.0 mm
09:52 AM 79.8°F26.6°C 66.1°F18.9°C 63% 0.1 mph S0.2 kmh S 4.0 mph6.4 kmh 29.85 in1010.8 mb 0.00 in0.0 mm 0.00 in0.0 mm 0.00 in0.0 mm
09:53 AM 79.9°F26.6°C 66.2°F19.0°C 63% Calm Calm 2.0 mph3.2 kmh 29.85 in1010.8 mb 0.00 in0.0 mm 0.00 in0.0 mm 0.00 in0.0 mm
09:54 AM 80.0°F26.7°C 66.2°F19.0°C 63% 1.6 mph S2.6 kmh S 5.0 mph8.0 kmh 29.85 in1010.8 mb 0.00 in0.0 mm 0.00 in0.0 mm 0.00 in0.0 mm
09:55 AM 80.1°F26.7°C 65.9°F18.8°C 62% Calm Calm 5.0 mph8.0 kmh 29.85 in1010.8 mb 0.00 in0.0 mm 0.00 in0.0 mm 0.00 in0.0 mm
09:56 AM 80.3°F26.8°C 66.1°F18.9°C 62% Calm Calm 1.0 mph1.6 kmh 29.85 in1010.8 mb 0.00 in0.0 mm 0.00 in0.0 mm 0.00 in0.0 mm
09:57 AM 80.5°F26.9°C 66.3°F19.1°C 62% 0.6 mph S1.0 kmh S 3.0 mph4.8 kmh 29.85 in1010.8 mb 0.00 in0.0 mm 0.00 in0.0 mm 0.00 in0.0 mm
09:58 AM 80.6°F27.0°C 66.4°F19.1°C 62% 1.0 mph S1.6 kmh S 3.0 mph4.8 kmh 29.85 in1010.8 mb 0.00 in0.0 mm 0.00 in0.0 mm 0.00 in0.0 mm
09:59 AM 80.7°F27.1°C 66.0°F18.9°C 61% 0.9 mph S1.4 kmh S 5.0 mph8.0 kmh 29.85 in1010.8 mb 0.00 in0.0 mm 0.00 in0.0 mm 0.00 in0.0 mm
10:00 AM 80.7°F27.1°C 66.4°F19.1°C 62% 0.3 mph S0.5 kmh S 5.0 mph8.0 kmh 29.85 in1010.8 mb 0.00 in0.0 mm 0.00 in0.0 mm 0.00 in0.0 mm
10:01 AM 80.8°F27.1°C 66.5°F19.2°C 62% 1.9 mph S3.1 kmh S 4.0 mph6.4 kmh 29.85 in1010.8 mb 0.00 in0.0 mm 0.00 in0.0 mm 0.00 in0.0 mm
10:02 AM 80.9°F27.2°C 66.6°F19.2°C 62% 0.4 mph S0.6 kmh S 4.0 mph6.4 kmh 29.85 in1010.8 mb 0.00 in0.0 mm 0.00 in0.0 mm 0.00 in0.0 mm
10:03 AM 80.9°F27.2°C 66.2°F19.0°C 61% 1.0 mph S1.6 kmh S 3.0 mph4.8 kmh 29.84 in1010.5 mb 0.00 in0.0 mm 0.00 in0.0 mm 0.00 in0.0 mm
10:04 AM 81.0°F27.2°C 66.3°F19.1°C 61% Calm Calm 3.0 mph4.8 kmh 29.85 in1010.8 mb 0.00 in0.0 mm 0.00 in0.0 mm 0.00 in0.0 mm
10:05 AM 81.1°F27.3°C 66.4°F19.1°C 61% Calm Calm -- 29.85 in1010.8 mb 0.00 in0.0 mm 0.00 in0.0 mm 0.00 in0.0 mm
10:06 AM 81.3°F27.4°C 67.0°F19.4°C 62% 0.1 mph S0.2 kmh S 1.0 mph1.6 kmh 29.85 in1010.8 mb 0.00 in0.0 mm 0.00 in0.0 mm 0.00 in0.0 mm
10:07 AM 81.5°F27.5°C 67.2°F19.6°C 62% 0.4 mph S0.6 kmh S 3.0 mph4.8 kmh 29.84 in1010.5 mb 0.00 in0.0 mm 0.00 in0.0 mm 0.00 in0.0 mm
10:08 AM 81.6°F27.6°C 66.8°F19.3°C 61% 2.5 mph SSW4.0 kmh SSW 4.0 mph6.4 kmh 29.85 in1010.8 mb 0.00 in0.0 mm 0.00 in0.0 mm 0.00 in0.0 mm
10:09 AM 81.6°F27.6°C 66.3°F19.1°C 60% 2.4 mph SSW3.9 kmh SSW 5.0 mph8.0 kmh 29.85 in1010.8 mb 0.00 in0.0 mm 0.00 in0.0 mm 0.00 in0.0 mm
10:10 AM 81.5°F27.5°C 66.7°F19.3°C 61% 1.3 mph SSW2.1 kmh SSW 5.0 mph8.0 kmh 29.84 in1010.5 mb 0.00 in0.0 mm 0.00 in0.0 mm 0.00 in0.0 mm
10:11 AM 81.5°F27.5°C 66.7°F19.3°C 61% Calm Calm 3.0 mph4.8 kmh 29.85 in1010.8 mb 0.00 in0.0 mm 0.00 in0.0 mm 0.00 in0.0 mm
10:12 AM 81.5°F27.5°C 66.7°F19.3°C 61% 0.2 mph SSW0.3 kmh SSW 1.0 mph1.6 kmh 29.85 in1010.8 mb 0.00 in0.0 mm 0.00 in0.0 mm 0.00 in0.0 mm
10:13 AM 81.6°F27.6°C 66.8°F19.3°C 61% 0.7 mph SSW1.1 kmh SSW 2.0 mph3.2 kmh 29.84 in1010.5 mb 0.00 in0.0 mm 0.00 in0.0 mm 0.00 in0.0 mm
10:14 AM 81.6°F27.6°C 66.8°F19.3°C 61% Calm Calm 2.0 mph3.2 kmh 29.85 in1010.8 mb 0.00 in0.0 mm 0.00 in0.0 mm 0.00 in0.0 mm
10:15 AM 81.7°F27.6°C 66.9°F19.4°C 61% 0.7 mph SSW1.1 kmh SSW 2.0 mph3.2 kmh 29.84 in1010.5 mb 0.00 in0.0 mm 0.00 in0.0 mm 0.00 in0.0 mm
10:16 AM 81.7°F27.6°C 66.9°F19.4°C 61% 1.2 mph SSW1.9 kmh SSW 3.0 mph4.8 kmh 29.85 in1010.8 mb 0.00 in0.0 mm 0.00 in0.0 mm 0.00 in0.0 mm
10:17 AM 81.8°F27.7°C 67.0°F19.4°C 61% Calm Calm 3.0 mph4.8 kmh 29.85 in1010.8 mb 0.00 in0.0 mm 0.00 in0.0 mm 0.00 in0.0 mm
10:18 AM 81.9°F27.7°C 67.1°F19.5°C 61% Calm Calm -- 29.85 in1010.8 mb 0.00 in0.0 mm 0.00 in0.0 mm 0.00 in0.0 mm
10:19 AM 82.0°F27.8°C 66.7°F19.3°C 60% 0.3 mph SSW0.5 kmh SSW 2.0 mph3.2 kmh 29.85 in1010.8 mb 0.00 in0.0 mm 0.00 in0.0 mm 0.00 in0.0 mm
10:20 AM 82.1°F27.8°C 66.8°F19.3°C 60% 0.4 mph SSW0.6 kmh SSW 2.0 mph3.2 kmh 29.85 in1010.8 mb 0.00 in0.0 mm 0.00 in0.0 mm 0.00 in0.0 mm
10:21 AM 82.1°F27.8°C 66.8°F19.3°C 60% 1.3 mph SSW2.1 kmh SSW 4.0 mph6.4 kmh 29.85 in1010.8 mb 0.00 in0.0 mm 0.00 in0.0 mm 0.00 in0.0 mm
10:22 AM 82.1°F27.8°C 66.8°F19.3°C 60% 0.5 mph SSW0.8 kmh SSW 4.0 mph6.4 kmh 29.85 in1010.8 mb 0.00 in0.0 mm 0.00 in0.0 mm 0.00 in0.0 mm
10:23 AM 82.1°F27.8°C 66.8°F19.3°C 60% 0.7 mph SSW1.1 kmh SSW 2.0 mph3.2 kmh 29.85 in1010.8 mb 0.00 in0.0 mm 0.00 in0.0 mm 0.00 in0.0 mm
10:24 AM 82.0°F27.8°C 66.7°F19.3°C 60% 0.2 mph SSW0.3 kmh SSW 2.0 mph3.2 kmh 29.85 in1010.8 mb 0.00 in0.0 mm 0.00 in0.0 mm 0.00 in0.0 mm
10:25 AM 82.1°F27.8°C 66.8°F19.3°C 60% 0.1 mph SSW0.2 kmh SSW 1.0 mph1.6 kmh 29.85 in1010.8 mb 0.00 in0.0 mm 0.00 in0.0 mm 0.00 in0.0 mm
10:26 AM 82.3°F27.9°C 67.0°F19.4°C 60% 0.4 mph SSW0.6 kmh SSW 2.0 mph3.2 kmh 29.85 in1010.8 mb 0.00 in0.0 mm 0.00 in0.0 mm 0.00 in0.0 mm
10:27 AM 82.4°F28.0°C 67.1°F19.5°C 60% 1.2 mph SSW1.9 kmh SSW 5.0 mph8.0 kmh 29.85 in1010.8 mb 0.00 in0.0 mm 0.00 in0.0 mm 0.00 in0.0 mm
10:28 AM 82.5°F28.1°C 67.2°F19.6°C 60% 0.8 mph SSW1.3 kmh SSW 5.0 mph8.0 kmh 29.85 in1010.8 mb 0.00 in0.0 mm 0.00 in0.0 mm 0.00 in0.0 mm
10:29 AM 82.5°F28.1°C 66.7°F19.3°C 59% 1.3 mph SSW2.1 kmh SSW 2.0 mph3.2 kmh 29.84 in1010.5 mb 0.00 in0.0 mm 0.00 in0.0 mm 0.00 in0.0 mm
10:30 AM 82.6°F28.1°C 67.3°F19.6°C 60% 1.2 mph SSW1.9 kmh SSW 4.0 mph6.4 kmh 29.85 in1010.8 mb 0.00 in0.0 mm 0.00 in0.0 mm 0.00 in0.0 mm
10:31 AM 82.7°F28.2°C 66.9°F19.4°C 59% 0.7 mph SSW1.1 kmh SSW 4.0 mph6.4 kmh 29.85 in1010.8 mb 0.00 in0.0 mm 0.00 in0.0 mm 0.00 in0.0 mm
10:32 AM 82.7°F28.2°C 66.9°F19.4°C 59% 2.2 mph SSW3.5 kmh SSW 4.0 mph6.4 kmh 29.85 in1010.8 mb 0.00 in0.0 mm 0.00 in0.0 mm 0.00 in0.0 mm
10:33 AM 82.8°F28.2°C 67.0°F19.4°C 59% 2.4 mph SSW3.9 kmh SSW 5.0 mph8.0 kmh 29.84 in1010.5 mb 0.00 in0.0 mm 0.00 in0.0 mm 0.00 in0.0 mm
10:34 AM 82.8°F28.2°C 67.0°F19.4°C 59% 1.1 mph SSW1.8 kmh SSW 5.0 mph8.0 kmh 29.85 in1010.8 mb 0.00 in0.0 mm 0.00 in0.0 mm 0.00 in0.0 mm
10:35 AM 82.9°F28.3°C 67.1°F19.5°C 59% 1.6 mph SSW2.6 kmh SSW 4.0 mph6.4 kmh 29.85 in1010.8 mb 0.00 in0.0 mm 0.00 in0.0 mm 0.00 in0.0 mm
10:36 AM 83.0°F28.3°C 67.2°F19.6°C 59% 2.6 mph SSW4.2 kmh SSW 5.0 mph8.0 kmh 29.84 in1010.5 mb 0.00 in0.0 mm 0.00 in0.0 mm 0.00 in0.0 mm
10:37 AM 83.2°F28.4°C 67.4°F19.7°C 59% 1.2 mph SSW1.9 kmh SSW 5.0 mph8.0 kmh 29.84 in1010.5 mb 0.00 in0.0 mm 0.00 in0.0 mm 0.00 in0.0 mm
10:38 AM 83.4°F28.6°C 67.5°F19.7°C 59% 0.8 mph SSW1.3 kmh SSW 3.0 mph4.8 kmh 29.84 in1010.5 mb 0.00 in0.0 mm 0.00 in0.0 mm 0.00 in0.0 mm
10:39 AM 83.6°F28.7°C 67.2°F19.6°C 58% 0.4 mph SSW0.6 kmh SSW 3.0 mph4.8 kmh 29.85 in1010.8 mb 0.00 in0.0 mm 0.00 in0.0 mm 0.00 in0.0 mm
10:40 AM 83.7°F28.7°C 67.3°F19.6°C 58% 0.9 mph SSW1.4 kmh SSW 2.0 mph3.2 kmh 29.84 in1010.5 mb 0.00 in0.0 mm 0.00 in0.0 mm 0.00 in0.0 mm
10:41 AM 83.8°F28.8°C 67.4°F19.7°C 58% 2.6 mph S4.2 kmh S 7.0 mph11.3 kmh 29.84 in1010.5 mb 0.00 in0.0 mm 0.00 in0.0 mm 0.00 in0.0 mm
10:42 AM 83.9°F28.8°C 67.5°F19.7°C 58% 0.6 mph S1.0 kmh S 7.0 mph11.3 kmh 29.84 in1010.5 mb 0.00 in0.0 mm 0.00 in0.0 mm 0.00 in0.0 mm
10:43 AM 83.9°F28.8°C 67.5°F19.7°C 58% 0.1 mph S0.2 kmh S 3.0 mph4.8 kmh 29.85 in1010.8 mb 0.00 in0.0 mm 0.00 in0.0 mm 0.00 in0.0 mm
10:44 AM 83.9°F28.8°C 67.0°F19.4°C 57% 3.1 mph S5.0 kmh S 6.0 mph9.7 kmh 29.85 in1010.8 mb 0.00 in0.0 mm 0.00 in0.0 mm 0.00 in0.0 mm
10:45 AM 83.8°F28.8°C 66.9°F19.4°C 57% 2.7 mph S4.3 kmh S 6.0 mph9.7 kmh 29.84 in1010.5 mb 0.00 in0.0 mm 0.00 in0.0 mm 0.00 in0.0 mm
10:46 AM 83.7°F28.7°C 66.8°F19.3°C 57% 3.0 mph SSW4.8 kmh SSW 4.0 mph6.4 kmh 29.84 in1010.5 mb 0.00 in0.0 mm 0.00 in0.0 mm 0.00 in0.0 mm
10:47 AM 83.6°F28.7°C 67.2°F19.6°C 58% 0.8 mph SSW1.3 kmh SSW 4.0 mph6.4 kmh 29.84 in1010.5 mb 0.00 in0.0 mm 0.00 in0.0 mm 0.00 in0.0 mm
10:48 AM 83.6°F28.7°C 67.7°F19.8°C 59% 0.7 mph SSW1.1 kmh SSW 2.0 mph3.2 kmh 29.84 in1010.5 mb 0.00 in0.0 mm 0.00 in0.0 mm 0.00 in0.0 mm
10:49 AM 83.6°F28.7°C 67.2°F19.6°C 58% 1.1 mph SSW1.8 kmh SSW 3.0 mph4.8 kmh 29.84 in1010.5 mb 0.00 in0.0 mm 0.00 in0.0 mm 0.00 in0.0 mm
10:50 AM 83.6°F28.7°C 66.7°F19.3°C 57% 2.0 mph SSW3.2 kmh SSW 5.0 mph8.0 kmh 29.84 in1010.5 mb 0.00 in0.0 mm 0.00 in0.0 mm 0.00 in0.0 mm
10:51 AM 83.6°F28.7°C 66.7°F19.3°C 57% 0.4 mph SSW0.6 kmh SSW 5.0 mph8.0 kmh 29.84 in1010.5 mb 0.00 in0.0 mm 0.00 in0.0 mm 0.00 in0.0 mm
10:52 AM 83.4°F28.6°C 66.5°F19.2°C 57% 0.7 mph SSW1.1 kmh SSW 2.0 mph3.2 kmh 29.84 in1010.5 mb 0.00 in0.0 mm 0.00 in0.0 mm 0.00 in0.0 mm
10:53 AM 83.3°F28.5°C 67.0°F19.4°C 58% 0.7 mph SSW1.1 kmh SSW 2.0 mph3.2 kmh 29.84 in1010.5 mb 0.00 in0.0 mm 0.00 in0.0 mm 0.00 in0.0 mm
10:54 AM 83.3°F28.5°C 67.0°F19.4°C 58% 0.5 mph SSW0.8 kmh SSW 2.0 mph3.2 kmh 29.84 in1010.5 mb 0.00 in0.0 mm 0.00 in0.0 mm 0.00 in0.0 mm
10:55 AM 83.4°F28.6°C 67.0°F19.4°C 58% 0.7 mph SSW1.1 kmh SSW 3.0 mph4.8 kmh 29.84 in1010.5 mb 0.00 in0.0 mm 0.00 in0.0 mm 0.00 in0.0 mm
10:56 AM 83.5°F28.6°C 67.6°F19.8°C 59% 0.2 mph SSW0.3 kmh SSW 3.0 mph4.8 kmh 29.84 in1010.5 mb 0.00 in0.0 mm 0.00 in0.0 mm 0.00 in0.0 mm
10:57 AM 83.6°F28.7°C 67.2°F19.6°C 58% 1.2 mph SSW1.9 kmh SSW 4.0 mph6.4 kmh 29.84 in1010.5 mb 0.00 in0.0 mm 0.00 in0.0 mm 0.00 in0.0 mm
10:58 AM 83.7°F28.7°C 67.3°F19.6°C 58% 1.2 mph SSW1.9 kmh SSW 4.0 mph6.4 kmh 29.84 in1010.5 mb 0.00 in0.0 mm 0.00 in0.0 mm 0.00 in0.0 mm
10:59 AM 83.8°F28.8°C 67.4°F19.7°C 58% 1.9 mph SSW3.1 kmh SSW 4.0 mph6.4 kmh 29.84 in1010.5 mb 0.00 in0.0 mm 0.00 in0.0 mm 0.00 in0.0 mm
11:00 AM 83.9°F28.8°C 67.5°F19.7°C 58% 1.7 mph SSW2.7 kmh SSW 6.0 mph9.7 kmh 29.84 in1010.5 mb 0.00 in0.0 mm 0.00 in0.0 mm 0.00 in0.0 mm
11:01 AM 84.0°F28.9°C 67.6°F19.8°C 58% 0.7 mph SSW1.1 kmh SSW 6.0 mph9.7 kmh 29.84 in1010.5 mb 0.00 in0.0 mm 0.00 in0.0 mm 0.00 in0.0 mm
11:02 AM 84.1°F28.9°C 67.7°F19.8°C 58% 1.1 mph SSW1.8 kmh SSW 5.0 mph8.0 kmh 29.84 in1010.5 mb 0.00 in0.0 mm 0.00 in0.0 mm 0.00 in0.0 mm
11:03 AM 84.1°F28.9°C 67.2°F19.6°C 57% 3.5 mph SSW5.6 kmh SSW 5.0 mph8.0 kmh 29.84 in1010.5 mb 0.00 in0.0 mm 0.00 in0.0 mm 0.00 in0.0 mm
11:04 AM 84.0°F28.9°C 67.1°F19.5°C 57% 1.1 mph SSW1.8 kmh SSW 5.0 mph8.0 kmh 29.84 in1010.5 mb 0.00 in0.0 mm 0.00 in0.0 mm 0.00 in0.0 mm
11:05 AM 84.0°F28.9°C 67.1°F19.5°C 57% 4.1 mph SSW6.6 kmh SSW 6.0 mph9.7 kmh 29.84 in1010.5 mb 0.00 in0.0 mm 0.00 in0.0 mm 0.00 in0.0 mm
11:06 AM 83.8°F28.8°C 66.9°F19.4°C 57% 2.5 mph SW4.0 kmh SW 6.0 mph9.7 kmh 29.84 in1010.5 mb 0.00 in0.0 mm 0.00 in0.0 mm 0.00 in0.0 mm
11:07 AM 83.7°F28.7°C 66.8°F19.3°C 57% 2.0 mph SW3.2 kmh SW 4.0 mph6.4 kmh 29.83 in1010.2 mb 0.00 in0.0 mm 0.00 in0.0 mm 0.00 in0.0 mm
11:08 AM 83.6°F28.7°C 66.7°F19.3°C 57% 2.6 mph SW4.2 kmh SW 4.0 mph6.4 kmh 29.84 in1010.5 mb 0.00 in0.0 mm 0.00 in0.0 mm 0.00 in0.0 mm
11:09 AM 83.6°F28.7°C 66.7°F19.3°C 57% 1.9 mph SW3.1 kmh SW 4.0 mph6.4 kmh 29.83 in1010.2 mb 0.00 in0.0 mm 0.00 in0.0 mm 0.00 in0.0 mm
11:10 AM 83.6°F28.7°C 67.2°F19.6°C 58% 0.4 mph SW0.6 kmh SW 4.0 mph6.4 kmh 29.83 in1010.2 mb 0.00 in0.0 mm 0.00 in0.0 mm 0.00 in0.0 mm
11:11 AM 83.6°F28.7°C 67.2°F19.6°C 58% 0.2 mph SW0.3 kmh SW 3.0 mph4.8 kmh 29.83 in1010.2 mb 0.00 in0.0 mm 0.00 in0.0 mm 0.00 in0.0 mm
11:12 AM 83.7°F28.7°C 66.8°F19.3°C 57% 0.6 mph SW1.0 kmh SW 3.0 mph4.8 kmh 29.84 in1010.5 mb 0.00 in0.0 mm 0.00 in0.0 mm 0.00 in0.0 mm
11:13 AM 83.8°F28.8°C 66.9°F19.4°C 57% 0.4 mph SW0.6 kmh SW 3.0 mph4.8 kmh 29.83 in1010.2 mb 0.00 in0.0 mm 0.00 in0.0 mm 0.00 in0.0 mm
11:14 AM 83.9°F28.8°C 67.5°F19.7°C 58% 1.1 mph SW1.8 kmh SW 4.0 mph6.4 kmh 29.84 in1010.5 mb 0.00 in0.0 mm 0.00 in0.0 mm 0.00 in0.0 mm
11:15 AM 84.0°F28.9°C 67.6°F19.8°C 58% 1.3 mph SW2.1 kmh SW 4.0 mph6.4 kmh 29.84 in1010.5 mb 0.00 in0.0 mm 0.00 in0.0 mm 0.00 in0.0 mm
11:16 AM 84.1°F28.9°C 67.2°F19.6°C 57% 0.5 mph SW0.8 kmh SW 4.0 mph6.4 kmh 29.84 in1010.5 mb 0.00 in0.0 mm 0.00 in0.0 mm 0.00 in0.0 mm
11:17 AM 84.1°F28.9°C 67.2°F19.6°C 57% 2.4 mph SW3.9 kmh SW 5.0 mph8.0 kmh 29.83 in1010.2 mb 0.00 in0.0 mm 0.00 in0.0 mm 0.00 in0.0 mm
11:18 AM 84.1°F28.9°C 67.2°F19.6°C 57% 1.5 mph SW2.4 kmh SW 5.0 mph8.0 kmh 29.83 in1010.2 mb 0.00 in0.0 mm 0.00 in0.0 mm 0.00 in0.0 mm
11:19 AM 84.1°F28.9°C 66.7°F19.3°C 56% 1.5 mph SW2.4 kmh SW 3.0 mph4.8 kmh 29.83 in1010.2 mb 0.00 in0.0 mm 0.00 in0.0 mm 0.00 in0.0 mm
11:20 AM 84.1°F28.9°C 67.2°F19.6°C 57% Calm Calm 3.0 mph4.8 kmh 29.83 in1010.2 mb 0.00 in0.0 mm 0.00 in0.0 mm 0.00 in0.0 mm
11:21 AM 84.2°F29.0°C 67.3°F19.6°C 57% 0.4 mph SW0.6 kmh SW 2.0 mph3.2 kmh 29.83 in1010.2 mb 0.00 in0.0 mm 0.00 in0.0 mm 0.00 in0.0 mm
11:22 AM 84.3°F29.1°C 67.4°F19.7°C 57% 0.5 mph SW0.8 kmh SW 2.0 mph3.2 kmh 29.83 in1010.2 mb 0.00 in0.0 mm 0.00 in0.0 mm 0.00 in0.0 mm
11:23 AM 84.5°F29.2°C 67.6°F19.8°C 57% 1.1 mph SW1.8 kmh SW 4.0 mph6.4 kmh 29.83 in1010.2 mb 0.00 in0.0 mm 0.00 in0.0 mm 0.00 in0.0 mm
11:24 AM 84.7°F29.3°C 67.8°F19.9°C 57% 1.3 mph SW2.1 kmh SW 5.0 mph8.0 kmh 29.83 in1010.2 mb 0.00 in0.0 mm 0.00 in0.0 mm 0.00 in0.0 mm
11:25 AM 84.9°F29.4°C 67.4°F19.7°C 56% 1.6 mph SW2.6 kmh SW 5.0 mph8.0 kmh 29.83 in1010.2 mb 0.00 in0.0 mm 0.00 in0.0 mm 0.00 in0.0 mm
11:26 AM 85.1°F29.5°C 67.6°F19.8°C 56% Calm Calm 4.0 mph6.4 kmh 29.83 in1010.2 mb 0.00 in0.0 mm 0.00 in0.0 mm 0.00 in0.0 mm
11:27 AM 85.4°F29.7°C 67.4°F19.7°C 55% Calm Calm -- 29.83 in1010.2 mb 0.00 in0.0 mm 0.00 in0.0 mm 0.00 in0.0 mm
11:28 AM 85.5°F29.7°C 67.5°F19.7°C 55% 0.4 mph SW0.6 kmh SW 2.0 mph3.2 kmh 29.83 in1010.2 mb 0.00 in0.0 mm 0.00 in0.0 mm 0.00 in0.0 mm
11:29 AM 85.7°F29.8°C 67.6°F19.8°C 55% Calm Calm 2.0 mph3.2 kmh 29.83 in1010.2 mb 0.00 in0.0 mm 0.00 in0.0 mm 0.00 in0.0 mm
11:30 AM 85.8°F29.9°C 67.7°F19.8°C 55% Calm Calm -- 29.83 in1010.2 mb 0.00 in0.0 mm 0.00 in0.0 mm 0.00 in0.0 mm
11:31 AM 86.0°F30.0°C 67.4°F19.7°C 54% Calm Calm -- 29.82 in1009.8 mb 0.00 in0.0 mm 0.00 in0.0 mm 0.00 in0.0 mm
11:32 AM 86.1°F30.1°C 67.5°F19.7°C 54% 2.0 mph SW3.2 kmh SW 5.0 mph8.0 kmh 29.82 in1009.8 mb 0.00 in0.0 mm 0.00 in0.0 mm 0.00 in0.0 mm
11:33 AM 86.1°F30.1°C 67.5°F19.7°C 54% 4.5 mph SW7.2 kmh SW 8.0 mph12.9 kmh 29.82 in1009.8 mb 0.00 in0.0 mm 0.00 in0.0 mm 0.00 in0.0 mm
11:34 AM 86.1°F30.1°C 67.5°F19.7°C 54% 1.1 mph SW1.8 kmh SW 8.0 mph12.9 kmh 29.82 in1009.8 mb 0.00 in0.0 mm 0.00 in0.0 mm 0.00 in0.0 mm
11:35 AM 86.0°F30.0°C 67.4°F19.7°C 54% 1.7 mph SW2.7 kmh SW 4.0 mph6.4 kmh 29.82 in1009.8 mb 0.00 in0.0 mm 0.00 in0.0 mm 0.00 in0.0 mm
11:36 AM 85.8°F29.9°C 67.2°F19.6°C 54% 2.8 mph SW4.5 kmh SW 5.0 mph8.0 kmh 29.82 in1009.8 mb 0.00 in0.0 mm 0.00 in0.0 mm 0.00 in0.0 mm
11:37 AM 85.6°F29.8°C 67.0°F19.4°C 54% 1.9 mph SW3.1 kmh SW 5.0 mph8.0 kmh 29.82 in1009.8 mb 0.00 in0.0 mm 0.00 in0.0 mm 0.00 in0.0 mm
11:38 AM 85.5°F29.7°C 66.9°F19.4°C 54% 1.1 mph SW1.8 kmh SW 3.0 mph4.8 kmh 29.82 in1009.8 mb 0.00 in0.0 mm 0.00 in0.0 mm 0.00 in0.0 mm
11:39 AM 85.4°F29.7°C 66.8°F19.3°C 54% Calm Calm 2.0 mph3.2 kmh 29.82 in1009.8 mb 0.00 in0.0 mm 0.00 in0.0 mm 0.00 in0.0 mm
11:40 AM 85.4°F29.7°C 66.8°F19.3°C 54% 0.9 mph SW1.4 kmh SW 4.0 mph6.4 kmh 29.82 in1009.8 mb 0.00 in0.0 mm 0.00 in0.0 mm 0.00 in0.0 mm
11:41 AM 85.5°F29.7°C 67.5°F19.7°C 55% 0.7 mph SW1.1 kmh SW 4.0 mph6.4 kmh 29.82 in1009.8 mb 0.00 in0.0 mm 0.00 in0.0 mm 0.00 in0.0 mm
11:42 AM 85.6°F29.8°C 67.5°F19.7°C 55% Calm Calm 3.0 mph4.8 kmh 29.82 in1009.8 mb 0.00 in0.0 mm 0.00 in0.0 mm 0.00 in0.0 mm
11:43 AM 85.8°F29.9°C 67.2°F19.6°C 54% 2.0 mph SSW3.2 kmh SSW 7.0 mph11.3 kmh 29.82 in1009.8 mb 0.00 in0.0 mm 0.00 in0.0 mm 0.00 in0.0 mm
11:44 AM 86.0°F30.0°C 67.4°F19.7°C 54% 0.3 mph SSW0.5 kmh SSW 7.0 mph11.3 kmh 29.82 in1009.8 mb 0.00 in0.0 mm 0.00 in0.0 mm 0.00 in0.0 mm
11:45 AM 86.2°F30.1°C 67.0°F19.4°C 53% 2.6 mph S4.2 kmh S 7.0 mph11.3 kmh 29.82 in1009.8 mb 0.00 in0.0 mm 0.00 in0.0 mm 0.00 in0.0 mm
11:46 AM 86.3°F30.2°C 67.1°F19.5°C 53% 2.6 mph S4.2 kmh S 7.0 mph11.3 kmh 29.82 in1009.8 mb 0.00 in0.0 mm 0.00 in0.0 mm 0.00 in0.0 mm
11:47 AM 86.5°F30.3°C 67.3°F19.6°C 53% 1.6 mph S2.6 kmh S 6.0 mph9.7 kmh 29.82 in1009.8 mb 0.00 in0.0 mm 0.00 in0.0 mm 0.00 in0.0 mm
11:48 AM 86.6°F30.3°C 67.4°F19.7°C 53% 0.5 mph S0.8 kmh S 5.0 mph8.0 kmh 29.82 in1009.8 mb 0.00 in0.0 mm 0.00 in0.0 mm 0.00 in0.0 mm
11:49 AM 86.7°F30.4°C 66.9°F19.4°C 52% 1.5 mph S2.4 kmh S 4.0 mph6.4 kmh 29.82 in1009.8 mb 0.00 in0.0 mm 0.00 in0.0 mm 0.00 in0.0 mm
11:50 AM 86.7°F30.4°C 66.9°F19.4°C 52% 1.4 mph S2.3 kmh S 4.0 mph6.4 kmh 29.82 in1009.8 mb 0.00 in0.0 mm 0.00 in0.0 mm 0.00 in0.0 mm
11:51 AM 86.8°F30.4°C 67.0°F19.4°C 52% 0.1 mph S0.2 kmh S 4.0 mph6.4 kmh 29.82 in1009.8 mb 0.00 in0.0 mm 0.00 in0.0 mm 0.00 in0.0 mm
11:52 AM 86.9°F30.5°C 66.6°F19.2°C 51% 1.2 mph S1.9 kmh S 4.0 mph6.4 kmh 29.82 in1009.8 mb 0.00 in0.0 mm 0.00 in0.0 mm 0.00 in0.0 mm
11:53 AM 87.0°F30.6°C 66.6°F19.2°C 51% 0.8 mph S1.3 kmh S 4.0 mph6.4 kmh 29.82 in1009.8 mb 0.00 in0.0 mm 0.00 in0.0 mm 0.00 in0.0 mm
11:54 AM 86.9°F30.5°C 66.6°F19.2°C 51% 5.4 mph S8.7 kmh S 12.0 mph19.3 kmh 29.82 in1009.8 mb 0.00 in0.0 mm 0.00 in0.0 mm 0.00 in0.0 mm
11:55 AM 86.9°F30.5°C 66.0°F18.9°C 50% 2.4 mph S3.9 kmh S 12.0 mph19.3 kmh 29.82 in1009.8 mb 0.00 in0.0 mm 0.00 in0.0 mm 0.00 in0.0 mm
11:56 AM 86.9°F30.5°C 66.6°F19.2°C 51% 2.4 mph S3.9 kmh S 7.0 mph11.3 kmh 29.82 in1009.8 mb 0.00 in0.0 mm 0.00 in0.0 mm 0.00 in0.0 mm
11:57 AM 86.8°F30.4°C 66.5°F19.2°C 51% 2.1 mph S3.4 kmh S 7.0 mph11.3 kmh 29.82 in1009.8 mb 0.00 in0.0 mm 0.00 in0.0 mm 0.00 in0.0 mm
11:58 AM 86.7°F30.4°C 66.4°F19.1°C 51% 0.1 mph S0.2 kmh S 5.0 mph8.0 kmh 29.82 in1009.8 mb 0.00 in0.0 mm 0.00 in0.0 mm 0.00 in0.0 mm
11:59 AM 86.6°F30.3°C 66.3°F19.1°C 51% 0.7 mph S1.1 kmh S 2.0 mph3.2 kmh 29.82 in1009.8 mb 0.00 in0.0 mm 0.00 in0.0 mm 0.00 in0.0 mm
12:00 PM 86.5°F30.3°C 66.2°F19.0°C 51% 0.6 mph S1.0 kmh S 2.0 mph3.2 kmh 29.82 in1009.8 mb 0.00 in0.0 mm 0.00 in0.0 mm 0.00 in0.0 mm
12:01 PM 86.4°F30.2°C 66.7°F19.3°C 52% 0.5 mph S0.8 kmh S 2.0 mph3.2 kmh 29.82 in1009.8 mb 0.00 in0.0 mm 0.00 in0.0 mm 0.00 in0.0 mm
12:02 PM 86.3°F30.2°C 66.6°F19.2°C 52% 1.1 mph S1.8 kmh S 6.0 mph9.7 kmh 29.82 in1009.8 mb 0.00 in0.0 mm 0.00 in0.0 mm 0.00 in0.0 mm
12:03 PM 86.1°F30.1°C 66.4°F19.1°C 52% 2.8 mph S4.5 kmh S 6.0 mph9.7 kmh 29.82 in1009.8 mb 0.00 in0.0 mm 0.00 in0.0 mm 0.00 in0.0 mm
12:04 PM 85.9°F29.9°C 66.2°F19.0°C 52% 0.8 mph S1.3 kmh S 6.0 mph9.7 kmh 29.82 in1009.8 mb 0.00 in0.0 mm 0.00 in0.0 mm 0.00 in0.0 mm
12:05 PM 85.7°F29.8°C 66.0°F18.9°C 52% 1.4 mph S2.3 kmh S 3.0 mph4.8 kmh 29.82 in1009.8 mb 0.00 in0.0 mm 0.00 in0.0 mm 0.00 in0.0 mm
12:06 PM 85.5°F29.7°C 66.4°F19.1°C 53% 1.0 mph S1.6 kmh S 4.0 mph6.4 kmh 29.82 in1009.8 mb 0.00 in0.0 mm 0.00 in0.0 mm 0.00 in0.0 mm
12:07 PM 85.3°F29.6°C 66.2°F19.0°C 53% 1.1 mph S1.8 kmh S 4.0 mph6.4 kmh 29.82 in1009.8 mb 0.00 in0.0 mm 0.00 in0.0 mm 0.00 in0.0 mm
12:08 PM 85.1°F29.5°C 66.0°F18.9°C 53% 0.7 mph S1.1 kmh S 3.0 mph4.8 kmh 29.82 in1009.8 mb 0.00 in0.0 mm 0.00 in0.0 mm 0.00 in0.0 mm
12:09 PM 85.0°F29.4°C 65.9°F18.8°C 53% Calm Calm 3.0 mph4.8 kmh 29.82 in1009.8 mb 0.00 in0.0 mm 0.00 in0.0 mm 0.00 in0.0 mm
12:10 PM 84.8°F29.3°C 65.7°F18.7°C 53% 0.6 mph S1.0 kmh S 3.0 mph4.8 kmh 29.82 in1009.8 mb 0.00 in0.0 mm 0.00 in0.0 mm 0.00 in0.0 mm
12:11 PM 84.7°F29.3°C 66.2°F19.0°C 54% 2.7 mph S4.3 kmh S 6.0 mph9.7 kmh 29.82 in1009.8 mb 0.00 in0.0 mm 0.00 in0.0 mm 0.00 in0.0 mm
12:12 PM 84.6°F29.2°C 66.1°F18.9°C 54% 1.3 mph S2.1 kmh S 6.0 mph9.7 kmh 29.82 in1009.8 mb 0.00 in0.0 mm 0.00 in0.0 mm 0.00 in0.0 mm
12:13 PM 84.5°F29.2°C 66.0°F18.9°C 54% 0.7 mph S1.1 kmh S 4.0 mph6.4 kmh 29.82 in1009.8 mb 0.00 in0.0 mm 0.00 in0.0 mm 0.00 in0.0 mm
12:14 PM 84.4°F29.1°C 65.9°F18.8°C 54% 0.6 mph S1.0 kmh S 4.0 mph6.4 kmh 29.82 in1009.8 mb 0.00 in0.0 mm 0.00 in0.0 mm 0.00 in0.0 mm
12:15 PM 84.3°F29.1°C 65.8°F18.8°C 54% 1.3 mph S2.1 kmh S 5.0 mph8.0 kmh 29.82 in1009.8 mb 0.00 in0.0 mm 0.00 in0.0 mm 0.00 in0.0 mm
12:16 PM 84.2°F29.0°C 65.7°F18.7°C 54% 1.2 mph S1.9 kmh S 5.0 mph8.0 kmh 29.82 in1009.8 mb 0.00 in0.0 mm 0.00 in0.0 mm 0.00 in0.0 mm
12:17 PM 84.1°F28.9°C 65.6°F18.7°C 54% Calm Calm 3.0 mph4.8 kmh 29.82 in1009.8 mb 0.00 in0.0 mm 0.00 in0.0 mm 0.00 in0.0 mm
12:18 PM 84.1°F28.9°C 66.2°F19.0°C 55% 0.4 mph S0.6 kmh S 1.0 mph1.6 kmh 29.82 in1009.8 mb 0.00 in0.0 mm 0.00 in0.0 mm 0.00 in0.0 mm
12:19 PM 84.0°F28.9°C 66.1°F18.9°C 55% 1.3 mph S2.1 kmh S 4.0 mph6.4 kmh 29.82 in1009.8 mb 0.00 in0.0 mm 0.00 in0.0 mm 0.00 in0.0 mm
12:20 PM 83.9°F28.8°C 66.0°F18.9°C 55% 0.8 mph S1.3 kmh S 4.0 mph6.4 kmh 29.82 in1009.8 mb 0.00 in0.0 mm 0.00 in0.0 mm 0.00 in0.0 mm
12:21 PM 83.9°F28.8°C 66.0°F18.9°C 55% 0.2 mph S0.3 kmh S 3.0 mph4.8 kmh 29.82 in1009.8 mb 0.00 in0.0 mm 0.00 in0.0 mm 0.00 in0.0 mm
12:22 PM 83.9°F28.8°C 66.0°F18.9°C 55% 0.3 mph S0.5 kmh S 2.0 mph3.2 kmh 29.82 in1009.8 mb 0.00 in0.0 mm 0.00 in0.0 mm 0.00 in0.0 mm
12:23 PM 83.8°F28.8°C 65.9°F18.8°C 55% 0.5 mph S0.8 kmh S 2.0 mph3.2 kmh 29.82 in1009.8 mb 0.00 in0.0 mm 0.00 in0.0 mm 0.00 in0.0 mm
12:24 PM 83.8°F28.8°C 65.9°F18.8°C 55% 0.2 mph S0.3 kmh S 1.0 mph1.6 kmh 29.82 in1009.8 mb 0.00 in0.0 mm 0.00 in0.0 mm 0.00 in0.0 mm
12:25 PM 83.8°F28.8°C 65.9°F18.8°C 55% 1.8 mph S2.9 kmh S 6.0 mph9.7 kmh 29.82 in1009.8 mb 0.00 in0.0 mm 0.00 in0.0 mm 0.00 in0.0 mm
12:26 PM 83.7°F28.7°C 65.8°F18.8°C 55% 2.3 mph S3.7 kmh S 6.0 mph9.7 kmh 29.82 in1009.8 mb 0.00 in0.0 mm 0.00 in0.0 mm 0.00 in0.0 mm
12:27 PM 83.7°F28.7°C 65.8°F18.8°C 55% 1.5 mph S2.4 kmh S 5.0 mph8.0 kmh 29.82 in1009.8 mb 0.00 in0.0 mm 0.00 in0.0 mm 0.00 in0.0 mm
12:28 PM 83.6°F28.7°C 65.7°F18.7°C 55% 1.2 mph S1.9 kmh S 3.0 mph4.8 kmh 29.82 in1009.8 mb 0.00 in0.0 mm 0.00 in0.0 mm 0.00 in0.0 mm
12:29 PM 83.6°F28.7°C 65.7°F18.7°C 55% 1.3 mph S2.1 kmh S 3.0 mph4.8 kmh 29.82 in1009.8 mb 0.00 in0.0 mm 0.00 in0.0 mm 0.00 in0.0 mm
12:30 PM 83.5°F28.6°C 65.6°F18.7°C 55% 3.0 mph S4.8 kmh S 6.0 mph9.7 kmh 29.82 in1009.8 mb 0.00 in0.0 mm 0.00 in0.0 mm 0.00 in0.0 mm
12:31 PM 83.5°F28.6°C 65.6°F18.7°C 55% 1.7 mph S2.7 kmh S 6.0 mph9.7 kmh 29.82 in1009.8 mb 0.00 in0.0 mm 0.00 in0.0 mm 0.00 in0.0 mm
12:32 PM 83.5°F28.6°C 65.6°F18.7°C 55% 0.9 mph S1.4 kmh S 3.0 mph4.8 kmh 29.82 in1009.8 mb 0.00 in0.0 mm 0.00 in0.0 mm 0.00 in0.0 mm
12:33 PM 83.4°F28.6°C 65.5°F18.6°C 55% 0.8 mph S1.3 kmh S 2.0 mph3.2 kmh 29.82 in1009.8 mb 0.00 in0.0 mm 0.00 in0.0 mm 0.00 in0.0 mm
12:34 PM 83.4°F28.6°C 65.5°F18.6°C 55% 0.5 mph S0.8 kmh S 2.0 mph3.2 kmh 29.82 in1009.8 mb 0.00 in0.0 mm 0.00 in0.0 mm 0.00 in0.0 mm
12:35 PM 83.4°F28.6°C 65.5°F18.6°C 55% 1.0 mph S1.6 kmh S 3.0 mph4.8 kmh 29.82 in1009.8 mb 0.00 in0.0 mm 0.00 in0.0 mm 0.00 in0.0 mm
12:36 PM 83.4°F28.6°C 65.5°F18.6°C 55% 0.4 mph S0.6 kmh S 3.0 mph4.8 kmh 29.82 in1009.8 mb 0.00 in0.0 mm 0.00 in0.0 mm 0.00 in0.0 mm
12:37 PM 83.4°F28.6°C 65.5°F18.6°C 55% 0.5 mph S0.8 kmh S 2.0 mph3.2 kmh 29.82 in1009.8 mb 0.00 in0.0 mm 0.00 in0.0 mm 0.00 in0.0 mm
12:38 PM 83.4°F28.6°C 65.5°F18.6°C 55% 0.1 mph S0.2 kmh S 2.0 mph3.2 kmh 29.82 in1009.8 mb 0.00 in0.0 mm 0.00 in0.0 mm 0.00 in0.0 mm
12:39 PM 83.3°F28.5°C 65.4°F18.6°C 55% 1.1 mph S1.8 kmh S 3.0 mph4.8 kmh 29.82 in1009.8 mb 0.00 in0.0 mm 0.00 in0.0 mm 0.00 in0.0 mm
12:40 PM 83.3°F28.5°C 65.4°F18.6°C 55% 1.8 mph S2.9 kmh S 3.0 mph4.8 kmh 29.82 in1009.8 mb 0.00 in0.0 mm 0.00 in0.0 mm 0.00 in0.0 mm
12:41 PM 83.3°F28.5°C 65.4°F18.6°C 55% 1.1 mph S1.8 kmh S 3.0 mph4.8 kmh 29.82 in1009.8 mb 0.00 in0.0 mm 0.00 in0.0 mm 0.00 in0.0 mm
12:42 PM 83.2°F28.4°C 65.3°F18.5°C 55% Calm Calm 2.0 mph3.2 kmh 29.82 in1009.8 mb 0.00 in0.0 mm 0.00 in0.0 mm 0.00 in0.0 mm
12:43 PM 83.2°F28.4°C 65.3°F18.5°C 55% 0.7 mph S1.1 kmh S 2.0 mph3.2 kmh 29.82 in1009.8 mb 0.00 in0.0 mm 0.00 in0.0 mm 0.00 in0.0 mm
12:44 PM 83.2°F28.4°C 65.3°F18.5°C 55% 2.2 mph S3.5 kmh S 6.0 mph9.7 kmh 29.81 in1009.5 mb 0.00 in0.0 mm 0.00 in0.0 mm 0.00 in0.0 mm
12:45 PM 83.2°F28.4°C 65.3°F18.5°C 55% 0.8 mph S1.3 kmh S 6.0 mph9.7 kmh 29.81 in1009.5 mb 0.00 in0.0 mm 0.00 in0.0 mm 0.00 in0.0 mm
12:46 PM 83.2°F28.4°C 65.3°F18.5°C 55% 1.2 mph S1.9 kmh S 3.0 mph4.8 kmh 29.81 in1009.5 mb 0.00 in0.0 mm 0.00 in0.0 mm 0.00 in0.0 mm
12:47 PM 83.2°F28.4°C 65.3°F18.5°C 55% 1.5 mph S2.4 kmh S 4.0 mph6.4 kmh 29.81 in1009.5 mb 0.00 in0.0 mm 0.00 in0.0 mm 0.00 in0.0 mm
12:48 PM 83.1°F28.4°C 64.7°F18.2°C 54% 1.8 mph S2.9 kmh S 5.0 mph8.0 kmh 29.82 in1009.8 mb 0.00 in0.0 mm 0.00 in0.0 mm 0.00 in0.0 mm
12:49 PM 83.0°F28.3°C 64.6°F18.1°C 54% 2.7 mph S4.3 kmh S 7.0 mph11.3 kmh 29.81 in1009.5 mb 0.00 in0.0 mm 0.00 in0.0 mm 0.00 in0.0 mm
12:50 PM 83.0°F28.3°C 64.6°F18.1°C 54% 1.5 mph S2.4 kmh S 7.0 mph11.3 kmh 29.82 in1009.8 mb 0.00 in0.0 mm 0.00 in0.0 mm 0.00 in0.0 mm
12:51 PM 82.9°F28.3°C 64.5°F18.1°C 54% 0.5 mph S0.8 kmh S 4.0 mph6.4 kmh 29.82 in1009.8 mb 0.00 in0.0 mm 0.00 in0.0 mm 0.00 in0.0 mm
12:52 PM 82.8°F28.2°C 63.9°F17.7°C 53% 3.1 mph S5.0 kmh S 6.0 mph9.7 kmh 29.82 in1009.8 mb 0.00 in0.0 mm 0.00 in0.0 mm 0.00 in0.0 mm
12:53 PM 82.8°F28.2°C 63.9°F17.7°C 53% 1.6 mph S2.6 kmh S 6.0 mph9.7 kmh 29.82 in1009.8 mb 0.00 in0.0 mm 0.00 in0.0 mm 0.00 in0.0 mm
12:54 PM 82.7°F28.2°C 63.3°F17.4°C 52% 2.7 mph S4.3 kmh S 8.0 mph12.9 kmh 29.82 in1009.8 mb 0.00 in0.0 mm 0.00 in0.0 mm 0.00 in0.0 mm
12:55 PM 82.5°F28.1°C 62.5°F16.9°C 51% 2.3 mph S3.7 kmh S 8.0 mph12.9 kmh 29.82 in1009.8 mb 0.00 in0.0 mm 0.00 in0.0 mm 0.00 in0.0 mm
12:56 PM 82.5°F28.1°C 62.5°F16.9°C 51% 1.6 mph S2.6 kmh S 7.0 mph11.3 kmh 29.82 in1009.8 mb 0.00 in0.0 mm 0.00 in0.0 mm 0.00 in0.0 mm
12:57 PM 82.4°F28.0°C 62.4°F16.9°C 51% 2.7 mph S4.3 kmh S 7.0 mph11.3 kmh 29.82 in1009.8 mb 0.00 in0.0 mm 0.00 in0.0 mm 0.00 in0.0 mm
12:58 PM 82.3°F27.9°C 61.8°F16.6°C 50% 2.3 mph S3.7 kmh S 7.0 mph11.3 kmh 29.82 in1009.8 mb 0.00 in0.0 mm 0.00 in0.0 mm 0.00 in0.0 mm
12:59 PM 82.3°F27.9°C 61.8°F16.6°C 50% 0.5 mph S0.8 kmh S 7.0 mph11.3 kmh 29.82 in1009.8 mb 0.00 in0.0 mm 0.00 in0.0 mm 0.00 in0.0 mm
01:00 PM 82.2°F27.9°C 61.1°F16.2°C 49% 2.0 mph S3.2 kmh S 4.0 mph6.4 kmh 29.82 in1009.8 mb 0.00 in0.0 mm 0.00 in0.0 mm 0.00 in0.0 mm
01:01 PM 82.1°F27.8°C 60.4°F15.8°C 48% 2.4 mph S3.9 kmh S 5.0 mph8.0 kmh 29.82 in1009.8 mb 0.00 in0.0 mm 0.00 in0.0 mm 0.00 in0.0 mm
01:02 PM 82.1°F27.8°C 59.8°F15.4°C 47% 2.4 mph S3.9 kmh S 9.0 mph14.5 kmh 29.82 in1009.8 mb 0.00 in0.0 mm 0.00 in0.0 mm 0.00 in0.0 mm
01:03 PM 82.1°F27.8°C 59.8°F15.4°C 47% 1.1 mph S1.8 kmh S 9.0 mph14.5 kmh 29.82 in1009.8 mb 0.00 in0.0 mm 0.00 in0.0 mm 0.00 in0.0 mm
01:04 PM 82.0°F27.8°C 59.8°F15.4°C 47% 1.1 mph S1.8 kmh S 3.0 mph4.8 kmh 29.82 in1009.8 mb 0.00 in0.0 mm 0.00 in0.0 mm 0.00 in0.0 mm
01:05 PM 82.0°F27.8°C 59.2°F15.1°C 46% 0.4 mph S0.6 kmh S 3.0 mph4.8 kmh 29.82 in1009.8 mb 0.00 in0.0 mm 0.00 in0.0 mm 0.00 in0.0 mm
01:06 PM 82.0°F27.8°C 59.2°F15.1°C 46% 0.1 mph S0.2 kmh S 1.0 mph1.6 kmh 29.82 in1009.8 mb 0.00 in0.0 mm 0.00 in0.0 mm 0.00 in0.0 mm
01:07 PM 82.0°F27.8°C 59.2°F15.1°C 46% 0.7 mph S1.1 kmh S 2.0 mph3.2 kmh 29.82 in1009.8 mb 0.00 in0.0 mm 0.00 in0.0 mm 0.00 in0.0 mm
01:08 PM 82.0°F27.8°C 59.2°F15.1°C 46% 0.7 mph S1.1 kmh S 3.0 mph4.8 kmh 29.82 in1009.8 mb 0.00 in0.0 mm 0.00 in0.0 mm 0.00 in0.0 mm
01:09 PM 82.0°F27.8°C 59.2°F15.1°C 46% 0.5 mph S0.8 kmh S 3.0 mph4.8 kmh 29.82 in1009.8 mb 0.00 in0.0 mm 0.00 in0.0 mm 0.00 in0.0 mm
01:10 PM 82.0°F27.8°C 59.2°F15.1°C 46% 0.1 mph S0.2 kmh S 2.0 mph3.2 kmh 29.82 in1009.8 mb 0.00 in0.0 mm 0.00 in0.0 mm 0.00 in0.0 mm
01:11 PM 82.0°F27.8°C 59.2°F15.1°C 46% 0.5 mph S0.8 kmh S 1.0 mph1.6 kmh 29.82 in1009.8 mb 0.00 in0.0 mm 0.00 in0.0 mm 0.00 in0.0 mm
01:12 PM 82.0°F27.8°C 59.2°F15.1°C 46% 0.2 mph S0.3 kmh S 1.0 mph1.6 kmh 29.82 in1009.8 mb 0.00 in0.0 mm 0.00 in0.0 mm 0.00 in0.0 mm
01:13 PM 82.1°F27.8°C 59.2°F15.1°C 46% Calm Calm 1.0 mph1.6 kmh 29.82 in1009.8 mb 0.00 in0.0 mm 0.00 in0.0 mm 0.00 in0.0 mm
01:14 PM 82.1°F27.8°C 59.2°F15.1°C 46% Calm Calm -- 29.82 in1009.8 mb 0.00 in0.0 mm 0.00 in0.0 mm 0.00 in0.0 mm
01:15 PM 82.1°F27.8°C 59.2°F15.1°C 46% 0.3 mph S0.5 kmh S 1.0 mph1.6 kmh 29.82 in1009.8 mb 0.00 in0.0 mm 0.00 in0.0 mm 0.00 in0.0 mm
01:16 PM 82.1°F27.8°C 59.2°F15.1°C 46% 0.1 mph S0.2 kmh S 1.0 mph1.6 kmh 29.82 in1009.8 mb 0.00 in0.0 mm 0.00 in0.0 mm 0.00 in0.0 mm
01:17 PM 82.1°F27.8°C 59.2°F15.1°C 46% 0.7 mph S1.1 kmh S 1.0 mph1.6 kmh 29.82 in1009.8 mb 0.00 in0.0 mm 0.00 in0.0 mm 0.00 in0.0 mm
01:18 PM 82.1°F27.8°C 59.2°F15.1°C 46% 0.3 mph S0.5 kmh S 2.0 mph3.2 kmh 29.82 in1009.8 mb 0.00 in0.0 mm 0.00 in0.0 mm 0.00 in0.0 mm
01:19 PM 82.1°F27.8°C 59.2°F15.1°C 46% 0.6 mph S1.0 kmh S 2.0 mph3.2 kmh 29.82 in1009.8 mb 0.00 in0.0 mm 0.00 in0.0 mm 0.00 in0.0 mm
01:20 PM 82.1°F27.8°C 59.2°F15.1°C 46% 0.3 mph S0.5 kmh S 2.0 mph3.2 kmh 29.82 in1009.8 mb 0.00 in0.0 mm 0.00 in0.0 mm 0.00 in0.0 mm
01:21 PM 82.1°F27.8°C 59.2°F15.1°C 46% 0.2 mph S0.3 kmh S 2.0 mph3.2 kmh 29.82 in1009.8 mb 0.00 in0.0 mm 0.00 in0.0 mm 0.00 in0.0 mm
01:22 PM 82.1°F27.8°C 59.2°F15.1°C 46% 0.1 mph S0.2 kmh S 2.0 mph3.2 kmh 29.82 in1009.8 mb 0.00 in0.0 mm 0.00 in0.0 mm 0.00 in0.0 mm
01:23 PM 82.1°F27.8°C 59.2°F15.1°C 46% 0.9 mph S1.4 kmh S 3.0 mph4.8 kmh 29.82 in1009.8 mb 0.00 in0.0 mm 0.00 in0.0 mm 0.00 in0.0 mm
01:24 PM 82.1°F27.8°C 59.2°F15.1°C 46% 0.9 mph S1.4 kmh S 3.0 mph4.8 kmh 29.82 in1009.8 mb 0.00 in0.0 mm 0.00 in0.0 mm 0.00 in0.0 mm
01:25 PM 82.1°F27.8°C 59.2°F15.1°C 46% Calm Calm 2.0 mph3.2 kmh 29.82 in1009.8 mb 0.00 in0.0 mm 0.00 in0.0 mm 0.00 in0.0 mm
01:26 PM 82.2°F27.9°C 59.9°F15.5°C 47% 0.1 mph S0.2 kmh S 1.0 mph1.6 kmh 29.82 in1009.8 mb 0.00 in0.0 mm 0.00 in0.0 mm 0.00 in0.0 mm
01:27 PM 82.2°F27.9°C 59.9°F15.5°C 47% Calm Calm 1.0 mph1.6 kmh 29.82 in1009.8 mb 0.00 in0.0 mm 0.00 in0.0 mm 0.00 in0.0 mm
01:28 PM 82.3°F27.9°C 60.0°F15.6°C 47% Calm Calm -- 29.82 in1009.8 mb 0.00 in0.0 mm 0.00 in0.0 mm 0.00 in0.0 mm
01:29 PM 82.3°F27.9°C 60.0°F15.6°C 47% 0.4 mph S0.6 kmh S 2.0 mph3.2 kmh 29.82 in1009.8 mb 0.00 in0.0 mm 0.00 in0.0 mm 0.00 in0.0 mm
01:30 PM 82.4°F28.0°C 60.1°F15.6°C 47% 0.8 mph S1.3 kmh S 2.0 mph3.2 kmh 29.82 in1009.8 mb 0.00 in0.0 mm 0.00 in0.0 mm 0.00 in0.0 mm
01:31 PM 82.4°F28.0°C 60.1°F15.6°C 47% 1.0 mph S1.6 kmh S 2.0 mph3.2 kmh 29.82 in1009.8 mb 0.00 in0.0 mm 0.00 in0.0 mm 0.00 in0.0 mm
01:32 PM 82.5°F28.1°C 60.2°F15.7°C 47% Calm Calm 2.0 mph3.2 kmh 29.82 in1009.8 mb 0.00 in0.0 mm 0.00 in0.0 mm 0.00 in0.0 mm
01:33 PM 82.5°F28.1°C 60.2°F15.7°C 47% 0.2 mph S0.3 kmh S 1.0 mph1.6 kmh 29.82 in1009.8 mb 0.00 in0.0 mm 0.00 in0.0 mm 0.00 in0.0 mm
01:34 PM 82.6°F28.1°C 60.3°F15.7°C 47% Calm Calm 1.0 mph1.6 kmh 29.82 in1009.8 mb 0.00 in0.0 mm 0.00 in0.0 mm 0.00 in0.0 mm
01:35 PM 82.7°F28.2°C 60.4°F15.8°C 47% 0.5 mph S0.8 kmh S 1.0 mph1.6 kmh 29.82 in1009.8 mb 0.00 in0.0 mm 0.00 in0.0 mm 0.00 in0.0 mm
01:36 PM 82.7°F28.2°C 60.4°F15.8°C 47% 0.5 mph S0.8 kmh S 1.0 mph1.6 kmh 29.82 in1009.8 mb 0.00 in0.0 mm 0.00 in0.0 mm 0.00 in0.0 mm
01:37 PM 82.7°F28.2°C 60.4°F15.8°C 47% Calm Calm 1.0 mph1.6 kmh 29.82 in1009.8 mb 0.00 in0.0 mm 0.00 in0.0 mm 0.00 in0.0 mm
01:38 PM 82.8°F28.2°C 61.1°F16.2°C 48% 0.7 mph S1.1 kmh S 2.0 mph3.2 kmh 29.82 in1009.8 mb 0.00 in0.0 mm 0.00 in0.0 mm 0.00 in0.0 mm
01:39 PM 82.9°F28.3°C 60.6°F15.9°C 47% 0.9 mph S1.4 kmh S 2.0 mph3.2 kmh 29.82 in1009.8 mb 0.00 in0.0 mm 0.00 in0.0 mm 0.00 in0.0 mm
01:40 PM 82.9°F28.3°C 61.2°F16.2°C 48% 0.1 mph S0.2 kmh S 2.0 mph3.2 kmh 29.82 in1009.8 mb 0.00 in0.0 mm 0.00 in0.0 mm 0.00 in0.0 mm
01:41 PM 83.0°F28.3°C 61.3°F16.3°C 48% 0.6 mph S1.0 kmh S 2.0 mph3.2 kmh 29.82 in1009.8 mb 0.00 in0.0 mm 0.00 in0.0 mm 0.00 in0.0 mm
01:42 PM 83.0°F28.3°C 60.1°F15.6°C 46% 2.2 mph S3.5 kmh S 5.0 mph8.0 kmh 29.82 in1009.8 mb 0.00 in0.0 mm 0.00 in0.0 mm 0.00 in0.0 mm
01:43 PM 83.1°F28.4°C 60.1°F15.6°C 46% 1.6 mph S2.6 kmh S 5.0 mph8.0 kmh 29.82 in1009.8 mb 0.00 in0.0 mm 0.00 in0.0 mm 0.00 in0.0 mm
01:44 PM 83.1°F28.4°C 60.1°F15.6°C 46% 0.4 mph S0.6 kmh S 5.0 mph8.0 kmh 29.83 in1010.2 mb 0.00 in0.0 mm 0.00 in0.0 mm 0.00 in0.0 mm
01:45 PM 83.1°F28.4°C 60.1°F15.6°C 46% 1.0 mph S1.6 kmh S 2.0 mph3.2 kmh 29.83 in1010.2 mb 0.00 in0.0 mm 0.00 in0.0 mm 0.00 in0.0 mm
01:46 PM 83.2°F28.4°C 60.8°F16.0°C 47% 0.8 mph S1.3 kmh S 2.0 mph3.2 kmh 29.83 in1010.2 mb 0.00 in0.0 mm 0.00 in0.0 mm 0.00 in0.0 mm
01:47 PM 83.2°F28.4°C 60.8°F16.0°C 47% Calm Calm 2.0 mph3.2 kmh 29.83 in1010.2 mb 0.00 in0.0 mm 0.00 in0.0 mm 0.00 in0.0 mm
01:48 PM 83.2°F28.4°C 60.2°F15.7°C 46% 1.6 mph S2.6 kmh S 4.0 mph6.4 kmh 29.83 in1010.2 mb 0.00 in0.0 mm 0.00 in0.0 mm 0.00 in0.0 mm
01:49 PM 83.2°F28.4°C 60.2°F15.7°C 46% 1.5 mph S2.4 kmh S 4.0 mph6.4 kmh 29.84 in1010.5 mb 0.00 in0.0 mm 0.00 in0.0 mm 0.00 in0.0 mm
01:50 PM 83.1°F28.4°C 60.1°F15.6°C 46% 1.9 mph S3.1 kmh S 5.0 mph8.0 kmh 29.84 in1010.5 mb 0.00 in0.0 mm 0.00 in0.0 mm 0.00 in0.0 mm
01:51 PM 83.1°F28.4°C 60.1°F15.6°C 46% 2.8 mph S4.5 kmh S 7.0 mph11.3 kmh 29.84 in1010.5 mb 0.00 in0.0 mm 0.00 in0.0 mm 0.00 in0.0 mm
01:52 PM 83.0°F28.3°C 60.7°F15.9°C 47% 2.6 mph SSW4.2 kmh SSW 7.0 mph11.3 kmh 29.84 in1010.5 mb 0.00 in0.0 mm 0.00 in0.0 mm 0.00 in0.0 mm
01:53 PM 82.9°F28.3°C 60.6°F15.9°C 47% 1.9 mph SW3.1 kmh SW 7.0 mph11.3 kmh 29.84 in1010.5 mb 0.00 in0.0 mm 0.00 in0.0 mm 0.00 in0.0 mm
01:54 PM 82.7°F28.2°C 60.4°F15.8°C 47% 0.5 mph SW0.8 kmh SW 3.0 mph4.8 kmh 29.85 in1010.8 mb 0.00 in0.0 mm 0.00 in0.0 mm 0.00 in0.0 mm
01:55 PM 82.7°F28.2°C 61.0°F16.1°C 48% 0.9 mph SW1.4 kmh SW 2.0 mph3.2 kmh 29.84 in1010.5 mb 0.00 in0.0 mm 0.00 in0.0 mm 0.00 in0.0 mm
01:56 PM 82.5°F28.1°C 60.8°F16.0°C 48% 0.6 mph SW1.0 kmh SW 2.0 mph3.2 kmh 29.84 in1010.5 mb 0.00 in0.0 mm 0.00 in0.0 mm 0.00 in0.0 mm
01:57 PM 82.5°F28.1°C 61.4°F16.3°C 49% 3.8 mph SW6.1 kmh SW 8.0 mph12.9 kmh 29.84 in1010.5 mb 0.00 in0.0 mm 0.00 in0.0 mm 0.00 in0.0 mm
01:58 PM 82.4°F28.0°C 62.4°F16.9°C 51% 1.5 mph SW2.4 kmh SW 8.0 mph12.9 kmh 29.85 in1010.8 mb 0.00 in0.0 mm 0.00 in0.0 mm 0.00 in0.0 mm
01:59 PM 82.3°F27.9°C 63.4°F17.4°C 53% 5.2 mph W8.4 kmh W 11.0 mph17.7 kmh 29.84 in1010.5 mb 0.00 in0.0 mm 0.00 in0.0 mm 0.00 in0.0 mm
02:00 PM 82.2°F27.9°C 63.9°F17.7°C 54% 3.4 mph WNW5.5 kmh WNW 11.0 mph17.7 kmh 29.85 in1010.8 mb 0.00 in0.0 mm 0.00 in0.0 mm 0.00 in0.0 mm
02:01 PM 82.1°F27.8°C 63.8°F17.7°C 54% 3.2 mph WNW5.1 kmh WNW 8.0 mph12.9 kmh 29.85 in1010.8 mb 0.00 in0.0 mm 0.00 in0.0 mm 0.00 in0.0 mm
02:02 PM 82.0°F27.8°C 63.7°F17.6°C 54% 6.0 mph WNW9.7 kmh WNW 10.0 mph16.1 kmh 29.85 in1010.8 mb 0.00 in0.0 mm 0.00 in0.0 mm 0.00 in0.0 mm
02:03 PM 81.9°F27.7°C 64.1°F17.8°C 55% 6.6 mph NW10.6 kmh NW 11.0 mph17.7 kmh 29.85 in1010.8 mb 0.00 in0.0 mm 0.00 in0.0 mm 0.00 in0.0 mm
02:04 PM 81.8°F27.7°C 64.5°F18.1°C 56% 4.5 mph NW7.2 kmh NW 11.0 mph17.7 kmh 29.85 in1010.8 mb 0.00 in0.0 mm 0.00 in0.0 mm 0.00 in0.0 mm
02:05 PM 81.6°F27.6°C 64.9°F18.3°C 57% 3.9 mph NW6.3 kmh NW 10.0 mph16.1 kmh 29.85 in1010.8 mb 0.00 in0.0 mm 0.00 in0.0 mm 0.00 in0.0 mm
02:06 PM 81.5°F27.5°C 65.3°F18.5°C 58% 5.3 mph NNW8.5 kmh NNW 9.0 mph14.5 kmh 29.84 in1010.5 mb 0.00 in0.0 mm 0.00 in0.0 mm 0.00 in0.0 mm
02:07 PM 81.3°F27.4°C 65.6°F18.7°C 59% 1.7 mph NNW2.7 kmh NNW 9.0 mph14.5 kmh 29.85 in1010.8 mb 0.00 in0.0 mm 0.00 in0.0 mm 0.00 in0.0 mm
02:08 PM 81.1°F27.3°C 65.4°F18.6°C 59% 2.3 mph NNW3.7 kmh NNW 6.0 mph9.7 kmh 29.84 in1010.5 mb 0.00 in0.0 mm 0.00 in0.0 mm 0.00 in0.0 mm
02:09 PM 81.0°F27.2°C 65.8°F18.8°C 60% 3.4 mph NNW5.5 kmh NNW 6.0 mph9.7 kmh 29.85 in1010.8 mb 0.00 in0.0 mm 0.00 in0.0 mm 0.00 in0.0 mm
02:10 PM 80.8°F27.1°C 65.1°F18.4°C 59% 4.0 mph NNW6.4 kmh NNW 10.0 mph16.1 kmh 29.85 in1010.8 mb 0.00 in0.0 mm 0.00 in0.0 mm 0.00 in0.0 mm
02:11 PM 80.6°F27.0°C 65.4°F18.6°C 60% 4.2 mph NNW6.8 kmh NNW 10.0 mph16.1 kmh 29.85 in1010.8 mb 0.00 in0.0 mm 0.00 in0.0 mm 0.00 in0.0 mm
02:12 PM 80.4°F26.9°C 65.2°F18.4°C 60% 4.8 mph NNW7.7 kmh NNW 9.0 mph14.5 kmh 29.85 in1010.8 mb 0.00 in0.0 mm 0.00 in0.0 mm 0.00 in0.0 mm
02:13 PM 80.2°F26.8°C 65.0°F18.3°C 60% 3.9 mph NNW6.3 kmh NNW 9.0 mph14.5 kmh 29.85 in1010.8 mb 0.00 in0.0 mm 0.00 in0.0 mm 0.00 in0.0 mm
02:14 PM 80.1°F26.7°C 64.9°F18.3°C 60% 2.8 mph NNW4.5 kmh NNW 6.0 mph9.7 kmh 29.85 in1010.8 mb 0.00 in0.0 mm 0.00 in0.0 mm 0.00 in0.0 mm
02:15 PM 80.0°F26.7°C 65.3°F18.5°C 61% 1.9 mph NNW3.1 kmh NNW 6.0 mph9.7 kmh 29.85 in1010.8 mb 0.00 in0.0 mm 0.00 in0.0 mm 0.00 in0.0 mm
02:16 PM 79.9°F26.6°C 65.2°F18.4°C 61% 2.9 mph NNW4.7 kmh NNW 8.0 mph12.9 kmh 29.85 in1010.8 mb 0.00 in0.0 mm 0.00 in0.0 mm 0.00 in0.0 mm
02:17 PM 79.7°F26.5°C 64.6°F18.1°C 60% 7.4 mph N11.9 kmh N 12.0 mph19.3 kmh 29.85 in1010.8 mb 0.00 in0.0 mm 0.00 in0.0 mm 0.00 in0.0 mm
02:18 PM 79.6°F26.4°C 64.5°F18.1°C 60% 6.0 mph NNW9.7 kmh NNW 12.0 mph19.3 kmh 29.84 in1010.5 mb 0.00 in0.0 mm 0.00 in0.0 mm 0.00 in0.0 mm
02:19 PM 79.3°F26.3°C 64.2°F17.9°C 60% 9.0 mph N14.5 kmh N 14.0 mph22.5 kmh 29.84 in1010.5 mb 0.00 in0.0 mm 0.00 in0.0 mm 0.00 in0.0 mm
02:20 PM 79.2°F26.2°C 64.6°F18.1°C 61% 1.1 mph N1.8 kmh N 14.0 mph22.5 kmh 29.84 in1010.5 mb 0.00 in0.0 mm 0.00 in0.0 mm 0.00 in0.0 mm
02:21 PM 79.0°F26.1°C 64.4°F18.0°C 61% 4.1 mph 6.6 kmh 8.0 mph12.9 kmh 29.84 in1010.5 mb 0.00 in0.0 mm 0.00 in0.0 mm 0.00 in0.0 mm
02:22 PM 78.8°F26.0°C 64.2°F17.9°C 61% 3.8 mph N6.1 kmh N 9.0 mph14.5 kmh 29.84 in1010.5 mb 0.00 in0.0 mm 0.00 in0.0 mm 0.00 in0.0 mm
02:23 PM 78.7°F25.9°C 64.1°F17.8°C 61% 5.6 mph N9.0 kmh N 9.0 mph14.5 kmh 29.84 in1010.5 mb 0.00 in0.0 mm 0.00 in0.0 mm 0.00 in0.0 mm
02:24 PM 78.7°F25.9°C 64.1°F17.8°C 61% 6.2 mph 10.0 kmh 9.0 mph14.5 kmh 29.84 in1010.5 mb 0.00 in0.0 mm 0.00 in0.0 mm 0.00 in0.0 mm
02:25 PM 78.5°F25.8°C 63.9°F17.7°C 61% 5.5 mph N8.9 kmh N 9.0 mph14.5 kmh 29.84 in1010.5 mb 0.00 in0.0 mm 0.00 in0.0 mm 0.00 in0.0 mm
02:26 PM 78.3°F25.7°C 63.7°F17.6°C 61% 1.8 mph N2.9 kmh N 8.0 mph12.9 kmh 29.84 in1010.5 mb 0.00 in0.0 mm 0.00 in0.0 mm 0.00 in0.0 mm
02:27 PM 78.2°F25.7°C 63.6°F17.6°C 61% 4.9 mph N7.9 kmh N 9.0 mph14.5 kmh 29.84 in1010.5 mb 0.00 in0.0 mm 0.00 in0.0 mm 0.00 in0.0 mm
02:28 PM 78.1°F25.6°C 63.5°F17.5°C 61% 7.2 mph N11.6 kmh N 11.0 mph17.7 kmh 29.84 in1010.5 mb 0.00 in0.0 mm 0.00 in0.0 mm 0.00 in0.0 mm
02:29 PM 78.0°F25.6°C 63.4°F17.4°C 61% 4.2 mph N6.8 kmh N 11.0 mph17.7 kmh 29.84 in1010.5 mb 0.00 in0.0 mm 0.00 in0.0 mm 0.00 in0.0 mm
02:30 PM 77.9°F25.5°C 63.3°F17.4°C 61% 6.8 mph N10.9 kmh N 11.0 mph17.7 kmh 29.84 in1010.5 mb 0.00 in0.0 mm 0.00 in0.0 mm 0.00 in0.0 mm
02:31 PM 77.8°F25.4°C 63.3°F17.4°C 61% 8.3 mph N13.4 kmh N 13.0 mph20.9 kmh 29.84 in1010.5 mb 0.00 in0.0 mm 0.00 in0.0 mm 0.00 in0.0 mm
02:32 PM 77.7°F25.4°C 63.2°F17.3°C 61% 6.2 mph NNE10.0 kmh NNE 13.0 mph20.9 kmh 29.84 in1010.5 mb 0.00 in0.0 mm 0.00 in0.0 mm 0.00 in0.0 mm
02:33 PM 77.6°F25.3°C 63.5°F17.5°C 62% 8.0 mph NNE12.9 kmh NNE 13.0 mph20.9 kmh 29.84 in1010.5 mb 0.00 in0.0 mm 0.00 in0.0 mm 0.00 in0.0 mm
02:34 PM 77.5°F25.3°C 63.0°F17.2°C 61% 8.9 mph NNE14.3 kmh NNE 13.0 mph20.9 kmh 29.83 in1010.2 mb 0.00 in0.0 mm 0.00 in0.0 mm 0.00 in0.0 mm
02:35 PM 77.5°F25.3°C 63.0°F17.2°C 61% 7.7 mph NNE12.4 kmh NNE 13.0 mph20.9 kmh 29.83 in1010.2 mb 0.00 in0.0 mm 0.00 in0.0 mm 0.00 in0.0 mm
02:36 PM 77.4°F25.2°C 62.9°F17.2°C 61% 8.0 mph N12.9 kmh N 11.0 mph17.7 kmh 29.83 in1010.2 mb 0.00 in0.0 mm 0.00 in0.0 mm 0.00 in0.0 mm
02:37 PM 77.4°F25.2°C 62.9°F17.2°C 61% 6.8 mph NNE10.9 kmh NNE 10.0 mph16.1 kmh 29.83 in1010.2 mb 0.00 in0.0 mm 0.00 in0.0 mm 0.00 in0.0 mm
02:38 PM 77.4°F25.2°C 62.9°F17.2°C 61% 9.5 mph N15.3 kmh N 11.0 mph17.7 kmh 29.83 in1010.2 mb 0.00 in0.0 mm 0.00 in0.0 mm 0.00 in0.0 mm
02:39 PM 77.4°F25.2°C 62.9°F17.2°C 61% 7.4 mph NNE11.9 kmh NNE 11.0 mph17.7 kmh 29.83 in1010.2 mb 0.00 in0.0 mm 0.00 in0.0 mm 0.00 in0.0 mm
02:40 PM 77.3°F25.2°C 62.8°F17.1°C 61% 6.9 mph N11.1 kmh N 12.0 mph19.3 kmh 29.83 in1010.2 mb 0.00 in0.0 mm 0.00 in0.0 mm 0.00 in0.0 mm
02:41 PM 77.3°F25.2°C 62.8°F17.1°C 61% 6.5 mph N10.5 kmh N 12.0 mph19.3 kmh 29.83 in1010.2 mb 0.00 in0.0 mm 0.00 in0.0 mm 0.00 in0.0 mm
02:42 PM 77.3°F25.2°C 62.8°F17.1°C 61% 5.4 mph N8.7 kmh N 11.0 mph17.7 kmh 29.83 in1010.2 mb 0.00 in0.0 mm 0.00 in0.0 mm 0.00 in0.0 mm
02:43 PM 77.3°F25.2°C 62.8°F17.1°C 61% 2.8 mph N4.5 kmh N 8.0 mph12.9 kmh 29.83 in1010.2 mb 0.00 in0.0 mm 0.00 in0.0 mm 0.00 in0.0 mm
02:44 PM 77.4°F25.2°C 62.9°F17.2°C 61% 4.5 mph N7.2 kmh N 10.0 mph16.1 kmh 29.82 in1009.8 mb 0.00 in0.0 mm 0.00 in0.0 mm 0.00 in0.0 mm
02:45 PM 77.4°F25.2°C 62.9°F17.2°C 61% 6.4 mph N10.3 kmh N 10.0 mph16.1 kmh 29.82 in1009.8 mb 0.00 in0.0 mm 0.00 in0.0 mm 0.00 in0.0 mm
02:46 PM 77.4°F25.2°C 62.9°F17.2°C 61% 5.2 mph N8.4 kmh N 10.0 mph16.1 kmh 29.83 in1010.2 mb 0.00 in0.0 mm 0.00 in0.0 mm 0.00 in0.0 mm
02:47 PM 77.4°F25.2°C 62.9°F17.2°C 61% 6.4 mph N10.3 kmh N 10.0 mph16.1 kmh 29.83 in1010.2 mb 0.00 in0.0 mm 0.00 in0.0 mm 0.00 in0.0 mm
02:48 PM 77.5°F25.3°C 63.0°F17.2°C 61% 5.6 mph N9.0 kmh N 10.0 mph16.1 kmh 29.83 in1010.2 mb 0.00 in0.0 mm 0.00 in0.0 mm 0.00 in0.0 mm
02:49 PM 77.5°F25.3°C 63.0°F17.2°C 61% 4.9 mph N7.9 kmh N 9.0 mph14.5 kmh 29.83 in1010.2 mb 0.00 in0.0 mm 0.00 in0.0 mm 0.00 in0.0 mm
02:50 PM 77.4°F25.2°C 63.3°F17.4°C 62% 5.1 mph N8.2 kmh N 9.0 mph14.5 kmh 29.84 in1010.5 mb 0.00 in0.0 mm 0.00 in0.0 mm 0.00 in0.0 mm
02:51 PM 77.4°F25.2°C 63.3°F17.4°C 62% 4.7 mph N7.6 kmh N 8.0 mph12.9 kmh 29.84 in1010.5 mb 0.00 in0.0 mm 0.00 in0.0 mm 0.00 in0.0 mm
02:52 PM 77.4°F25.2°C 63.3°F17.4°C 62% 5.5 mph NNW8.9 kmh NNW 9.0 mph14.5 kmh 29.84 in1010.5 mb 0.00 in0.0 mm 0.00 in0.0 mm 0.00 in0.0 mm
02:53 PM 77.4°F25.2°C 63.3°F17.4°C 62% 5.8 mph NNW9.3 kmh NNW 9.0 mph14.5 kmh 29.84 in1010.5 mb 0.00 in0.0 mm 0.00 in0.0 mm 0.00 in0.0 mm
02:54 PM 77.4°F25.2°C 63.3°F17.4°C 62% 3.7 mph NNW6.0 kmh NNW 9.0 mph14.5 kmh 29.84 in1010.5 mb 0.00 in0.0 mm 0.00 in0.0 mm 0.00 in0.0 mm
02:55 PM 77.4°F25.2°C 63.3°F17.4°C 62% 5.4 mph NW8.7 kmh NW 9.0 mph14.5 kmh 29.84 in1010.5 mb 0.00 in0.0 mm 0.00 in0.0 mm 0.00 in0.0 mm
02:56 PM 77.4°F25.2°C 63.3°F17.4°C 62% 4.4 mph NW7.1 kmh NW 9.0 mph14.5 kmh 29.84 in1010.5 mb 0.00 in0.0 mm 0.00 in0.0 mm 0.00 in0.0 mm
02:57 PM 77.4°F25.2°C 62.9°F17.2°C 61% 5.8 mph NW9.3 kmh NW 11.0 mph17.7 kmh 29.84 in1010.5 mb 0.00 in0.0 mm 0.00 in0.0 mm 0.00 in0.0 mm
02:58 PM 77.4°F25.2°C 62.9°F17.2°C 61% 4.8 mph NW7.7 kmh NW 11.0 mph17.7 kmh 29.84 in1010.5 mb 0.00 in0.0 mm 0.00 in0.0 mm 0.00 in0.0 mm
02:59 PM 77.4°F25.2°C 62.9°F17.2°C 61% 4.9 mph NW7.9 kmh NW 8.0 mph12.9 kmh 29.84 in1010.5 mb 0.00 in0.0 mm 0.00 in0.0 mm 0.00 in0.0 mm
03:00 PM 77.3°F25.2°C 62.8°F17.1°C 61% 4.6 mph NW7.4 kmh NW 7.0 mph11.3 kmh 29.85 in1010.8 mb 0.00 in0.0 mm 0.00 in0.0 mm 0.00 in0.0 mm
03:01 PM 77.3°F25.2°C 63.2°F17.3°C 62% 3.0 mph NW4.8 kmh NW 7.0 mph11.3 kmh 29.85 in1010.8 mb 0.00 in0.0 mm 0.00 in0.0 mm 0.00 in0.0 mm
03:02 PM 77.2°F25.1°C 63.2°F17.3°C 62% 0.5 mph NW0.8 kmh NW 5.0 mph8.0 kmh 29.85 in1010.8 mb 0.00 in0.0 mm 0.00 in0.0 mm 0.00 in0.0 mm
03:03 PM 77.2°F25.1°C 63.2°F17.3°C 62% 0.3 mph NW0.5 kmh NW 2.0 mph3.2 kmh 29.84 in1010.5 mb 0.00 in0.0 mm 0.00 in0.0 mm 0.00 in0.0 mm
03:04 PM 77.1°F25.1°C 63.1°F17.3°C 62% 2.3 mph NW3.7 kmh NW 5.0 mph8.0 kmh 29.84 in1010.5 mb 0.00 in0.0 mm 0.00 in0.0 mm 0.00 in0.0 mm
03:05 PM 77.1°F25.1°C 63.1°F17.3°C 62% 2.9 mph NW4.7 kmh NW 5.0 mph8.0 kmh 29.84 in1010.5 mb 0.00 in0.0 mm 0.00 in0.0 mm 0.00 in0.0 mm
03:06 PM 77.1°F25.1°C 63.1°F17.3°C 62% 4.1 mph NW6.6 kmh NW 6.0 mph9.7 kmh 29.85 in1010.8 mb 0.00 in0.0 mm 0.00 in0.0 mm 0.00 in0.0 mm
03:07 PM 77.0°F25.0°C 63.0°F17.2°C 62% 4.0 mph NW6.4 kmh NW 8.0 mph12.9 kmh 29.85 in1010.8 mb 0.00 in0.0 mm 0.00 in0.0 mm 0.00 in0.0 mm
03:08 PM 76.9°F24.9°C 63.3°F17.4°C 63% 3.5 mph NW5.6 kmh NW 8.0 mph12.9 kmh 29.85 in1010.8 mb 0.00 in0.0 mm 0.00 in0.0 mm 0.00 in0.0 mm
03:09 PM 76.9°F24.9°C 63.3°F17.4°C 63% 5.5 mph NW8.9 kmh NW 12.0 mph19.3 kmh 29.85 in1010.8 mb 0.00 in0.0 mm 0.00 in0.0 mm 0.00 in0.0 mm
03:10 PM 76.7°F24.8°C 63.6°F17.6°C 64% 7.6 mph NW12.2 kmh NW 12.0 mph19.3 kmh 29.85 in1010.8 mb 0.00 in0.0 mm 0.00 in0.0 mm 0.00 in0.0 mm
03:11 PM 76.6°F24.8°C 63.5°F17.5°C 64% 6.0 mph WNW9.7 kmh WNW 10.0 mph16.1 kmh 29.85 in1010.8 mb 0.00 in0.0 mm 0.00 in0.0 mm 0.00 in0.0 mm
03:12 PM 76.4°F24.7°C 63.3°F17.4°C 64% 8.1 mph NW13.0 kmh NW 12.0 mph19.3 kmh 29.85 in1010.8 mb 0.00 in0.0 mm 0.00 in0.0 mm 0.00 in0.0 mm
03:13 PM 76.2°F24.6°C 63.6°F17.6°C 65% 4.7 mph NW7.6 kmh NW 11.0 mph17.7 kmh 29.85 in1010.8 mb 0.00 in0.0 mm 0.00 in0.0 mm 0.00 in0.0 mm
03:14 PM 76.0°F24.4°C 63.8°F17.7°C 66% 2.9 mph NW4.7 kmh NW 9.0 mph14.5 kmh 29.85 in1010.8 mb 0.00 in0.0 mm 0.00 in0.0 mm 0.00 in0.0 mm
03:15 PM 75.9°F24.4°C 63.7°F17.6°C 66% 3.0 mph NW4.8 kmh NW 9.0 mph14.5 kmh 29.85 in1010.8 mb 0.00 in0.0 mm 0.00 in0.0 mm 0.00 in0.0 mm
03:16 PM 75.7°F24.3°C 63.5°F17.5°C 66% 8.9 mph WNW14.3 kmh WNW 13.0 mph20.9 kmh 29.85 in1010.8 mb 0.00 in0.0 mm 0.00 in0.0 mm 0.00 in0.0 mm
03:17 PM 75.6°F24.2°C 63.4°F17.4°C 66% 5.4 mph W8.7 kmh W 13.0 mph20.9 kmh 29.85 in1010.8 mb 0.00 in0.0 mm 0.00 in0.0 mm 0.00 in0.0 mm
03:18 PM 75.4°F24.1°C 63.2°F17.3°C 66% 6.6 mph W10.6 kmh W 9.0 mph14.5 kmh 29.85 in1010.8 mb 0.00 in0.0 mm 0.00 in0.0 mm 0.00 in0.0 mm
03:19 PM 75.3°F24.1°C 63.1°F17.3°C 66% 2.4 mph WNW3.9 kmh WNW 9.0 mph14.5 kmh 29.85 in1010.8 mb 0.00 in0.0 mm 0.00 in0.0 mm 0.00 in0.0 mm
03:20 PM 75.2°F24.0°C 63.5°F17.5°C 67% 4.0 mph WNW6.4 kmh WNW 7.0 mph11.3 kmh 29.85 in1010.8 mb 0.00 in0.0 mm 0.00 in0.0 mm 0.00 in0.0 mm
03:21 PM 75.1°F23.9°C 63.4°F17.4°C 67% 3.5 mph WNW5.6 kmh WNW 7.0 mph11.3 kmh 29.85 in1010.8 mb 0.00 in0.0 mm 0.00 in0.0 mm 0.00 in0.0 mm
03:22 PM 75.1°F23.9°C 63.4°F17.4°C 67% 5.0 mph WNW8.0 kmh WNW 8.0 mph12.9 kmh 29.85 in1010.8 mb 0.00 in0.0 mm 0.00 in0.0 mm 0.00 in0.0 mm
03:23 PM 75.0°F23.9°C 63.3°F17.4°C 67% 3.6 mph WNW5.8 kmh WNW 8.0 mph12.9 kmh 29.85 in1010.8 mb 0.00 in0.0 mm 0.00 in0.0 mm 0.00 in0.0 mm
03:24 PM 74.9°F23.8°C 63.2°F17.3°C 67% 2.1 mph WNW3.4 kmh WNW 7.0 mph11.3 kmh 29.85 in1010.8 mb 0.00 in0.0 mm 0.00 in0.0 mm 0.00 in0.0 mm
03:25 PM 74.9°F23.8°C 63.2°F17.3°C 67% 3.3 mph WNW5.3 kmh WNW 8.0 mph12.9 kmh 29.85 in1010.8 mb 0.00 in0.0 mm 0.00 in0.0 mm 0.00 in0.0 mm
03:26 PM 74.8°F23.8°C 63.1°F17.3°C 67% 7.9 mph NW12.7 kmh NW 10.0 mph16.1 kmh 29.85 in1010.8 mb 0.00 in0.0 mm 0.00 in0.0 mm 0.00 in0.0 mm
03:27 PM 74.8°F23.8°C 63.1°F17.3°C 67% 6.5 mph NW10.5 kmh NW 10.0 mph16.1 kmh 29.85 in1010.8 mb 0.00 in0.0 mm 0.00 in0.0 mm 0.00 in0.0 mm
03:28 PM 74.7°F23.7°C 63.0°F17.2°C 67% 4.5 mph NW7.2 kmh NW 9.0 mph14.5 kmh 29.84 in1010.5 mb 0.00 in0.0 mm 0.00 in0.0 mm 0.00 in0.0 mm
03:29 PM 74.6°F23.7°C 62.9°F17.2°C 67% 4.7 mph NW7.6 kmh NW 8.0 mph12.9 kmh 29.84 in1010.5 mb 0.00 in0.0 mm 0.00 in0.0 mm 0.00 in0.0 mm
03:30 PM 74.6°F23.7°C 62.9°F17.2°C 67% 1.0 mph NW1.6 kmh NW 8.0 mph12.9 kmh 29.84 in1010.5 mb 0.00 in0.0 mm 0.00 in0.0 mm 0.00 in0.0 mm
03:31 PM 74.6°F23.7°C 62.9°F17.2°C 67% 0.6 mph NW1.0 kmh NW 3.0 mph4.8 kmh 29.84 in1010.5 mb 0.00 in0.0 mm 0.00 in0.0 mm 0.00 in0.0 mm
03:32 PM 74.6°F23.7°C 62.9°F17.2°C 67% 4.5 mph NNW7.2 kmh NNW 9.0 mph14.5 kmh 29.84 in1010.5 mb 0.00 in0.0 mm 0.00 in0.0 mm 0.00 in0.0 mm
03:33 PM 74.5°F23.6°C 62.8°F17.1°C 67% 2.9 mph NNW4.7 kmh NNW 9.0 mph14.5 kmh 29.84 in1010.5 mb 0.00 in0.0 mm 0.00 in0.0 mm 0.00 in0.0 mm
03:34 PM 74.4°F23.6°C 62.7°F17.1°C 67% 2.5 mph NNW4.0 kmh NNW 5.0 mph8.0 kmh 29.84 in1010.5 mb 0.00 in0.0 mm 0.00 in0.0 mm 0.00 in0.0 mm
03:35 PM 74.4°F23.6°C 62.7°F17.1°C 67% 4.5 mph NNW7.2 kmh NNW 8.0 mph12.9 kmh 29.84 in1010.5 mb 0.00 in0.0 mm 0.00 in0.0 mm 0.00 in0.0 mm
03:36 PM 74.3°F23.5°C 62.2°F16.8°C 66% 5.6 mph NW9.0 kmh NW 10.0 mph16.1 kmh 29.84 in1010.5 mb 0.00 in0.0 mm 0.00 in0.0 mm 0.00 in0.0 mm
03:37 PM 74.3°F23.5°C 62.2°F16.8°C 66% 4.3 mph NW6.9 kmh NW 10.0 mph16.1 kmh 29.84 in1010.5 mb 0.00 in0.0 mm 0.00 in0.0 mm 0.00 in0.0 mm
03:38 PM 74.3°F23.5°C 62.2°F16.8°C 66% 5.4 mph NNW8.7 kmh NNW 10.0 mph16.1 kmh 29.84 in1010.5 mb 0.00 in0.0 mm 0.00 in0.0 mm 0.00 in0.0 mm
03:39 PM 74.2°F23.4°C 62.1°F16.7°C 66% 2.2 mph NNW3.5 kmh NNW 10.0 mph16.1 kmh 29.84 in1010.5 mb 0.00 in0.0 mm 0.00 in0.0 mm 0.00 in0.0 mm
03:40 PM 74.2°F23.4°C 62.1°F16.7°C 66% 4.4 mph NNW7.1 kmh NNW 6.0 mph9.7 kmh 29.84 in1010.5 mb 0.00 in0.0 mm 0.00 in0.0 mm 0.00 in0.0 mm
03:41 PM 74.2°F23.4°C 62.1°F16.7°C 66% 3.8 mph NNW6.1 kmh NNW 8.0 mph12.9 kmh 29.84 in1010.5 mb 0.00 in0.0 mm 0.00 in0.0 mm 0.00 in0.0 mm
03:42 PM 74.2°F23.4°C 61.7°F16.5°C 65% 2.8 mph NNW4.5 kmh NNW 8.0 mph12.9 kmh 29.84 in1010.5 mb 0.00 in0.0 mm 0.00 in0.0 mm 0.00 in0.0 mm
03:43 PM 74.2°F23.4°C 61.7°F16.5°C 65% 0.6 mph NNW1.0 kmh NNW 4.0 mph6.4 kmh 29.84 in1010.5 mb 0.00 in0.0 mm 0.00 in0.0 mm 0.00 in0.0 mm
03:44 PM 74.3°F23.5°C 61.8°F16.6°C 65% 0.4 mph NNW0.6 kmh NNW 1.0 mph1.6 kmh 29.84 in1010.5 mb 0.00 in0.0 mm 0.00 in0.0 mm 0.00 in0.0 mm
03:45 PM 74.2°F23.4°C 61.7°F16.5°C 65% 0.2 mph NNW0.3 kmh NNW 1.0 mph1.6 kmh 29.84 in1010.5 mb 0.00 in0.0 mm 0.00 in0.0 mm 0.00 in0.0 mm
03:46 PM 74.3°F23.5°C 62.2°F16.8°C 66% 1.6 mph NNW2.6 kmh NNW 3.0 mph4.8 kmh 29.84 in1010.5 mb 0.00 in0.0 mm 0.00 in0.0 mm 0.00 in0.0 mm
03:47 PM 74.3°F23.5°C 62.2°F16.8°C 66% 0.5 mph NNW0.8 kmh NNW 3.0 mph4.8 kmh 29.84 in1010.5 mb 0.00 in0.0 mm 0.00 in0.0 mm 0.00 in0.0 mm
03:48 PM 74.3°F23.5°C 62.2°F16.8°C 66% 3.6 mph NNW5.8 kmh NNW 5.0 mph8.0 kmh 29.84 in1010.5 mb 0.00 in0.0 mm 0.00 in0.0 mm 0.00 in0.0 mm
03:49 PM 74.3°F23.5°C 62.6°F17.0°C 67% 5.0 mph NNW8.0 kmh NNW 10.0 mph16.1 kmh 29.84 in1010.5 mb 0.00 in0.0 mm 0.00 in0.0 mm 0.00 in0.0 mm
03:50 PM 74.2°F23.4°C 62.9°F17.2°C 68% 4.1 mph NNW6.6 kmh NNW 10.0 mph16.1 kmh 29.84 in1010.5 mb 0.00 in0.0 mm 0.00 in0.0 mm 0.00 in0.0 mm
03:51 PM 74.1°F23.4°C 62.8°F17.1°C 68% 3.6 mph NNW5.8 kmh NNW 6.0 mph9.7 kmh 29.84 in1010.5 mb 0.00 in0.0 mm 0.00 in0.0 mm 0.00 in0.0 mm
03:52 PM 74.0°F23.3°C 63.2°F17.3°C 69% 3.0 mph NNW4.8 kmh NNW 6.0 mph9.7 kmh 29.84 in1010.5 mb 0.00 in0.0 mm 0.00 in0.0 mm 0.00 in0.0 mm
03:53 PM 73.8°F23.2°C 63.0°F17.2°C 69% 3.4 mph NNW5.5 kmh NNW 5.0 mph8.0 kmh 29.84 in1010.5 mb 0.00 in0.0 mm 0.00 in0.0 mm 0.00 in0.0 mm
03:54 PM 73.7°F23.2°C 62.9°F17.2°C 69% 2.1 mph NNW3.4 kmh NNW 5.0 mph8.0 kmh 29.84 in1010.5 mb 0.00 in0.0 mm 0.00 in0.0 mm 0.00 in0.0 mm
03:55 PM 73.5°F23.1°C 63.1°F17.3°C 70% 2.4 mph NNW3.9 kmh NNW 4.0 mph6.4 kmh 29.84 in1010.5 mb 0.00 in0.0 mm 0.00 in0.0 mm 0.00 in0.0 mm
03:56 PM 73.4°F23.0°C 63.4°F17.4°C 71% 2.7 mph NNW4.3 kmh NNW 4.0 mph6.4 kmh 29.84 in1010.5 mb 0.00 in0.0 mm 0.00 in0.0 mm 0.00 in0.0 mm
03:57 PM 73.3°F22.9°C 63.3°F17.4°C 71% 2.9 mph NNW4.7 kmh NNW 4.0 mph6.4 kmh 29.84 in1010.5 mb 0.00 in0.0 mm 0.00 in0.0 mm 0.00 in0.0 mm
03:58 PM 73.1°F22.8°C 63.5°F17.5°C 72% 3.2 mph NNW5.1 kmh NNW 5.0 mph8.0 kmh 29.84 in1010.5 mb 0.00 in0.0 mm 0.00 in0.0 mm 0.00 in0.0 mm
03:59 PM 73.0°F22.8°C 63.4°F17.4°C 72% 4.7 mph NNW7.6 kmh NNW 8.0 mph12.9 kmh 29.84 in1010.5 mb 0.00 in0.0 mm 0.00 in0.0 mm 0.00 in0.0 mm
04:00 PM 72.9°F22.7°C 63.3°F17.4°C 72% 4.4 mph NNW7.1 kmh NNW 8.0 mph12.9 kmh 29.84 in1010.5 mb 0.00 in0.0 mm 0.00 in0.0 mm 0.00 in0.0 mm
04:01 PM 72.8°F22.7°C 63.2°F17.3°C 72% 4.5 mph NNW7.2 kmh NNW 8.0 mph12.9 kmh 29.84 in1010.5 mb 0.00 in0.0 mm 0.00 in0.0 mm 0.00 in0.0 mm
04:02 PM 72.7°F22.6°C 63.1°F17.3°C 72% 4.4 mph NNW7.1 kmh NNW 8.0 mph12.9 kmh 29.84 in1010.5 mb 0.00 in0.0 mm 0.00 in0.0 mm 0.00 in0.0 mm
04:03 PM 72.7°F22.6°C 63.5°F17.5°C 73% 2.6 mph NNW4.2 kmh NNW 8.0 mph12.9 kmh 29.84 in1010.5 mb 0.00 in0.0 mm 0.00 in0.0 mm 0.00 in0.0 mm
04:04 PM 72.7°F22.6°C 63.5°F17.5°C 73% 4.2 mph NNW6.8 kmh NNW 8.0 mph12.9 kmh 29.84 in1010.5 mb 0.00 in0.0 mm 0.00 in0.0 mm 0.00 in0.0 mm
04:05 PM 72.7°F22.6°C 63.5°F17.5°C 73% 4.2 mph NNW6.8 kmh NNW 8.0 mph12.9 kmh 29.85 in1010.8 mb 0.00 in0.0 mm 0.00 in0.0 mm 0.00 in0.0 mm
04:06 PM 72.7°F22.6°C 63.5°F17.5°C 73% 1.0 mph NNW1.6 kmh NNW 6.0 mph9.7 kmh 29.84 in1010.5 mb 0.00 in0.0 mm 0.00 in0.0 mm 0.00 in0.0 mm
04:07 PM 72.6°F22.6°C 63.4°F17.4°C 73% 2.4 mph NNW3.9 kmh NNW 5.0 mph8.0 kmh 29.85 in1010.8 mb 0.00 in0.0 mm 0.00 in0.0 mm 0.00 in0.0 mm
04:08 PM 72.7°F22.6°C 63.5°F17.5°C 73% 1.2 mph NNW1.9 kmh NNW 4.0 mph6.4 kmh 29.84 in1010.5 mb 0.00 in0.0 mm 0.00 in0.0 mm 0.00 in0.0 mm
04:09 PM 72.6°F22.6°C 63.4°F17.4°C 73% 0.8 mph NNW1.3 kmh NNW 4.0 mph6.4 kmh 29.84 in1010.5 mb 0.00 in0.0 mm 0.00 in0.0 mm 0.00 in0.0 mm
04:10 PM 72.6°F22.6°C 63.4°F17.4°C 73% 0.2 mph NNW0.3 kmh NNW 4.0 mph6.4 kmh 29.84 in1010.5 mb 0.00 in0.0 mm 0.00 in0.0 mm 0.00 in0.0 mm
04:11 PM 72.6°F22.6°C 63.4°F17.4°C 73% Calm Calm 1.0 mph1.6 kmh 29.84 in1010.5 mb 0.00 in0.0 mm 0.00 in0.0 mm 0.00 in0.0 mm
04:12 PM 72.6°F22.6°C 63.4°F17.4°C 73% Calm Calm -- 29.84 in1010.5 mb 0.00 in0.0 mm 0.00 in0.0 mm 0.00 in0.0 mm
04:13 PM 72.6°F22.6°C 63.4°F17.4°C 73% Calm Calm -- 29.85 in1010.8 mb 0.00 in0.0 mm 0.00 in0.0 mm 0.00 in0.0 mm
04:14 PM 72.6°F22.6°C 63.4°F17.4°C 73% Calm Calm -- 29.84 in1010.5 mb 0.00 in0.0 mm 0.00 in0.0 mm 0.00 in0.0 mm
04:15 PM 72.6°F22.6°C 63.4°F17.4°C 73% Calm Calm -- 29.84 in1010.5 mb 0.00 in0.0 mm 0.00 in0.0 mm 0.00 in0.0 mm
04:16 PM 72.6°F22.6°C 63.4°F17.4°C 73% Calm Calm -- 29.84 in1010.5 mb 0.00 in0.0 mm 0.00 in0.0 mm 0.00 in0.0 mm
04:17 PM 72.6°F22.6°C 63.4°F17.4°C 73% Calm Calm -- 29.85 in1010.8 mb 0.00 in0.0 mm 0.00 in0.0 mm 0.00 in0.0 mm
04:18 PM 72.6°F22.6°C 63.4°F17.4°C 73% Calm Calm -- 29.85 in1010.8 mb 0.00 in0.0 mm 0.00 in0.0 mm 0.00 in0.0 mm
04:19 PM 72.6°F22.6°C 63.4°F17.4°C 73% Calm Calm -- 29.85 in1010.8 mb 0.00 in0.0 mm 0.00 in0.0 mm 0.00 in0.0 mm
04:20 PM 72.6°F22.6°C 63.4°F17.4°C 73% Calm Calm -- 29.85 in1010.8 mb 0.00 in0.0 mm 0.00 in0.0 mm 0.00 in0.0 mm
04:21 PM 72.7°F22.6°C 63.9°F17.7°C 74% Calm Calm -- 29.86 in1011.2 mb 0.00 in0.0 mm 0.00 in0.0 mm 0.00 in0.0 mm
04:22 PM 72.7°F22.6°C 63.9°F17.7°C 74% 1.6 mph NW2.6 kmh NW 4.0 mph6.4 kmh 29.86 in1011.2 mb 0.00 in0.0 mm 0.00 in0.0 mm 0.00 in0.0 mm
04:23 PM 72.7°F22.6°C 64.3°F17.9°C 75% 1.8 mph WSW2.9 kmh WSW 6.0 mph9.7 kmh 29.86 in1011.2 mb 0.00 in0.0 mm 0.00 in0.0 mm 0.00 in0.0 mm
04:24 PM 72.7°F22.6°C 64.7°F18.2°C 76% 1.2 mph SW1.9 kmh SW 6.0 mph9.7 kmh 29.87 in1011.5 mb 0.00 in0.0 mm 0.00 in0.0 mm 0.00 in0.0 mm
04:25 PM 72.6°F22.6°C 64.6°F18.1°C 76% 2.9 mph SSW4.7 kmh SSW 6.0 mph9.7 kmh 29.87 in1011.5 mb 0.00 in0.0 mm 0.00 in0.0 mm 0.00 in0.0 mm
04:26 PM 72.4°F22.4°C 64.4°F18.0°C 76% 1.6 mph SSW2.6 kmh SSW 6.0 mph9.7 kmh 29.88 in1011.9 mb 0.00 in0.0 mm 0.00 in0.0 mm 0.00 in0.0 mm
04:27 PM 72.3°F22.4°C 64.3°F17.9°C 76% 1.1 mph SSW1.8 kmh SSW 6.0 mph9.7 kmh 29.87 in1011.5 mb 0.00 in0.0 mm 0.00 in0.0 mm 0.00 in0.0 mm
04:28 PM 72.2°F22.3°C 63.8°F17.7°C 75% 2.6 mph SSW4.2 kmh SSW 8.0 mph12.9 kmh 29.87 in1011.5 mb 0.00 in0.0 mm 0.00 in0.0 mm 0.00 in0.0 mm
04:29 PM 72.1°F22.3°C 63.7°F17.6°C 75% 1.6 mph SSW2.6 kmh SSW 8.0 mph12.9 kmh 29.87 in1011.5 mb 0.00 in0.0 mm 0.00 in0.0 mm 0.00 in0.0 mm
04:30 PM 72.0°F22.2°C 63.6°F17.6°C 75% 0.5 mph SSW0.8 kmh SSW 5.0 mph8.0 kmh 29.88 in1011.9 mb 0.00 in0.0 mm 0.00 in0.0 mm 0.00 in0.0 mm
04:31 PM 72.0°F22.2°C 63.6°F17.6°C 75% 0.6 mph SSW1.0 kmh SSW 3.0 mph4.8 kmh 29.88 in1011.9 mb 0.00 in0.0 mm 0.00 in0.0 mm 0.00 in0.0 mm
04:32 PM 71.9°F22.2°C 63.5°F17.5°C 75% 0.7 mph SSW1.1 kmh SSW 3.0 mph4.8 kmh 29.88 in1011.9 mb 0.01 in0.3 mm 0.60 in15.2 mm 0.01 in0.3 mm
04:33 PM 71.9°F22.2°C 63.5°F17.5°C 75% 0.1 mph SSW0.2 kmh SSW 3.0 mph4.8 kmh 29.88 in1011.9 mb 0.01 in0.3 mm 0.00 in0.0 mm 0.01 in0.3 mm
04:34 PM 71.8°F22.1°C 63.4°F17.4°C 75% 0.2 mph SSW0.3 kmh SSW 3.0 mph4.8 kmh 29.88 in1011.9 mb 0.01 in0.3 mm 0.00 in0.0 mm 0.01 in0.3 mm
04:35 PM 71.7°F22.1°C 63.3°F17.4°C 75% 2.9 mph SSW4.7 kmh SSW 8.0 mph12.9 kmh 29.88 in1011.9 mb 0.01 in0.3 mm 0.00 in0.0 mm 0.01 in0.3 mm
04:36 PM 71.6°F22.0°C 63.2°F17.3°C 75% 0.7 mph SSW1.1 kmh SSW 8.0 mph12.9 kmh 29.88 in1011.9 mb 0.01 in0.3 mm 0.00 in0.0 mm 0.01 in0.3 mm
04:37 PM 71.5°F21.9°C 63.5°F17.5°C 76% 2.5 mph SW4.0 kmh SW 10.0 mph16.1 kmh 29.88 in1011.9 mb 0.01 in0.3 mm 0.00 in0.0 mm 0.01 in0.3 mm
04:38 PM 71.4°F21.9°C 63.1°F17.3°C 75% 3.8 mph SW6.1 kmh SW 10.0 mph16.1 kmh 29.88 in1011.9 mb 0.01 in0.3 mm 0.00 in0.0 mm 0.01 in0.3 mm
04:39 PM 71.3°F21.8°C 63.3°F17.4°C 76% 1.1 mph SW1.8 kmh SW 8.0 mph12.9 kmh 29.89 in1012.2 mb 0.01 in0.3 mm 0.00 in0.0 mm 0.01 in0.3 mm
04:40 PM 71.3°F21.8°C 63.3°F17.4°C 76% 0.7 mph SW1.1 kmh SW 5.0 mph8.0 kmh 29.89 in1012.2 mb 0.01 in0.3 mm 0.00 in0.0 mm 0.01 in0.3 mm
04:41 PM 71.2°F21.8°C 63.2°F17.3°C 76% 3.7 mph SW6.0 kmh SW 9.0 mph14.5 kmh 29.89 in1012.2 mb 0.01 in0.3 mm 0.00 in0.0 mm 0.01 in0.3 mm
04:42 PM 71.2°F21.8°C 63.6°F17.6°C 77% 0.2 mph SW0.3 kmh SW 9.0 mph14.5 kmh 29.89 in1012.2 mb 0.01 in0.3 mm 0.00 in0.0 mm 0.01 in0.3 mm
04:43 PM 71.1°F21.7°C 63.9°F17.7°C 78% 0.5 mph SW0.8 kmh SW 2.0 mph3.2 kmh 29.89 in1012.2 mb 0.01 in0.3 mm 0.00 in0.0 mm 0.01 in0.3 mm
04:44 PM 71.0°F21.7°C 63.8°F17.7°C 78% 0.8 mph SW1.3 kmh SW 2.0 mph3.2 kmh 29.89 in1012.2 mb 0.01 in0.3 mm 0.00 in0.0 mm 0.01 in0.3 mm
04:45 PM 70.9°F21.6°C 63.7°F17.6°C 78% 1.2 mph SW1.9 kmh SW 3.0 mph4.8 kmh 29.89 in1012.2 mb 0.01 in0.3 mm 0.00 in0.0 mm 0.01 in0.3 mm
04:46 PM 70.8°F21.6°C 63.6°F17.6°C 78% 0.7 mph SW1.1 kmh SW 3.0 mph4.8 kmh 29.89 in1012.2 mb 0.01 in0.3 mm 0.00 in0.0 mm 0.01 in0.3 mm
04:47 PM 70.7°F21.5°C 63.9°F17.7°C 79% 0.2 mph SW0.3 kmh SW 1.0 mph1.6 kmh 29.89 in1012.2 mb 0.01 in0.3 mm 0.00 in0.0 mm 0.01 in0.3 mm
04:48 PM 70.6°F21.4°C 64.1°F17.8°C 80% 1.0 mph SW1.6 kmh SW 3.0 mph4.8 kmh 29.89 in1012.2 mb 0.01 in0.3 mm 0.00 in0.0 mm 0.01 in0.3 mm
04:49 PM 70.5°F21.4°C 64.0°F17.8°C 80% 3.8 mph SW6.1 kmh SW 6.0 mph9.7 kmh 29.88 in1011.9 mb 0.01 in0.3 mm 0.00 in0.0 mm 0.01 in0.3 mm
04:50 PM 70.4°F21.3°C 63.9°F17.7°C 80% 3.3 mph SW5.3 kmh SW 6.0 mph9.7 kmh 29.89 in1012.2 mb 0.01 in0.3 mm 0.00 in0.0 mm 0.01 in0.3 mm
04:51 PM 70.3°F21.3°C 63.8°F17.7°C 80% 5.2 mph SW8.4 kmh SW 10.0 mph16.1 kmh 29.88 in1011.9 mb 0.02 in0.5 mm 0.60 in15.2 mm 0.02 in0.5 mm
04:52 PM 70.3°F21.3°C 63.8°F17.7°C 80% 4.7 mph SW7.6 kmh SW 10.0 mph16.1 kmh 29.88 in1011.9 mb 0.02 in0.5 mm 0.00 in0.0 mm 0.02 in0.5 mm
04:53 PM 70.2°F21.2°C 64.1°F17.8°C 81% 2.5 mph SW4.0 kmh SW 7.0 mph11.3 kmh 29.88 in1011.9 mb 0.02 in0.5 mm 0.00 in0.0 mm 0.02 in0.5 mm
04:54 PM 70.1°F21.2°C 64.0°F17.8°C 81% 1.1 mph SW1.8 kmh SW 5.0 mph8.0 kmh 29.88 in1011.9 mb 0.02 in0.5 mm 0.00 in0.0 mm 0.02 in0.5 mm
04:55 PM 70.0°F21.1°C 63.9°F17.7°C 81% 0.6 mph SW1.0 kmh SW 3.0 mph4.8 kmh 29.88 in1011.9 mb 0.02 in0.5 mm 0.00 in0.0 mm 0.02 in0.5 mm
04:56 PM 70.0°F21.1°C 63.9°F17.7°C 81% Calm Calm 1.0 mph1.6 kmh 29.88 in1011.9 mb 0.02 in0.5 mm 0.00 in0.0 mm 0.02 in0.5 mm
04:57 PM 69.9°F21.1°C 64.1°F17.8°C 82% 0.1 mph SW0.2 kmh SW 1.0 mph1.6 kmh 29.88 in1011.9 mb 0.02 in0.5 mm 0.00 in0.0 mm 0.02 in0.5 mm
04:58 PM 69.9°F21.1°C 64.1°F17.8°C 82% 0.2 mph SW0.3 kmh SW 1.0 mph1.6 kmh 29.88 in1011.9 mb 0.02 in0.5 mm 0.00 in0.0 mm 0.02 in0.5 mm
04:59 PM 69.9°F21.1°C 64.1°F17.8°C 82% 0.2 mph SW0.3 kmh SW 1.0 mph1.6 kmh 29.88 in1011.9 mb 0.02 in0.5 mm 0.00 in0.0 mm 0.02 in0.5 mm
05:00 PM 69.8°F21.0°C 64.0°F17.8°C 82% 0.5 mph SW0.8 kmh SW 2.0 mph3.2 kmh 29.88 in1011.9 mb 0.02 in0.5 mm 0.00 in0.0 mm 0.02 in0.5 mm
05:01 PM 69.7°F20.9°C 64.3°F17.9°C 83% 0.6 mph SW1.0 kmh SW 4.0 mph6.4 kmh 29.88 in1011.9 mb 0.02 in0.5 mm 0.00 in0.0 mm 0.02 in0.5 mm
05:02 PM 69.7°F20.9°C 64.3°F17.9°C 83% 0.1 mph SW0.2 kmh SW 4.0 mph6.4 kmh 29.87 in1011.5 mb 0.02 in0.5 mm 0.00 in0.0 mm 0.02 in0.5 mm
05:03 PM 69.7°F20.9°C 64.3°F17.9°C 83% 0.1 mph SW0.2 kmh SW 1.0 mph1.6 kmh 29.87 in1011.5 mb 0.02 in0.5 mm 0.00 in0.0 mm 0.02 in0.5 mm
05:04 PM 69.7°F20.9°C 64.3°F17.9°C 83% Calm Calm 1.0 mph1.6 kmh 29.87 in1011.5 mb 0.02 in0.5 mm 0.00 in0.0 mm 0.02 in0.5 mm
05:05 PM 69.6°F20.9°C 64.2°F17.9°C 83% Calm Calm -- 29.87 in1011.5 mb 0.02 in0.5 mm 0.00 in0.0 mm 0.02 in0.5 mm
05:06 PM 69.6°F20.9°C 64.2°F17.9°C 83% Calm Calm -- 29.87 in1011.5 mb 0.02 in0.5 mm 0.00 in0.0 mm 0.02 in0.5 mm
05:07 PM 69.6°F20.9°C 64.2°F17.9°C 83% Calm Calm -- 29.87 in1011.5 mb 0.02 in0.5 mm 0.00 in0.0 mm 0.02 in0.5 mm
05:08 PM 69.6°F20.9°C 64.2°F17.9°C 83% Calm Calm -- 29.87 in1011.5 mb 0.02 in0.5 mm 0.00 in0.0 mm 0.02 in0.5 mm
05:09 PM 69.5°F20.8°C 64.1°F17.8°C 83% 0.2 mph SW0.3 kmh SW 1.0 mph1.6 kmh 29.87 in1011.5 mb 0.02 in0.5 mm 0.00 in0.0 mm 0.02 in0.5 mm
05:10 PM 69.5°F20.8°C 64.1°F17.8°C 83% Calm Calm 1.0 mph1.6 kmh 29.87 in1011.5 mb 0.02 in0.5 mm 0.00 in0.0 mm 0.02 in0.5 mm
05:11 PM 69.5°F20.8°C 64.1°F17.8°C 83% Calm Calm -- 29.87 in1011.5 mb 0.02 in0.5 mm 0.00 in0.0 mm 0.02 in0.5 mm
05:12 PM 69.4°F20.8°C 64.0°F17.8°C 83% Calm Calm -- 29.86 in1011.2 mb 0.02 in0.5 mm 0.00 in0.0 mm 0.02 in0.5 mm
05:13 PM 69.4°F20.8°C 64.0°F17.8°C 83% Calm Calm -- 29.86 in1011.2 mb 0.02 in0.5 mm 0.00 in0.0 mm 0.02 in0.5 mm
05:14 PM 69.4°F20.8°C 64.0°F17.8°C 83% Calm Calm -- 29.86 in1011.2 mb 0.02 in0.5 mm 0.00 in0.0 mm 0.02 in0.5 mm
05:15 PM 69.4°F20.8°C 64.3°F17.9°C 84% Calm Calm -- 29.86 in1011.2 mb 0.02 in0.5 mm 0.00 in0.0 mm 0.02 in0.5 mm
05:16 PM 69.4°F20.8°C 64.3°F17.9°C 84% Calm Calm -- 29.86 in1011.2 mb 0.02 in0.5 mm 0.00 in0.0 mm 0.02 in0.5 mm
05:17 PM 69.3°F20.7°C 64.2°F17.9°C 84% Calm Calm -- 29.86 in1011.2 mb 0.02 in0.5 mm 0.00 in0.0 mm 0.02 in0.5 mm
05:18 PM 69.3°F20.7°C 63.9°F17.7°C 83% Calm Calm -- 29.86 in1011.2 mb 0.02 in0.5 mm 0.00 in0.0 mm 0.02 in0.5 mm
05:19 PM 69.2°F20.7°C 63.8°F17.7°C 83% Calm Calm -- 29.86 in1011.2 mb 0.02 in0.5 mm 0.00 in0.0 mm 0.02 in0.5 mm
05:20 PM 69.2°F20.7°C 63.8°F17.7°C 83% Calm Calm -- 29.86 in1011.2 mb 0.02 in0.5 mm 0.00 in0.0 mm 0.02 in0.5 mm
05:21 PM 69.2°F20.7°C 63.8°F17.7°C 83% Calm Calm -- 29.86 in1011.2 mb 0.02 in0.5 mm 0.00 in0.0 mm 0.02 in0.5 mm
05:22 PM 69.2°F20.7°C 63.8°F17.7°C 83% Calm Calm -- 29.86 in1011.2 mb 0.02 in0.5 mm 0.00 in0.0 mm 0.02 in0.5 mm
05:23 PM 69.2°F20.7°C 63.8°F17.7°C 83% Calm Calm -- 29.85 in1010.8 mb 0.02 in0.5 mm 0.00 in0.0 mm 0.02 in0.5 mm
05:24 PM 69.2°F20.7°C 63.8°F17.7°C 83% Calm Calm -- 29.86 in1011.2 mb 0.02 in0.5 mm 0.00 in0.0 mm 0.02 in0.5 mm
05:25 PM 69.2°F20.7°C 63.8°F17.7°C 83% Calm Calm -- 29.86 in1011.2 mb 0.02 in0.5 mm 0.00 in0.0 mm 0.02 in0.5 mm
05:26 PM 69.2°F20.7°C 63.8°F17.7°C 83% Calm Calm -- 29.86 in1011.2 mb 0.02 in0.5 mm 0.00 in0.0 mm 0.02 in0.5 mm
05:27 PM 69.2°F20.7°C 63.8°F17.7°C 83% Calm Calm -- 29.86 in1011.2 mb 0.02 in0.5 mm 0.00 in0.0 mm 0.02 in0.5 mm
05:28 PM 69.2°F20.7°C 63.8°F17.7°C 83% Calm Calm -- 29.85 in1010.8 mb 0.02 in0.5 mm 0.00 in0.0 mm 0.02 in0.5 mm
05:29 PM 69.2°F20.7°C 63.8°F17.7°C 83% Calm Calm -- 29.86 in1011.2 mb 0.02 in0.5 mm 0.00 in0.0 mm 0.02 in0.5 mm
05:30 PM 69.2°F20.7°C 63.8°F17.7°C 83% Calm Calm -- 29.86 in1011.2 mb 0.03 in0.8 mm 0.60 in15.2 mm 0.03 in0.8 mm
05:31 PM 69.1°F20.6°C 63.7°F17.6°C 83% Calm Calm -- 29.86 in1011.2 mb 0.03 in0.8 mm 0.00 in0.0 mm 0.03 in0.8 mm
05:32 PM 69.1°F20.6°C 63.7°F17.6°C 83% Calm Calm -- 29.86 in1011.2 mb 0.02 in0.5 mm 0.00 in0.0 mm 0.03 in0.8 mm
05:33 PM 69.1°F20.6°C 63.7°F17.6°C 83% Calm Calm -- 29.85 in1010.8 mb 0.02 in0.5 mm 0.00 in0.0 mm 0.03 in0.8 mm
05:34 PM 69.0°F20.6°C 63.6°F17.6°C 83% Calm Calm -- 29.85 in1010.8 mb 0.03 in0.8 mm 0.60 in15.2 mm 0.04 in1.0 mm
05:35 PM 69.0°F20.6°C 63.6°F17.6°C 83% Calm Calm -- 29.85 in1010.8 mb 0.03 in0.8 mm 0.00 in0.0 mm 0.04 in1.0 mm
05:36 PM 69.0°F20.6°C 63.3°F17.4°C 82% Calm Calm -- 29.85 in1010.8 mb 0.03 in0.8 mm 0.00 in0.0 mm 0.04 in1.0 mm
05:37 PM 69.0°F20.6°C 63.3°F17.4°C 82% Calm Calm -- 29.85 in1010.8 mb 0.04 in1.0 mm 0.60 in15.2 mm 0.05 in1.3 mm
05:38 PM 69.0°F20.6°C 63.6°F17.6°C 83% Calm Calm -- 29.85 in1010.8 mb 0.04 in1.0 mm 0.00 in0.0 mm 0.05 in1.3 mm
05:39 PM 69.0°F20.6°C 63.6°F17.6°C 83% Calm Calm -- 29.86 in1011.2 mb 0.04 in1.0 mm 0.00 in0.0 mm 0.05 in1.3 mm
05:40 PM 69.1°F20.6°C 63.7°F17.6°C 83% Calm Calm -- 29.86 in1011.2 mb 0.04 in1.0 mm 0.00 in0.0 mm 0.05 in1.3 mm
05:41 PM 69.0°F20.6°C 63.6°F17.6°C 83% Calm Calm -- 29.86 in1011.2 mb 0.04 in1.0 mm 0.00 in0.0 mm 0.05 in1.3 mm
05:42 PM 69.0°F20.6°C 63.6°F17.6°C 83% Calm Calm -- 29.86 in1011.2 mb 0.04 in1.0 mm 0.00 in0.0 mm 0.05 in1.3 mm
05:43 PM 69.0°F20.6°C 63.6°F17.6°C 83% Calm Calm -- 29.86 in1011.2 mb 0.04 in1.0 mm 0.00 in0.0 mm 0.05 in1.3 mm
05:44 PM 68.9°F20.5°C 63.5°F17.5°C 83% Calm Calm -- 29.86 in1011.2 mb 0.04 in1.0 mm 0.00 in0.0 mm 0.05 in1.3 mm
05:45 PM 68.9°F20.5°C 63.5°F17.5°C 83% Calm Calm -- 29.86 in1011.2 mb 0.05 in1.3 mm 0.60 in15.2 mm 0.06 in1.5 mm
05:46 PM 68.9°F20.5°C 63.9°F17.7°C 84% Calm Calm -- 29.86 in1011.2 mb 0.05 in1.3 mm 0.00 in0.0 mm 0.06 in1.5 mm
05:47 PM 68.9°F20.5°C 63.9°F17.7°C 84% 0.5 mph SW0.8 kmh SW 3.0 mph4.8 kmh 29.86 in1011.2 mb 0.05 in1.3 mm 0.00 in0.0 mm 0.06 in1.5 mm
05:48 PM 68.8°F20.4°C 64.1°F17.8°C 85% 1.7 mph SW2.7 kmh SW 3.0 mph4.8 kmh 29.86 in1011.2 mb 0.05 in1.3 mm 0.00 in0.0 mm 0.06 in1.5 mm
05:49 PM 68.8°F20.4°C 64.1°F17.8°C 85% 2.3 mph SSW3.7 kmh SSW 4.0 mph6.4 kmh 29.86 in1011.2 mb 0.05 in1.3 mm 0.00 in0.0 mm 0.06 in1.5 mm
05:50 PM 68.7°F20.4°C 64.0°F17.8°C 85% 0.8 mph S1.3 kmh S 4.0 mph6.4 kmh 29.86 in1011.2 mb 0.05 in1.3 mm 0.00 in0.0 mm 0.06 in1.5 mm
05:51 PM 68.6°F20.3°C 63.9°F17.7°C 85% 0.5 mph S0.8 kmh S 2.0 mph3.2 kmh 29.86 in1011.2 mb 0.04 in1.0 mm 0.00 in0.0 mm 0.06 in1.5 mm
05:52 PM 68.6°F20.3°C 64.2°F17.9°C 86% 0.9 mph S1.4 kmh S 2.0 mph3.2 kmh 29.86 in1011.2 mb 0.05 in1.3 mm 0.60 in15.2 mm 0.06 in1.5 mm
05:53 PM 68.5°F20.3°C 64.1°F17.8°C 86% 0.9 mph S1.4 kmh S 2.0 mph3.2 kmh 29.86 in1011.2 mb 0.05 in1.3 mm 0.00 in0.0 mm 0.06 in1.5 mm
05:54 PM 68.4°F20.2°C 63.7°F17.6°C 85% 0.7 mph S1.1 kmh S 2.0 mph3.2 kmh 29.86 in1011.2 mb 0.05 in1.3 mm 0.00 in0.0 mm 0.06 in1.5 mm
05:55 PM 68.4°F20.2°C 64.0°F17.8°C 86% 0.7 mph S1.1 kmh S 1.0 mph1.6 kmh 29.86 in1011.2 mb 0.05 in1.3 mm 0.00 in0.0 mm 0.06 in1.5 mm
05:56 PM 68.3°F20.2°C 63.9°F17.7°C 86% 1.0 mph S1.6 kmh S 2.0 mph3.2 kmh 29.86 in1011.2 mb 0.05 in1.3 mm 0.00 in0.0 mm 0.06 in1.5 mm
05:57 PM 68.2°F20.1°C 63.8°F17.7°C 86% 0.5 mph S0.8 kmh S 2.0 mph3.2 kmh 29.86 in1011.2 mb 0.05 in1.3 mm 0.00 in0.0 mm 0.06 in1.5 mm
05:58 PM 68.1°F20.1°C 63.7°F17.6°C 86% 1.1 mph S1.8 kmh S 3.0 mph4.8 kmh 29.86 in1011.2 mb 0.05 in1.3 mm 0.00 in0.0 mm 0.06 in1.5 mm
05:59 PM 68.0°F20.0°C 63.3°F17.4°C 85% 0.9 mph S1.4 kmh S 3.0 mph4.8 kmh 29.86 in1011.2 mb 0.05 in1.3 mm 0.00 in0.0 mm 0.06 in1.5 mm
06:00 PM 68.0°F20.0°C 63.3°F17.4°C 85% 0.9 mph S1.4 kmh S 3.0 mph4.8 kmh 29.86 in1011.2 mb 0.05 in1.3 mm 0.00 in0.0 mm 0.06 in1.5 mm
06:01 PM 68.0°F20.0°C 63.3°F17.4°C 85% 0.8 mph S1.3 kmh S 3.0 mph4.8 kmh 29.86 in1011.2 mb 0.05 in1.3 mm 0.00 in0.0 mm 0.06 in1.5 mm
06:02 PM 67.9°F19.9°C 62.9°F17.2°C 84% 0.7 mph S1.1 kmh S 2.0 mph3.2 kmh 29.86 in1011.2 mb 0.05 in1.3 mm 0.00 in0.0 mm 0.06 in1.5 mm
06:03 PM 67.9°F19.9°C 62.9°F17.2°C 84% Calm Calm 2.0 mph3.2 kmh 29.86 in1011.2 mb 0.05 in1.3 mm 0.00 in0.0 mm 0.06 in1.5 mm
06:04 PM 67.9°F19.9°C 62.5°F16.9°C 83% 0.2 mph S0.3 kmh S 1.0 mph1.6 kmh 29.87 in1011.5 mb 0.05 in1.3 mm 0.00 in0.0 mm 0.06 in1.5 mm
06:05 PM 68.0°F20.0°C 62.6°F17.0°C 83% 0.3 mph S0.5 kmh S 1.0 mph1.6 kmh 29.87 in1011.5 mb 0.05 in1.3 mm 0.00 in0.0 mm 0.06 in1.5 mm
06:06 PM 68.0°F20.0°C 62.3°F16.8°C 82% 0.1 mph S0.2 kmh S 1.0 mph1.6 kmh 29.87 in1011.5 mb 0.05 in1.3 mm 0.00 in0.0 mm 0.06 in1.5 mm
06:07 PM 68.0°F20.0°C 62.3°F16.8°C 82% Calm Calm 1.0 mph1.6 kmh 29.87 in1011.5 mb 0.05 in1.3 mm 0.00 in0.0 mm 0.06 in1.5 mm
06:08 PM 68.1°F20.1°C 62.4°F16.9°C 82% Calm Calm -- 29.87 in1011.5 mb 0.05 in1.3 mm 0.00 in0.0 mm 0.06 in1.5 mm
06:09 PM 68.1°F20.1°C 62.4°F16.9°C 82% Calm Calm -- 29.87 in1011.5 mb 0.05 in1.3 mm 0.00 in0.0 mm 0.06 in1.5 mm
06:10 PM 68.2°F20.1°C 62.1°F16.7°C 81% Calm Calm -- 29.87 in1011.5 mb 0.05 in1.3 mm 0.00 in0.0 mm 0.06 in1.5 mm
06:11 PM 68.2°F20.1°C 62.1°F16.7°C 81% Calm Calm -- 29.88 in1011.9 mb 0.05 in1.3 mm 0.00 in0.0 mm 0.06 in1.5 mm
06:12 PM 68.2°F20.1°C 61.8°F16.6°C 80% Calm Calm -- 29.88 in1011.9 mb 0.05 in1.3 mm 0.00 in0.0 mm 0.06 in1.5 mm
06:13 PM 68.3°F20.2°C 61.9°F16.6°C 80% 0.5 mph S0.8 kmh S 3.0 mph4.8 kmh 29.89 in1012.2 mb 0.05 in1.3 mm 0.00 in0.0 mm 0.06 in1.5 mm
06:14 PM 68.3°F20.2°C 61.9°F16.6°C 80% 5.5 mph WSW8.9 kmh WSW 13.0 mph20.9 kmh 29.90 in1012.5 mb 0.05 in1.3 mm 0.00 in0.0 mm 0.06 in1.5 mm
06:15 PM 68.3°F20.2°C 62.6°F17.0°C 82% 7.5 mph NW12.1 kmh NW 13.0 mph20.9 kmh 29.91 in1012.9 mb 0.05 in1.3 mm 0.00 in0.0 mm 0.06 in1.5 mm
06:16 PM 68.3°F20.2°C 62.9°F17.2°C 83% 12.1 mph WNW19.5 kmh WNW 18.0 mph29.0 kmh 29.91 in1012.9 mb 0.05 in1.3 mm 0.00 in0.0 mm 0.06 in1.5 mm
06:17 PM 68.3°F20.2°C 63.3°F17.4°C 84% 7.3 mph WSW11.7 kmh WSW 18.0 mph29.0 kmh 29.91 in1012.9 mb 0.05 in1.3 mm 0.00 in0.0 mm 0.06 in1.5 mm
06:18 PM 68.3°F20.2°C 63.3°F17.4°C 84% 6.0 mph W9.7 kmh W 14.0 mph22.5 kmh 29.91 in1012.9 mb 0.05 in1.3 mm 0.00 in0.0 mm 0.06 in1.5 mm
06:19 PM 68.2°F20.1°C 63.2°F17.3°C 84% 6.0 mph W9.7 kmh W 11.0 mph17.7 kmh 29.91 in1012.9 mb 0.05 in1.3 mm 0.00 in0.0 mm 0.06 in1.5 mm
06:20 PM 68.2°F20.1°C 63.5°F17.5°C 85% 4.8 mph W7.7 kmh W 8.0 mph12.9 kmh 29.91 in1012.9 mb 0.05 in1.3 mm 0.00 in0.0 mm 0.06 in1.5 mm
06:21 PM 68.1°F20.1°C 63.4°F17.4°C 85% 3.5 mph W5.6 kmh W 8.0 mph12.9 kmh 29.91 in1012.9 mb 0.05 in1.3 mm 0.00 in0.0 mm 0.06 in1.5 mm
06:22 PM 68.0°F20.0°C 63.0°F17.2°C 84% 4.4 mph W7.1 kmh W 7.0 mph11.3 kmh 29.91 in1012.9 mb 0.04 in1.0 mm 0.00 in0.0 mm 0.06 in1.5 mm
06:23 PM 68.0°F20.0°C 63.0°F17.2°C 84% 1.7 mph W2.7 kmh W 7.0 mph11.3 kmh 29.91 in1012.9 mb 0.04 in1.0 mm 0.00 in0.0 mm 0.06 in1.5 mm
06:24 PM 68.0°F20.0°C 63.0°F17.2°C 84% 3.7 mph W6.0 kmh W 6.0 mph9.7 kmh 29.91 in1012.9 mb 0.04 in1.0 mm 0.00 in0.0 mm 0.06 in1.5 mm
06:25 PM 68.0°F20.0°C 63.0°F17.2°C 84% 2.3 mph W3.7 kmh W 6.0 mph9.7 kmh 29.91 in1012.9 mb 0.04 in1.0 mm 0.00 in0.0 mm 0.06 in1.5 mm
06:26 PM 68.1°F20.1°C 62.7°F17.1°C 83% 5.1 mph W8.2 kmh W 9.0 mph14.5 kmh 29.91 in1012.9 mb 0.04 in1.0 mm 0.00 in0.0 mm 0.06 in1.5 mm
06:27 PM 68.2°F20.1°C 62.8°F17.1°C 83% 7.3 mph WNW11.7 kmh WNW 10.0 mph16.1 kmh 29.91 in1012.9 mb 0.04 in1.0 mm 0.00 in0.0 mm 0.06 in1.5 mm
06:28 PM 68.2°F20.1°C 62.8°F17.1°C 83% 5.6 mph NW9.0 kmh NW 10.0 mph16.1 kmh 29.91 in1012.9 mb 0.04 in1.0 mm 0.00 in0.0 mm 0.06 in1.5 mm
06:29 PM 68.2°F20.1°C 63.2°F17.3°C 84% 5.8 mph WNW9.3 kmh WNW 9.0 mph14.5 kmh 29.91 in1012.9 mb 0.04 in1.0 mm 0.00 in0.0 mm 0.06 in1.5 mm
06:30 PM 68.3°F20.2°C 63.3°F17.4°C 84% 4.4 mph WNW7.1 kmh WNW 10.0 mph16.1 kmh 29.91 in1012.9 mb 0.03 in0.8 mm 0.00 in0.0 mm 0.06 in1.5 mm
06:31 PM 68.2°F20.1°C 63.2°F17.3°C 84% 6.2 mph W10.0 kmh W 10.0 mph16.1 kmh 29.91 in1012.9 mb 0.03 in0.8 mm 0.00 in0.0 mm 0.06 in1.5 mm
06:32 PM 68.2°F20.1°C 63.2°F17.3°C 84% 3.4 mph W5.5 kmh W 10.0 mph16.1 kmh 29.92 in1013.2 mb 0.03 in0.8 mm 0.00 in0.0 mm 0.06 in1.5 mm
06:33 PM 68.1°F20.1°C 63.1°F17.3°C 84% 2.9 mph W4.7 kmh W 6.0 mph9.7 kmh 29.91 in1012.9 mb 0.03 in0.8 mm 0.00 in0.0 mm 0.06 in1.5 mm
06:34 PM 68.0°F20.0°C 63.0°F17.2°C 84% 3.5 mph W5.6 kmh W 6.0 mph9.7 kmh 29.92 in1013.2 mb 0.02 in0.5 mm 0.00 in0.0 mm 0.06 in1.5 mm
06:35 PM 68.0°F20.0°C 63.3°F17.4°C 85% 1.6 mph W2.6 kmh W 6.0 mph9.7 kmh 29.92 in1013.2 mb 0.02 in0.5 mm 0.00 in0.0 mm 0.06 in1.5 mm
06:36 PM 68.0°F20.0°C 63.3°F17.4°C 85% Calm Calm 3.0 mph4.8 kmh 29.92 in1013.2 mb 0.02 in0.5 mm 0.00 in0.0 mm 0.06 in1.5 mm
06:37 PM 67.9°F19.9°C 63.2°F17.3°C 85% 1.3 mph W2.1 kmh W 4.0 mph6.4 kmh 29.92 in1013.2 mb 0.02 in0.5 mm 0.00 in0.0 mm 0.06 in1.5 mm
06:38 PM 67.9°F19.9°C 63.2°F17.3°C 85% 3.3 mph W5.3 kmh W 7.0 mph11.3 kmh 29.92 in1013.2 mb 0.02 in0.5 mm 0.00 in0.0 mm 0.06 in1.5 mm
06:39 PM 67.8°F19.9°C 63.1°F17.3°C 85% 2.5 mph W4.0 kmh W 7.0 mph11.3 kmh 29.92 in1013.2 mb 0.02 in0.5 mm 0.00 in0.0 mm 0.06 in1.5 mm
06:40 PM 67.7°F19.8°C 63.4°F17.4°C 86% 2.5 mph W4.0 kmh W 4.0 mph6.4 kmh 29.92 in1013.2 mb 0.02 in0.5 mm 0.00 in0.0 mm 0.06 in1.5 mm
06:41 PM 67.7°F19.8°C 63.4°F17.4°C 86% 2.5 mph W4.0 kmh W 4.0 mph6.4 kmh 29.92 in1013.2 mb 0.02 in0.5 mm 0.00 in0.0 mm 0.06 in1.5 mm
06:42 PM 67.7°F19.8°C 63.4°F17.4°C 86% 4.8 mph W7.7 kmh W 6.0 mph9.7 kmh 29.92 in1013.2 mb 0.02 in0.5 mm 0.00 in0.0 mm 0.06 in1.5 mm
06:43 PM 67.6°F19.8°C 63.3°F17.4°C 86% 5.3 mph W8.5 kmh W 8.0 mph12.9 kmh 29.92 in1013.2 mb 0.02 in0.5 mm 0.00 in0.0 mm 0.06 in1.5 mm
06:44 PM 67.5°F19.7°C 63.2°F17.3°C 86% 4.0 mph W6.4 kmh W 8.0 mph12.9 kmh 29.92 in1013.2 mb 0.02 in0.5 mm 0.00 in0.0 mm 0.06 in1.5 mm
06:45 PM 67.5°F19.7°C 63.2°F17.3°C 86% 3.2 mph W5.1 kmh W 7.0 mph11.3 kmh 29.92 in1013.2 mb 0.01 in0.3 mm 0.00 in0.0 mm 0.06 in1.5 mm
06:46 PM 67.5°F19.7°C 63.2°F17.3°C 86% 5.2 mph W8.4 kmh W 8.0 mph12.9 kmh 29.92 in1013.2 mb 0.01 in0.3 mm 0.00 in0.0 mm 0.06 in1.5 mm
06:47 PM 67.4°F19.7°C 63.1°F17.3°C 86% 5.2 mph W8.4 kmh W 8.0 mph12.9 kmh 29.92 in1013.2 mb 0.01 in0.3 mm 0.00 in0.0 mm 0.06 in1.5 mm
06:48 PM 67.4°F19.7°C 63.1°F17.3°C 86% 3.3 mph W5.3 kmh W 8.0 mph12.9 kmh 29.92 in1013.2 mb 0.01 in0.3 mm 0.00 in0.0 mm 0.06 in1.5 mm
06:49 PM 67.3°F19.6°C 63.0°F17.2°C 86% 2.8 mph W4.5 kmh W 7.0 mph11.3 kmh 29.92 in1013.2 mb 0.02 in0.5 mm 0.60 in15.2 mm 0.07 in1.8 mm
06:50 PM 67.3°F19.6°C 63.3°F17.4°C 87% 4.4 mph W7.1 kmh W 8.0 mph12.9 kmh 29.92 in1013.2 mb 0.02 in0.5 mm 0.00 in0.0 mm 0.07 in1.8 mm
06:51 PM 67.3°F19.6°C 63.3°F17.4°C 87% 1.7 mph W2.7 kmh W 8.0 mph12.9 kmh 29.92 in1013.2 mb 0.02 in0.5 mm 0.00 in0.0 mm 0.07 in1.8 mm
06:52 PM 67.2°F19.6°C 63.2°F17.3°C 87% 3.8 mph W6.1 kmh W 7.0 mph11.3 kmh 29.93 in1013.5 mb 0.01 in0.3 mm 0.00 in0.0 mm 0.07 in1.8 mm
06:53 PM 67.2°F19.6°C 63.2°F17.3°C 87% 1.7 mph W2.7 kmh W 7.0 mph11.3 kmh 29.92 in1013.2 mb 0.01 in0.3 mm 0.00 in0.0 mm 0.07 in1.8 mm
06:54 PM 67.2°F19.6°C 63.2°F17.3°C 87% 3.1 mph W5.0 kmh W 4.0 mph6.4 kmh 29.92 in1013.2 mb 0.01 in0.3 mm 0.00 in0.0 mm 0.07 in1.8 mm
06:55 PM 67.1°F19.5°C 63.1°F17.3°C 87% 4.9 mph W7.9 kmh W 8.0 mph12.9 kmh 29.92 in1013.2 mb 0.01 in0.3 mm 0.00 in0.0 mm 0.07 in1.8 mm
06:56 PM 67.1°F19.5°C 63.1°F17.3°C 87% 3.7 mph W6.0 kmh W 8.0 mph12.9 kmh 29.93 in1013.5 mb 0.01 in0.3 mm 0.00 in0.0 mm 0.07 in1.8 mm
06:57 PM 67.0°F19.4°C 63.0°F17.2°C 87% 1.5 mph W2.4 kmh W 6.0 mph9.7 kmh 29.93 in1013.5 mb 0.01 in0.3 mm 0.00 in0.0 mm 0.07 in1.8 mm
06:58 PM 67.0°F19.4°C 63.0°F17.2°C 87% 2.4 mph W3.9 kmh W 4.0 mph6.4 kmh 29.93 in1013.5 mb 0.01 in0.3 mm 0.00 in0.0 mm 0.07 in1.8 mm
06:59 PM 67.0°F19.4°C 63.0°F17.2°C 87% 3.4 mph W5.5 kmh W 8.0 mph12.9 kmh 29.93 in1013.5 mb 0.01 in0.3 mm 0.00 in0.0 mm 0.07 in1.8 mm
07:00 PM 66.9°F19.4°C 62.9°F17.2°C 87% 2.4 mph WNW3.9 kmh WNW 8.0 mph12.9 kmh 29.93 in1013.5 mb 0.02 in0.5 mm 0.01 in0.3 mm 0.08 in2.0 mm
07:01 PM 66.9°F19.4°C 62.9°F17.2°C 87% 1.5 mph WNW2.4 kmh WNW 4.0 mph6.4 kmh 29.93 in1013.5 mb 0.02 in0.5 mm 0.00 in0.0 mm 0.08 in2.0 mm
07:02 PM 66.9°F19.4°C 62.9°F17.2°C 87% 0.1 mph WNW0.2 kmh WNW 4.0 mph6.4 kmh 29.93 in1013.5 mb 0.02 in0.5 mm 0.00 in0.0 mm 0.08 in2.0 mm
07:03 PM 66.9°F19.4°C 62.9°F17.2°C 87% 1.6 mph WNW2.6 kmh WNW 4.0 mph6.4 kmh 29.93 in1013.5 mb 0.02 in0.5 mm 0.00 in0.0 mm 0.08 in2.0 mm
07:04 PM 66.9°F19.4°C 63.2°F17.3°C 88% 2.2 mph WNW3.5 kmh WNW 4.0 mph6.4 kmh 29.93 in1013.5 mb 0.02 in0.5 mm 0.00 in0.0 mm 0.09 in2.3 mm
07:05 PM 66.8°F19.3°C 63.1°F17.3°C 88% 0.5 mph WNW0.8 kmh WNW 4.0 mph6.4 kmh 29.93 in1013.5 mb 0.03 in0.8 mm 0.60 in15.2 mm 0.09 in2.3 mm
07:06 PM 66.8°F19.3°C 63.1°F17.3°C 88% 3.8 mph WNW6.1 kmh WNW 8.0 mph12.9 kmh 29.93 in1013.5 mb 0.03 in0.8 mm 0.00 in0.0 mm 0.09 in2.3 mm
07:07 PM 66.8°F19.3°C 63.1°F17.3°C 88% 2.5 mph WNW4.0 kmh WNW 8.0 mph12.9 kmh 29.93 in1013.5 mb 0.04 in1.0 mm 0.60 in15.2 mm 0.10 in2.5 mm
07:08 PM 66.8°F19.3°C 63.1°F17.3°C 88% 1.4 mph WNW2.3 kmh WNW 4.0 mph6.4 kmh 29.93 in1013.5 mb 0.04 in1.0 mm 0.00 in0.0 mm 0.10 in2.5 mm
07:09 PM 66.8°F19.3°C 63.1°F17.3°C 88% 1.4 mph WNW2.3 kmh WNW 3.0 mph4.8 kmh 29.93 in1013.5 mb 0.05 in1.3 mm 0.60 in15.2 mm 0.11 in2.8 mm
07:10 PM 66.7°F19.3°C 63.0°F17.2°C 88% 1.0 mph WNW1.6 kmh WNW 3.0 mph4.8 kmh 29.93 in1013.5 mb 0.05 in1.3 mm 0.00 in0.0 mm 0.11 in2.8 mm
07:11 PM 66.8°F19.3°C 63.4°F17.4°C 89% 2.7 mph WNW4.3 kmh WNW 6.0 mph9.7 kmh 29.94 in1013.9 mb 0.05 in1.3 mm 0.00 in0.0 mm 0.11 in2.8 mm
07:12 PM 66.7°F19.3°C 63.4°F17.4°C 89% 4.5 mph W7.2 kmh W 7.0 mph11.3 kmh 29.94 in1013.9 mb 0.06 in1.5 mm 0.60 in15.2 mm 0.12 in3.0 mm
07:13 PM 66.7°F19.3°C 63.4°F17.4°C 89% 3.0 mph W4.8 kmh W 7.0 mph11.3 kmh 29.94 in1013.9 mb 0.06 in1.5 mm 0.00 in0.0 mm 0.12 in3.0 mm
07:14 PM 66.7°F19.3°C 63.4°F17.4°C 89% 1.3 mph W2.1 kmh W 6.0 mph9.7 kmh 29.94 in1013.9 mb 0.06 in1.5 mm 0.00 in0.0 mm 0.13 in3.3 mm
07:15 PM 66.6°F19.2°C 63.3°F17.4°C 89% 1.4 mph W2.3 kmh W 3.0 mph4.8 kmh 29.94 in1013.9 mb 0.06 in1.5 mm 0.00 in0.0 mm 0.13 in3.3 mm
07:16 PM 66.6°F19.2°C 63.3°F17.4°C 89% 0.3 mph W0.5 kmh W 3.0 mph4.8 kmh 29.94 in1013.9 mb 0.07 in1.8 mm 0.60 in15.2 mm 0.13 in3.3 mm
07:17 PM 66.6°F19.2°C 63.3°F17.4°C 89% 0.5 mph W0.8 kmh W 2.0 mph3.2 kmh 29.94 in1013.9 mb 0.07 in1.8 mm 0.00 in0.0 mm 0.13 in3.3 mm
07:18 PM 66.5°F19.2°C 63.2°F17.3°C 89% Calm Calm 2.0 mph3.2 kmh 29.94 in1013.9 mb 0.08 in2.0 mm 0.60 in15.2 mm 0.14 in3.6 mm
07:19 PM 66.5°F19.2°C 63.2°F17.3°C 89% Calm Calm -- 29.94 in1013.9 mb 0.08 in2.0 mm 0.00 in0.0 mm 0.14 in3.6 mm
07:20 PM 66.4°F19.1°C 63.1°F17.3°C 89% Calm Calm -- 29.94 in1013.9 mb 0.08 in2.0 mm 0.00 in0.0 mm 0.14 in3.6 mm
07:21 PM 66.3°F19.1°C 63.3°F17.4°C 90% Calm Calm -- 29.94 in1013.9 mb 0.08 in2.0 mm 0.00 in0.0 mm 0.14 in3.6 mm
07:22 PM 66.3°F19.1°C 63.3°F17.4°C 90% Calm Calm -- 29.94 in1013.9 mb 0.09 in2.3 mm 0.60 in15.2 mm 0.15 in3.8 mm
07:23 PM 66.3°F19.1°C 63.3°F17.4°C 90% 0.2 mph W0.3 kmh W 3.0 mph4.8 kmh 29.94 in1013.9 mb 0.09 in2.3 mm 0.00 in0.0 mm 0.15 in3.8 mm
07:24 PM 66.2°F19.0°C 63.2°F17.3°C 90% 1.3 mph W2.1 kmh W 3.0 mph4.8 kmh 29.94 in1013.9 mb 0.09 in2.3 mm 0.00 in0.0 mm 0.16 in4.1 mm
07:25 PM 66.2°F19.0°C 63.2°F17.3°C 90% 0.6 mph W1.0 kmh W 3.0 mph4.8 kmh 29.94 in1013.9 mb 0.09 in2.3 mm 0.00 in0.0 mm 0.16 in4.1 mm
07:26 PM 66.2°F19.0°C 63.2°F17.3°C 90% 1.6 mph W2.6 kmh W 4.0 mph6.4 kmh 29.93 in1013.5 mb 0.10 in2.5 mm 0.60 in15.2 mm 0.17 in4.3 mm
07:27 PM 66.1°F18.9°C 63.1°F17.3°C 90% 0.2 mph W0.3 kmh W 4.0 mph6.4 kmh 29.93 in1013.5 mb 0.11 in2.8 mm 0.60 in15.2 mm 0.17 in4.3 mm
07:28 PM 66.1°F18.9°C 63.1°F17.3°C 90% Calm Calm 1.0 mph1.6 kmh 29.93 in1013.5 mb 0.11 in2.8 mm 0.00 in0.0 mm 0.17 in4.3 mm
07:29 PM 66.1°F18.9°C 63.1°F17.3°C 90% Calm Calm -- 29.93 in1013.5 mb 0.12 in3.0 mm 0.60 in15.2 mm 0.18 in4.6 mm
07:30 PM 66.0°F18.9°C 63.0°F17.2°C 90% Calm Calm -- 29.93 in1013.5 mb 0.12 in3.0 mm 0.00 in0.0 mm 0.18 in4.6 mm
07:31 PM 66.0°F18.9°C 63.0°F17.2°C 90% Calm Calm -- 29.93 in1013.5 mb 0.13 in3.3 mm 0.60 in15.2 mm 0.19 in4.8 mm
07:32 PM 66.0°F18.9°C 63.0°F17.2°C 90% Calm Calm -- 29.93 in1013.5 mb 0.13 in3.3 mm 0.00 in0.0 mm 0.19 in4.8 mm
07:33 PM 66.0°F18.9°C 63.3°F17.4°C 91% Calm Calm -- 29.93 in1013.5 mb 0.13 in3.3 mm 0.00 in0.0 mm 0.19 in4.8 mm
07:34 PM 65.9°F18.8°C 63.2°F17.3°C 91% Calm Calm -- 29.93 in1013.5 mb 0.13 in3.3 mm 0.00 in0.0 mm 0.20 in5.1 mm
07:35 PM 65.9°F18.8°C 63.2°F17.3°C 91% Calm Calm -- 29.93 in1013.5 mb 0.13 in3.3 mm 0.00 in0.0 mm 0.20 in5.1 mm
07:36 PM 65.9°F18.8°C 63.2°F17.3°C 91% Calm Calm -- 29.93 in1013.5 mb 0.13 in3.3 mm 0.00 in0.0 mm 0.20 in5.1 mm
07:37 PM 65.9°F18.8°C 63.2°F17.3°C 91% Calm Calm -- 29.93 in1013.5 mb 0.14 in3.6 mm 0.60 in15.2 mm 0.20 in5.1 mm
07:38 PM 65.9°F18.8°C 63.2°F17.3°C 91% Calm Calm -- 29.93 in1013.5 mb 0.14 in3.6 mm 0.00 in0.0 mm 0.20 in5.1 mm
07:39 PM 65.8°F18.8°C 63.1°F17.3°C 91% Calm Calm -- 29.93 in1013.5 mb 0.15 in3.8 mm 0.60 in15.2 mm 0.21 in5.3 mm
07:40 PM 65.8°F18.8°C 63.1°F17.3°C 91% Calm Calm -- 29.93 in1013.5 mb 0.15 in3.8 mm 0.00 in0.0 mm 0.21 in5.3 mm
07:41 PM 65.8°F18.8°C 63.1°F17.3°C 91% Calm Calm -- 29.93 in1013.5 mb 0.15 in3.8 mm 0.00 in0.0 mm 0.21 in5.3 mm
07:42 PM 65.8°F18.8°C 63.1°F17.3°C 91% Calm Calm -- 29.93 in1013.5 mb 0.16 in4.1 mm 0.60 in15.2 mm 0.22 in5.6 mm
07:43 PM 65.8°F18.8°C 63.1°F17.3°C 91% Calm Calm -- 29.93 in1013.5 mb 0.16 in4.1 mm 0.00 in0.0 mm 0.22 in5.6 mm
07:44 PM 65.7°F18.7°C 63.0°F17.2°C 91% Calm Calm -- 29.92 in1013.2 mb 0.16 in4.1 mm 0.00 in0.0 mm 0.22 in5.6 mm
07:45 PM 65.7°F18.7°C 63.0°F17.2°C 91% Calm Calm -- 29.92 in1013.2 mb 0.17 in4.3 mm 0.60 in15.2 mm 0.23 in5.8 mm
07:46 PM 65.7°F18.7°C 63.0°F17.2°C 91% Calm Calm -- 29.92 in1013.2 mb 0.17 in4.3 mm 0.00 in0.0 mm 0.23 in5.8 mm
07:47 PM 65.7°F18.7°C 63.0°F17.2°C 91% Calm Calm -- 29.92 in1013.2 mb 0.17 in4.3 mm 0.00 in